<?xml version="1.0" encoding="UTF-8" standalone="no" ?>
<gpx xmlns="http://www.topografix.com/GPX/1/1" xmlns:xsi="http://www.w3.org/2001/XMLSchema-instance" xsi:schemaLocation="http://www.topografix.com/GPX/1/1 http://www.topografix.com/GPX/1/1/gpx.xsd" version="1.1" creator="VisuGPX - https://www.visugpx.com">
  <metadata>
    <name>Vacances 2021</name>
  </metadata>
  <trk>
    <name><![CDATA[Journal actif: 2021-07-31 14:28]]></name>
    <trkseg>
      <trkpt lat="48.66352" lon="-1.98837">
        <ele>38.59</ele>
        <time>2021-07-31T16:28:07Z</time>
      </trkpt>
      <trkpt lat="48.66344" lon="-1.98839">
        <ele>35.23</ele>
        <time>2021-07-31T16:28:30Z</time>
      </trkpt>
      <trkpt lat="48.66285" lon="-1.98854">
        <ele>32.34</ele>
        <time>2021-07-31T16:28:42Z</time>
      </trkpt>
      <trkpt lat="48.66281" lon="-1.98856">
        <ele>31.38</ele>
        <time>2021-07-31T16:28:43Z</time>
      </trkpt>
      <trkpt lat="48.66278" lon="-1.9886">
        <ele>29.94</ele>
        <time>2021-07-31T16:28:44Z</time>
      </trkpt>
      <trkpt lat="48.66267" lon="-1.98871">
        <ele>25.13</ele>
        <time>2021-07-31T16:28:48Z</time>
      </trkpt>
      <trkpt lat="48.66263" lon="-1.9887">
        <ele>24.65</ele>
        <time>2021-07-31T16:28:49Z</time>
      </trkpt>
      <trkpt lat="48.6626" lon="-1.98867">
        <ele>24.65</ele>
        <time>2021-07-31T16:28:50Z</time>
      </trkpt>
      <trkpt lat="48.66193" lon="-1.98807">
        <ele>23.69</ele>
        <time>2021-07-31T16:29:01Z</time>
      </trkpt>
      <trkpt lat="48.6606" lon="-1.98692">
        <ele>24.17</ele>
        <time>2021-07-31T16:29:17Z</time>
      </trkpt>
      <trkpt lat="48.65892" lon="-1.98545">
        <ele>28.02</ele>
        <time>2021-07-31T16:29:35Z</time>
      </trkpt>
      <trkpt lat="48.65851" lon="-1.9851">
        <ele>29.46</ele>
        <time>2021-07-31T16:29:42Z</time>
      </trkpt>
      <trkpt lat="48.65845" lon="-1.98519">
        <ele>29.46</ele>
        <time>2021-07-31T16:29:45Z</time>
      </trkpt>
      <trkpt lat="48.65843" lon="-1.9852">
        <ele>28.98</ele>
        <time>2021-07-31T16:29:46Z</time>
      </trkpt>
      <trkpt lat="48.65843" lon="-1.9852">
        <ele>28.98</ele>
        <time>2021-07-31T16:29:47Z</time>
      </trkpt>
      <trkpt lat="48.65834" lon="-1.98535">
        <ele>28.02</ele>
        <time>2021-07-31T16:29:53Z</time>
      </trkpt>
      <trkpt lat="48.65834" lon="-1.98538">
        <ele>28.02</ele>
        <time>2021-07-31T16:29:54Z</time>
      </trkpt>
      <trkpt lat="48.65834" lon="-1.98569">
        <ele>27.05</ele>
        <time>2021-07-31T16:30:04Z</time>
      </trkpt>
      <trkpt lat="48.65836" lon="-1.98612">
        <ele>26.57</ele>
        <time>2021-07-31T16:30:14Z</time>
      </trkpt>
      <trkpt lat="48.65843" lon="-1.98797">
        <ele>16.96</ele>
        <time>2021-07-31T16:30:29Z</time>
      </trkpt>
      <trkpt lat="48.65847" lon="-1.98968">
        <ele>10.23</ele>
        <time>2021-07-31T16:30:42Z</time>
      </trkpt>
      <trkpt lat="48.65847" lon="-1.98989">
        <ele>9.27</ele>
        <time>2021-07-31T16:30:44Z</time>
      </trkpt>
      <trkpt lat="48.65847" lon="-1.99">
        <ele>8.79</ele>
        <time>2021-07-31T16:30:45Z</time>
      </trkpt>
      <trkpt lat="48.65846" lon="-1.99012">
        <ele>8.79</ele>
        <time>2021-07-31T16:30:46Z</time>
      </trkpt>
      <trkpt lat="48.65802" lon="-1.99256">
        <ele>6.87</ele>
        <time>2021-07-31T16:31:02Z</time>
      </trkpt>
      <trkpt lat="48.65778" lon="-1.99398">
        <ele>6.39</ele>
        <time>2021-07-31T16:31:14Z</time>
      </trkpt>
      <trkpt lat="48.65776" lon="-1.99411">
        <ele>6.87</ele>
        <time>2021-07-31T16:31:22Z</time>
      </trkpt>
      <trkpt lat="48.65771" lon="-1.99435">
        <ele>6.87</ele>
        <time>2021-07-31T16:31:56Z</time>
      </trkpt>
      <trkpt lat="48.6577" lon="-1.99441">
        <ele>6.87</ele>
        <time>2021-07-31T16:31:58Z</time>
      </trkpt>
      <trkpt lat="48.6577" lon="-1.99445">
        <ele>6.87</ele>
        <time>2021-07-31T16:31:59Z</time>
      </trkpt>
      <trkpt lat="48.65766" lon="-1.99444">
        <ele>6.87</ele>
        <time>2021-07-31T16:32:00Z</time>
      </trkpt>
      <trkpt lat="48.65762" lon="-1.99442">
        <ele>6.87</ele>
        <time>2021-07-31T16:32:01Z</time>
      </trkpt>
      <trkpt lat="48.65758" lon="-1.99441">
        <ele>6.87</ele>
        <time>2021-07-31T16:32:02Z</time>
      </trkpt>
      <trkpt lat="48.657" lon="-1.99421">
        <ele>7.35</ele>
        <time>2021-07-31T16:32:11Z</time>
      </trkpt>
      <trkpt lat="48.6557" lon="-1.99378">
        <ele>7.35</ele>
        <time>2021-07-31T16:32:26Z</time>
      </trkpt>
      <trkpt lat="48.65567" lon="-1.99377">
        <ele>7.35</ele>
        <time>2021-07-31T16:32:33Z</time>
      </trkpt>
      <trkpt lat="48.65545" lon="-1.99369">
        <ele>6.87</ele>
        <time>2021-07-31T16:33:13Z</time>
      </trkpt>
      <trkpt lat="48.65461" lon="-1.99339">
        <ele>7.35</ele>
        <time>2021-07-31T16:33:23Z</time>
      </trkpt>
      <trkpt lat="48.65334" lon="-1.99296">
        <ele>7.83</ele>
        <time>2021-07-31T16:33:38Z</time>
      </trkpt>
      <trkpt lat="48.65176" lon="-1.99243">
        <ele>8.31</ele>
        <time>2021-07-31T16:33:56Z</time>
      </trkpt>
      <trkpt lat="48.65042" lon="-1.99198">
        <ele>8.79</ele>
        <time>2021-07-31T16:34:12Z</time>
      </trkpt>
      <trkpt lat="48.64896" lon="-1.99145">
        <ele>9.27</ele>
        <time>2021-07-31T16:34:28Z</time>
      </trkpt>
      <trkpt lat="48.64886" lon="-1.9914">
        <ele>8.79</ele>
        <time>2021-07-31T16:34:31Z</time>
      </trkpt>
      <trkpt lat="48.64886" lon="-1.9914">
        <ele>8.79</ele>
        <time>2021-07-31T16:34:32Z</time>
      </trkpt>
      <trkpt lat="48.64874" lon="-1.99148">
        <ele>8.79</ele>
        <time>2021-07-31T16:34:33Z</time>
      </trkpt>
      <trkpt lat="48.64871" lon="-1.99144">
        <ele>8.79</ele>
        <time>2021-07-31T16:34:34Z</time>
      </trkpt>
      <trkpt lat="48.6486" lon="-1.99127">
        <ele>8.79</ele>
        <time>2021-07-31T16:34:35Z</time>
      </trkpt>
      <trkpt lat="48.64769" lon="-1.99035">
        <ele>8.79</ele>
        <time>2021-07-31T16:34:46Z</time>
      </trkpt>
      <trkpt lat="48.64668" lon="-1.98924">
        <ele>8.31</ele>
        <time>2021-07-31T16:34:59Z</time>
      </trkpt>
      <trkpt lat="48.64654" lon="-1.98907">
        <ele>8.79</ele>
        <time>2021-07-31T16:35:06Z</time>
      </trkpt>
      <trkpt lat="48.64644" lon="-1.98895">
        <ele>9.27</ele>
        <time>2021-07-31T16:35:31Z</time>
      </trkpt>
      <trkpt lat="48.6464" lon="-1.9889">
        <ele>9.27</ele>
        <time>2021-07-31T16:35:32Z</time>
      </trkpt>
      <trkpt lat="48.64637" lon="-1.98885">
        <ele>9.27</ele>
        <time>2021-07-31T16:35:33Z</time>
      </trkpt>
      <trkpt lat="48.64626" lon="-1.98882">
        <ele>9.27</ele>
        <time>2021-07-31T16:35:34Z</time>
      </trkpt>
      <trkpt lat="48.64621" lon="-1.98888">
        <ele>8.79</ele>
        <time>2021-07-31T16:35:35Z</time>
      </trkpt>
      <trkpt lat="48.64616" lon="-1.98895">
        <ele>8.79</ele>
        <time>2021-07-31T16:35:36Z</time>
      </trkpt>
      <trkpt lat="48.6455" lon="-1.98967">
        <ele>8.79</ele>
        <time>2021-07-31T16:35:43Z</time>
      </trkpt>
      <trkpt lat="48.64424" lon="-1.9903">
        <ele>12.63</ele>
        <time>2021-07-31T16:35:52Z</time>
      </trkpt>
      <trkpt lat="48.64218" lon="-1.99031">
        <ele>9.27</ele>
        <time>2021-07-31T16:36:06Z</time>
      </trkpt>
      <trkpt lat="48.64122" lon="-1.99021">
        <ele>7.35</ele>
        <time>2021-07-31T16:36:15Z</time>
      </trkpt>
      <trkpt lat="48.64101" lon="-1.99022">
        <ele>7.35</ele>
        <time>2021-07-31T16:36:19Z</time>
      </trkpt>
      <trkpt lat="48.64093" lon="-1.99029">
        <ele>7.35</ele>
        <time>2021-07-31T16:36:20Z</time>
      </trkpt>
      <trkpt lat="48.64085" lon="-1.99036">
        <ele>7.35</ele>
        <time>2021-07-31T16:36:22Z</time>
      </trkpt>
      <trkpt lat="48.64079" lon="-1.99036">
        <ele>7.35</ele>
        <time>2021-07-31T16:36:23Z</time>
      </trkpt>
      <trkpt lat="48.64075" lon="-1.99037">
        <ele>7.35</ele>
        <time>2021-07-31T16:36:24Z</time>
      </trkpt>
      <trkpt lat="48.64067" lon="-1.99018">
        <ele>7.35</ele>
        <time>2021-07-31T16:36:25Z</time>
      </trkpt>
      <trkpt lat="48.64061" lon="-1.99018">
        <ele>6.87</ele>
        <time>2021-07-31T16:36:26Z</time>
      </trkpt>
      <trkpt lat="48.64053" lon="-1.99018">
        <ele>6.87</ele>
        <time>2021-07-31T16:36:27Z</time>
      </trkpt>
      <trkpt lat="48.64045" lon="-1.99018">
        <ele>6.87</ele>
        <time>2021-07-31T16:36:28Z</time>
      </trkpt>
      <trkpt lat="48.63934" lon="-1.99004">
        <ele>5.91</ele>
        <time>2021-07-31T16:36:39Z</time>
      </trkpt>
      <trkpt lat="48.63842" lon="-1.98999">
        <ele>5.91</ele>
        <time>2021-07-31T16:36:51Z</time>
      </trkpt>
      <trkpt lat="48.63835" lon="-1.98999">
        <ele>5.91</ele>
        <time>2021-07-31T16:36:52Z</time>
      </trkpt>
      <trkpt lat="48.63829" lon="-1.98999">
        <ele>5.91</ele>
        <time>2021-07-31T16:36:53Z</time>
      </trkpt>
      <trkpt lat="48.63819" lon="-1.99005">
        <ele>6.39</ele>
        <time>2021-07-31T16:36:55Z</time>
      </trkpt>
      <trkpt lat="48.63806" lon="-1.98996">
        <ele>6.39</ele>
        <time>2021-07-31T16:36:56Z</time>
      </trkpt>
      <trkpt lat="48.63805" lon="-1.98996">
        <ele>6.39</ele>
        <time>2021-07-31T16:36:57Z</time>
      </trkpt>
      <trkpt lat="48.63798" lon="-1.98995">
        <ele>6.39</ele>
        <time>2021-07-31T16:36:58Z</time>
      </trkpt>
      <trkpt lat="48.6379" lon="-1.98994">
        <ele>5.91</ele>
        <time>2021-07-31T16:36:59Z</time>
      </trkpt>
      <trkpt lat="48.63783" lon="-1.98993">
        <ele>5.91</ele>
        <time>2021-07-31T16:37:00Z</time>
      </trkpt>
      <trkpt lat="48.63775" lon="-1.98992">
        <ele>5.91</ele>
        <time>2021-07-31T16:37:01Z</time>
      </trkpt>
      <trkpt lat="48.63669" lon="-1.98979">
        <ele>6.87</ele>
        <time>2021-07-31T16:37:11Z</time>
      </trkpt>
      <trkpt lat="48.63605" lon="-1.98962">
        <ele>8.79</ele>
        <time>2021-07-31T16:37:19Z</time>
      </trkpt>
      <trkpt lat="48.63601" lon="-1.98964">
        <ele>9.27</ele>
        <time>2021-07-31T16:37:20Z</time>
      </trkpt>
      <trkpt lat="48.63597" lon="-1.98966">
        <ele>9.27</ele>
        <time>2021-07-31T16:37:21Z</time>
      </trkpt>
      <trkpt lat="48.63593" lon="-1.98968">
        <ele>9.27</ele>
        <time>2021-07-31T16:37:22Z</time>
      </trkpt>
      <trkpt lat="48.63588" lon="-1.98971">
        <ele>9.27</ele>
        <time>2021-07-31T16:37:23Z</time>
      </trkpt>
      <trkpt lat="48.63584" lon="-1.98973">
        <ele>9.27</ele>
        <time>2021-07-31T16:37:24Z</time>
      </trkpt>
      <trkpt lat="48.63569" lon="-1.98981">
        <ele>9.27</ele>
        <time>2021-07-31T16:37:31Z</time>
      </trkpt>
      <trkpt lat="48.63563" lon="-1.98984">
        <ele>9.75</ele>
        <time>2021-07-31T16:37:33Z</time>
      </trkpt>
      <trkpt lat="48.63558" lon="-1.98986">
        <ele>9.75</ele>
        <time>2021-07-31T16:37:34Z</time>
      </trkpt>
      <trkpt lat="48.63554" lon="-1.98989">
        <ele>9.75</ele>
        <time>2021-07-31T16:37:35Z</time>
      </trkpt>
      <trkpt lat="48.63549" lon="-1.98986">
        <ele>10.23</ele>
        <time>2021-07-31T16:37:36Z</time>
      </trkpt>
      <trkpt lat="48.63545" lon="-1.98982">
        <ele>10.23</ele>
        <time>2021-07-31T16:37:37Z</time>
      </trkpt>
      <trkpt lat="48.63539" lon="-1.98976">
        <ele>10.71</ele>
        <time>2021-07-31T16:37:38Z</time>
      </trkpt>
      <trkpt lat="48.63533" lon="-1.9897">
        <ele>11.19</ele>
        <time>2021-07-31T16:37:39Z</time>
      </trkpt>
      <trkpt lat="48.63525" lon="-1.98967">
        <ele>11.67</ele>
        <time>2021-07-31T16:37:40Z</time>
      </trkpt>
      <trkpt lat="48.63516" lon="-1.98965">
        <ele>12.15</ele>
        <time>2021-07-31T16:37:41Z</time>
      </trkpt>
      <trkpt lat="48.63507" lon="-1.98963">
        <ele>12.63</ele>
        <time>2021-07-31T16:37:42Z</time>
      </trkpt>
      <trkpt lat="48.6334" lon="-1.98946">
        <ele>21.77</ele>
        <time>2021-07-31T16:37:58Z</time>
      </trkpt>
      <trkpt lat="48.63212" lon="-1.98932">
        <ele>24.17</ele>
        <time>2021-07-31T16:38:10Z</time>
      </trkpt>
      <trkpt lat="48.63127" lon="-1.98924">
        <ele>27.05</ele>
        <time>2021-07-31T16:38:21Z</time>
      </trkpt>
      <trkpt lat="48.62971" lon="-1.98908">
        <ele>30.9</ele>
        <time>2021-07-31T16:38:33Z</time>
      </trkpt>
      <trkpt lat="48.6277" lon="-1.98896">
        <ele>35.71</ele>
        <time>2021-07-31T16:38:48Z</time>
      </trkpt>
      <trkpt lat="48.6272" lon="-1.98899">
        <ele>37.15</ele>
        <time>2021-07-31T16:38:55Z</time>
      </trkpt>
      <trkpt lat="48.62662" lon="-1.98904">
        <ele>40.03</ele>
        <time>2021-07-31T16:39:07Z</time>
      </trkpt>
      <trkpt lat="48.62655" lon="-1.98905">
        <ele>40.03</ele>
        <time>2021-07-31T16:39:11Z</time>
      </trkpt>
      <trkpt lat="48.62652" lon="-1.98905">
        <ele>40.03</ele>
        <time>2021-07-31T16:39:12Z</time>
      </trkpt>
      <trkpt lat="48.62644" lon="-1.98912">
        <ele>40.51</ele>
        <time>2021-07-31T16:39:13Z</time>
      </trkpt>
      <trkpt lat="48.62642" lon="-1.98919">
        <ele>40.51</ele>
        <time>2021-07-31T16:39:14Z</time>
      </trkpt>
      <trkpt lat="48.6264" lon="-1.98926">
        <ele>40.51</ele>
        <time>2021-07-31T16:39:15Z</time>
      </trkpt>
      <trkpt lat="48.62636" lon="-1.98933">
        <ele>40.51</ele>
        <time>2021-07-31T16:39:16Z</time>
      </trkpt>
      <trkpt lat="48.62631" lon="-1.98938">
        <ele>40.99</ele>
        <time>2021-07-31T16:39:17Z</time>
      </trkpt>
      <trkpt lat="48.62624" lon="-1.98944">
        <ele>40.51</ele>
        <time>2021-07-31T16:39:18Z</time>
      </trkpt>
      <trkpt lat="48.62618" lon="-1.98951">
        <ele>40.51</ele>
        <time>2021-07-31T16:39:19Z</time>
      </trkpt>
      <trkpt lat="48.6261" lon="-1.98953">
        <ele>40.51</ele>
        <time>2021-07-31T16:39:20Z</time>
      </trkpt>
      <trkpt lat="48.62601" lon="-1.98953">
        <ele>40.51</ele>
        <time>2021-07-31T16:39:21Z</time>
      </trkpt>
      <trkpt lat="48.62592" lon="-1.98953">
        <ele>40.03</ele>
        <time>2021-07-31T16:39:22Z</time>
      </trkpt>
      <trkpt lat="48.62584" lon="-1.98947">
        <ele>39.55</ele>
        <time>2021-07-31T16:39:23Z</time>
      </trkpt>
      <trkpt lat="48.62575" lon="-1.98938">
        <ele>40.51</ele>
        <time>2021-07-31T16:39:24Z</time>
      </trkpt>
      <trkpt lat="48.62568" lon="-1.9893">
        <ele>40.99</ele>
        <time>2021-07-31T16:39:25Z</time>
      </trkpt>
      <trkpt lat="48.62565" lon="-1.98921">
        <ele>40.99</ele>
        <time>2021-07-31T16:39:26Z</time>
      </trkpt>
      <trkpt lat="48.6256" lon="-1.98911">
        <ele>41.47</ele>
        <time>2021-07-31T16:39:27Z</time>
      </trkpt>
      <trkpt lat="48.62552" lon="-1.98901">
        <ele>41.47</ele>
        <time>2021-07-31T16:39:28Z</time>
      </trkpt>
      <trkpt lat="48.62544" lon="-1.98897">
        <ele>41.95</ele>
        <time>2021-07-31T16:39:29Z</time>
      </trkpt>
      <trkpt lat="48.62536" lon="-1.98894">
        <ele>41.95</ele>
        <time>2021-07-31T16:39:30Z</time>
      </trkpt>
      <trkpt lat="48.62529" lon="-1.98892">
        <ele>41.47</ele>
        <time>2021-07-31T16:39:31Z</time>
      </trkpt>
      <trkpt lat="48.62521" lon="-1.98891">
        <ele>41.47</ele>
        <time>2021-07-31T16:39:32Z</time>
      </trkpt>
      <trkpt lat="48.62426" lon="-1.98889">
        <ele>40.51</ele>
        <time>2021-07-31T16:39:42Z</time>
      </trkpt>
      <trkpt lat="48.62255" lon="-1.98903">
        <ele>40.51</ele>
        <time>2021-07-31T16:39:55Z</time>
      </trkpt>
      <trkpt lat="48.62102" lon="-1.98983">
        <ele>36.19</ele>
        <time>2021-07-31T16:40:06Z</time>
      </trkpt>
      <trkpt lat="48.62001" lon="-1.99108">
        <ele>37.15</ele>
        <time>2021-07-31T16:40:15Z</time>
      </trkpt>
      <trkpt lat="48.61995" lon="-1.99123">
        <ele>37.15</ele>
        <time>2021-07-31T16:40:16Z</time>
      </trkpt>
      <trkpt lat="48.61989" lon="-1.99137">
        <ele>36.19</ele>
        <time>2021-07-31T16:40:17Z</time>
      </trkpt>
      <trkpt lat="48.61982" lon="-1.99151">
        <ele>36.19</ele>
        <time>2021-07-31T16:40:18Z</time>
      </trkpt>
      <trkpt lat="48.6198" lon="-1.99164">
        <ele>35.71</ele>
        <time>2021-07-31T16:40:19Z</time>
      </trkpt>
      <trkpt lat="48.6198" lon="-1.99199">
        <ele>35.23</ele>
        <time>2021-07-31T16:40:20Z</time>
      </trkpt>
      <trkpt lat="48.61985" lon="-1.99212">
        <ele>34.74</ele>
        <time>2021-07-31T16:40:21Z</time>
      </trkpt>
      <trkpt lat="48.61992" lon="-1.99224">
        <ele>34.26</ele>
        <time>2021-07-31T16:40:22Z</time>
      </trkpt>
      <trkpt lat="48.61992" lon="-1.99224">
        <ele>33.78</ele>
        <time>2021-07-31T16:40:23Z</time>
      </trkpt>
      <trkpt lat="48.62012" lon="-1.99241">
        <ele>33.3</ele>
        <time>2021-07-31T16:40:24Z</time>
      </trkpt>
      <trkpt lat="48.62012" lon="-1.99241">
        <ele>33.78</ele>
        <time>2021-07-31T16:40:25Z</time>
      </trkpt>
      <trkpt lat="48.62025" lon="-1.99246">
        <ele>33.78</ele>
        <time>2021-07-31T16:40:26Z</time>
      </trkpt>
      <trkpt lat="48.62051" lon="-1.99246">
        <ele>34.26</ele>
        <time>2021-07-31T16:40:27Z</time>
      </trkpt>
      <trkpt lat="48.62051" lon="-1.99246">
        <ele>35.23</ele>
        <time>2021-07-31T16:40:28Z</time>
      </trkpt>
      <trkpt lat="48.62075" lon="-1.99235">
        <ele>35.71</ele>
        <time>2021-07-31T16:40:29Z</time>
      </trkpt>
      <trkpt lat="48.62084" lon="-1.99224">
        <ele>37.15</ele>
        <time>2021-07-31T16:40:30Z</time>
      </trkpt>
      <trkpt lat="48.62092" lon="-1.99213">
        <ele>37.63</ele>
        <time>2021-07-31T16:40:31Z</time>
      </trkpt>
      <trkpt lat="48.62092" lon="-1.99213">
        <ele>38.59</ele>
        <time>2021-07-31T16:40:32Z</time>
      </trkpt>
      <trkpt lat="48.62097" lon="-1.99184">
        <ele>39.07</ele>
        <time>2021-07-31T16:40:33Z</time>
      </trkpt>
      <trkpt lat="48.62098" lon="-1.99169">
        <ele>39.55</ele>
        <time>2021-07-31T16:40:34Z</time>
      </trkpt>
      <trkpt lat="48.62098" lon="-1.99169">
        <ele>39.55</ele>
        <time>2021-07-31T16:40:35Z</time>
      </trkpt>
      <trkpt lat="48.62097" lon="-1.99156">
        <ele>39.07</ele>
        <time>2021-07-31T16:40:36Z</time>
      </trkpt>
      <trkpt lat="48.62095" lon="-1.99141">
        <ele>38.59</ele>
        <time>2021-07-31T16:40:37Z</time>
      </trkpt>
      <trkpt lat="48.62042" lon="-1.98979">
        <ele>37.63</ele>
        <time>2021-07-31T16:40:47Z</time>
      </trkpt>
      <trkpt lat="48.61957" lon="-1.98779">
        <ele>33.3</ele>
        <time>2021-07-31T16:40:57Z</time>
      </trkpt>
      <trkpt lat="48.61838" lon="-1.98645">
        <ele>32.82</ele>
        <time>2021-07-31T16:41:05Z</time>
      </trkpt>
      <trkpt lat="48.6162" lon="-1.98479">
        <ele>33.78</ele>
        <time>2021-07-31T16:41:19Z</time>
      </trkpt>
      <trkpt lat="48.61301" lon="-1.98244">
        <ele>41.47</ele>
        <time>2021-07-31T16:41:38Z</time>
      </trkpt>
      <trkpt lat="48.60887" lon="-1.9792">
        <ele>54.93</ele>
        <time>2021-07-31T16:42:01Z</time>
      </trkpt>
      <trkpt lat="48.6064" lon="-1.97649">
        <ele>47.72</ele>
        <time>2021-07-31T16:42:15Z</time>
      </trkpt>
      <trkpt lat="48.60478" lon="-1.97429">
        <ele>40.03</ele>
        <time>2021-07-31T16:42:26Z</time>
      </trkpt>
      <trkpt lat="48.6016" lon="-1.97009">
        <ele>29.94</ele>
        <time>2021-07-31T16:42:44Z</time>
      </trkpt>
      <trkpt lat="48.59855" lon="-1.96667">
        <ele>28.98</ele>
        <time>2021-07-31T16:43:00Z</time>
      </trkpt>
      <trkpt lat="48.5954" lon="-1.96358">
        <ele>21.77</ele>
        <time>2021-07-31T16:43:16Z</time>
      </trkpt>
      <trkpt lat="48.5928" lon="-1.96083">
        <ele>18.4</ele>
        <time>2021-07-31T16:43:29Z</time>
      </trkpt>
      <trkpt lat="48.58924" lon="-1.95649">
        <ele>33.78</ele>
        <time>2021-07-31T16:43:49Z</time>
      </trkpt>
      <trkpt lat="48.5867" lon="-1.95362">
        <ele>45.8</ele>
        <time>2021-07-31T16:44:03Z</time>
      </trkpt>
      <trkpt lat="48.58445" lon="-1.95207">
        <ele>38.59</ele>
        <time>2021-07-31T16:44:13Z</time>
      </trkpt>
      <trkpt lat="48.58053" lon="-1.94959">
        <ele>31.86</ele>
        <time>2021-07-31T16:44:30Z</time>
      </trkpt>
      <trkpt lat="48.57901" lon="-1.94797">
        <ele>40.51</ele>
        <time>2021-07-31T16:44:38Z</time>
      </trkpt>
      <trkpt lat="48.5776" lon="-1.9455">
        <ele>38.59</ele>
        <time>2021-07-31T16:44:47Z</time>
      </trkpt>
      <trkpt lat="48.57395" lon="-1.93855">
        <ele>16</ele>
        <time>2021-07-31T16:45:11Z</time>
      </trkpt>
      <trkpt lat="48.57121" lon="-1.93345">
        <ele>5.91</ele>
        <time>2021-07-31T16:45:28Z</time>
      </trkpt>
      <trkpt lat="48.56936" lon="-1.93098">
        <ele>15.04</ele>
        <time>2021-07-31T16:45:38Z</time>
      </trkpt>
      <trkpt lat="48.56778" lon="-1.92853">
        <ele>18.4</ele>
        <time>2021-07-31T16:45:47Z</time>
      </trkpt>
      <trkpt lat="48.56634" lon="-1.9263">
        <ele>12.15</ele>
        <time>2021-07-31T16:45:57Z</time>
      </trkpt>
      <trkpt lat="48.56502" lon="-1.9255">
        <ele>9.27</ele>
        <time>2021-07-31T16:46:03Z</time>
      </trkpt>
      <trkpt lat="48.56357" lon="-1.9255">
        <ele>8.79</ele>
        <time>2021-07-31T16:46:09Z</time>
      </trkpt>
      <trkpt lat="48.56208" lon="-1.92634">
        <ele>9.27</ele>
        <time>2021-07-31T16:46:16Z</time>
      </trkpt>
      <trkpt lat="48.55868" lon="-1.92894">
        <ele>8.31</ele>
        <time>2021-07-31T16:46:33Z</time>
      </trkpt>
      <trkpt lat="48.55745" lon="-1.92917">
        <ele>11.19</ele>
        <time>2021-07-31T16:46:39Z</time>
      </trkpt>
      <trkpt lat="48.5564" lon="-1.92892">
        <ele>13.6</ele>
        <time>2021-07-31T16:46:46Z</time>
      </trkpt>
      <trkpt lat="48.55491" lon="-1.92788">
        <ele>13.6</ele>
        <time>2021-07-31T16:46:55Z</time>
      </trkpt>
      <trkpt lat="48.55201" lon="-1.92583">
        <ele>18.88</ele>
        <time>2021-07-31T16:47:12Z</time>
      </trkpt>
      <trkpt lat="48.54923" lon="-1.92454">
        <ele>22.73</ele>
        <time>2021-07-31T16:47:28Z</time>
      </trkpt>
      <trkpt lat="48.54786" lon="-1.92435">
        <ele>23.69</ele>
        <time>2021-07-31T16:47:37Z</time>
      </trkpt>
      <trkpt lat="48.54658" lon="-1.92468">
        <ele>22.73</ele>
        <time>2021-07-31T16:47:46Z</time>
      </trkpt>
      <trkpt lat="48.54645" lon="-1.92476">
        <ele>22.73</ele>
        <time>2021-07-31T16:47:47Z</time>
      </trkpt>
      <trkpt lat="48.54633" lon="-1.92485">
        <ele>22.73</ele>
        <time>2021-07-31T16:47:48Z</time>
      </trkpt>
      <trkpt lat="48.5462" lon="-1.92493">
        <ele>22.73</ele>
        <time>2021-07-31T16:47:49Z</time>
      </trkpt>
      <trkpt lat="48.54611" lon="-1.92507">
        <ele>23.69</ele>
        <time>2021-07-31T16:47:50Z</time>
      </trkpt>
      <trkpt lat="48.54602" lon="-1.92523">
        <ele>24.65</ele>
        <time>2021-07-31T16:47:51Z</time>
      </trkpt>
      <trkpt lat="48.54583" lon="-1.92556">
        <ele>26.09</ele>
        <time>2021-07-31T16:47:52Z</time>
      </trkpt>
      <trkpt lat="48.54576" lon="-1.92576">
        <ele>24.65</ele>
        <time>2021-07-31T16:47:53Z</time>
      </trkpt>
      <trkpt lat="48.54569" lon="-1.92597">
        <ele>24.65</ele>
        <time>2021-07-31T16:47:54Z</time>
      </trkpt>
      <trkpt lat="48.54569" lon="-1.92597">
        <ele>24.17</ele>
        <time>2021-07-31T16:47:55Z</time>
      </trkpt>
      <trkpt lat="48.54499" lon="-1.92892">
        <ele>24.65</ele>
        <time>2021-07-31T16:48:08Z</time>
      </trkpt>
      <trkpt lat="48.5449" lon="-1.93008">
        <ele>24.65</ele>
        <time>2021-07-31T16:48:15Z</time>
      </trkpt>
      <trkpt lat="48.5449" lon="-1.93024">
        <ele>25.13</ele>
        <time>2021-07-31T16:48:22Z</time>
      </trkpt>
      <trkpt lat="48.54491" lon="-1.93053">
        <ele>25.61</ele>
        <time>2021-07-31T16:48:51Z</time>
      </trkpt>
      <trkpt lat="48.54492" lon="-1.93146">
        <ele>26.09</ele>
        <time>2021-07-31T16:49:02Z</time>
      </trkpt>
      <trkpt lat="48.54494" lon="-1.93316">
        <ele>27.53</ele>
        <time>2021-07-31T16:49:15Z</time>
      </trkpt>
      <trkpt lat="48.54498" lon="-1.935">
        <ele>28.02</ele>
        <time>2021-07-31T16:49:27Z</time>
      </trkpt>
      <trkpt lat="48.54495" lon="-1.93774">
        <ele>26.57</ele>
        <time>2021-07-31T16:49:43Z</time>
      </trkpt>
      <trkpt lat="48.54487" lon="-1.93897">
        <ele>24.17</ele>
        <time>2021-07-31T16:49:51Z</time>
      </trkpt>
      <trkpt lat="48.54466" lon="-1.94125">
        <ele>21.77</ele>
        <time>2021-07-31T16:50:09Z</time>
      </trkpt>
      <trkpt lat="48.54425" lon="-1.94358">
        <ele>21.29</ele>
        <time>2021-07-31T16:50:28Z</time>
      </trkpt>
      <trkpt lat="48.54363" lon="-1.9464">
        <ele>25.61</ele>
        <time>2021-07-31T16:50:46Z</time>
      </trkpt>
      <trkpt lat="48.54348" lon="-1.9471">
        <ele>26.57</ele>
        <time>2021-07-31T16:50:53Z</time>
      </trkpt>
      <trkpt lat="48.54345" lon="-1.94721">
        <ele>27.05</ele>
        <time>2021-07-31T16:51:09Z</time>
      </trkpt>
      <trkpt lat="48.54331" lon="-1.94786">
        <ele>28.5</ele>
        <time>2021-07-31T16:51:22Z</time>
      </trkpt>
      <trkpt lat="48.54311" lon="-1.9487">
        <ele>30.42</ele>
        <time>2021-07-31T16:51:39Z</time>
      </trkpt>
      <trkpt lat="48.54288" lon="-1.94969">
        <ele>32.82</ele>
        <time>2021-07-31T16:51:51Z</time>
      </trkpt>
      <trkpt lat="48.5424" lon="-1.95172">
        <ele>36.19</ele>
        <time>2021-07-31T16:52:04Z</time>
      </trkpt>
      <trkpt lat="48.54181" lon="-1.95433">
        <ele>39.55</ele>
        <time>2021-07-31T16:52:19Z</time>
      </trkpt>
      <trkpt lat="48.54138" lon="-1.95615">
        <ele>40.03</ele>
        <time>2021-07-31T16:52:29Z</time>
      </trkpt>
      <trkpt lat="48.54094" lon="-1.95805">
        <ele>39.07</ele>
        <time>2021-07-31T16:52:40Z</time>
      </trkpt>
      <trkpt lat="48.54081" lon="-1.95862">
        <ele>38.59</ele>
        <time>2021-07-31T16:52:46Z</time>
      </trkpt>
      <trkpt lat="48.54059" lon="-1.95953">
        <ele>39.07</ele>
        <time>2021-07-31T16:53:02Z</time>
      </trkpt>
      <trkpt lat="48.5404" lon="-1.96037">
        <ele>38.59</ele>
        <time>2021-07-31T16:53:17Z</time>
      </trkpt>
      <trkpt lat="48.53997" lon="-1.96189">
        <ele>36.67</ele>
        <time>2021-07-31T16:53:35Z</time>
      </trkpt>
      <trkpt lat="48.53916" lon="-1.96423">
        <ele>34.26</ele>
        <time>2021-07-31T16:53:57Z</time>
      </trkpt>
      <trkpt lat="48.53854" lon="-1.96585">
        <ele>33.3</ele>
        <time>2021-07-31T16:54:15Z</time>
      </trkpt>
      <trkpt lat="48.53816" lon="-1.96692">
        <ele>33.3</ele>
        <time>2021-07-31T16:54:32Z</time>
      </trkpt>
      <trkpt lat="48.53786" lon="-1.96797">
        <ele>33.78</ele>
        <time>2021-07-31T16:54:47Z</time>
      </trkpt>
      <trkpt lat="48.53765" lon="-1.96894">
        <ele>34.74</ele>
        <time>2021-07-31T16:55:04Z</time>
      </trkpt>
      <trkpt lat="48.5375" lon="-1.96985">
        <ele>35.71</ele>
        <time>2021-07-31T16:55:15Z</time>
      </trkpt>
      <trkpt lat="48.53721" lon="-1.97157">
        <ele>35.71</ele>
        <time>2021-07-31T16:55:27Z</time>
      </trkpt>
      <trkpt lat="48.53669" lon="-1.97461">
        <ele>39.07</ele>
        <time>2021-07-31T16:55:43Z</time>
      </trkpt>
      <trkpt lat="48.53653" lon="-1.97741">
        <ele>39.07</ele>
        <time>2021-07-31T16:55:54Z</time>
      </trkpt>
      <trkpt lat="48.53673" lon="-1.98166">
        <ele>52.05</ele>
        <time>2021-07-31T16:56:10Z</time>
      </trkpt>
      <trkpt lat="48.53699" lon="-1.98648">
        <ele>51.57</ele>
        <time>2021-07-31T16:56:25Z</time>
      </trkpt>
      <trkpt lat="48.5371" lon="-1.99093">
        <ele>53.97</ele>
        <time>2021-07-31T16:56:39Z</time>
      </trkpt>
      <trkpt lat="48.53692" lon="-1.99691">
        <ele>47.24</ele>
        <time>2021-07-31T16:56:55Z</time>
      </trkpt>
      <trkpt lat="48.53643" lon="-2.00241">
        <ele>48.68</ele>
        <time>2021-07-31T16:57:10Z</time>
      </trkpt>
      <trkpt lat="48.53576" lon="-2.00741">
        <ele>54.93</ele>
        <time>2021-07-31T16:57:25Z</time>
      </trkpt>
      <trkpt lat="48.53494" lon="-2.01194">
        <ele>64.55</ele>
        <time>2021-07-31T16:57:40Z</time>
      </trkpt>
      <trkpt lat="48.53346" lon="-2.01858">
        <ele>77.52</ele>
        <time>2021-07-31T16:58:01Z</time>
      </trkpt>
      <trkpt lat="48.53209" lon="-2.02311">
        <ele>86.66</ele>
        <time>2021-07-31T16:58:17Z</time>
      </trkpt>
      <trkpt lat="48.53014" lon="-2.02776">
        <ele>90.98</ele>
        <time>2021-07-31T16:58:33Z</time>
      </trkpt>
      <trkpt lat="48.52791" lon="-2.03209">
        <ele>86.18</ele>
        <time>2021-07-31T16:58:49Z</time>
      </trkpt>
      <trkpt lat="48.52619" lon="-2.03458">
        <ele>83.29</ele>
        <time>2021-07-31T16:58:59Z</time>
      </trkpt>
      <trkpt lat="48.52425" lon="-2.03645">
        <ele>79.93</ele>
        <time>2021-07-31T16:59:09Z</time>
      </trkpt>
      <trkpt lat="48.5222" lon="-2.03767">
        <ele>75.6</ele>
        <time>2021-07-31T16:59:19Z</time>
      </trkpt>
      <trkpt lat="48.52003" lon="-2.03829">
        <ele>66.95</ele>
        <time>2021-07-31T16:59:29Z</time>
      </trkpt>
      <trkpt lat="48.5169" lon="-2.03871">
        <ele>55.89</ele>
        <time>2021-07-31T16:59:42Z</time>
      </trkpt>
      <trkpt lat="48.51227" lon="-2.03928">
        <ele>64.55</ele>
        <time>2021-07-31T17:00:01Z</time>
      </trkpt>
      <trkpt lat="48.50825" lon="-2.03946">
        <ele>69.83</ele>
        <time>2021-07-31T17:00:18Z</time>
      </trkpt>
      <trkpt lat="48.50463" lon="-2.03932">
        <ele>66.47</ele>
        <time>2021-07-31T17:00:33Z</time>
      </trkpt>
      <trkpt lat="48.50134" lon="-2.03978">
        <ele>57.34</ele>
        <time>2021-07-31T17:00:46Z</time>
      </trkpt>
      <trkpt lat="48.49571" lon="-2.04087">
        <ele>60.7</ele>
        <time>2021-07-31T17:01:08Z</time>
      </trkpt>
      <trkpt lat="48.49189" lon="-2.04138">
        <ele>70.31</ele>
        <time>2021-07-31T17:01:26Z</time>
      </trkpt>
      <trkpt lat="48.48868" lon="-2.04149">
        <ele>74.16</ele>
        <time>2021-07-31T17:01:40Z</time>
      </trkpt>
      <trkpt lat="48.48466" lon="-2.04184">
        <ele>67.43</ele>
        <time>2021-07-31T17:01:56Z</time>
      </trkpt>
      <trkpt lat="48.4822" lon="-2.04291">
        <ele>55.89</ele>
        <time>2021-07-31T17:02:06Z</time>
      </trkpt>
      <trkpt lat="48.47776" lon="-2.04561">
        <ele>51.57</ele>
        <time>2021-07-31T17:02:25Z</time>
      </trkpt>
      <trkpt lat="48.47504" lon="-2.04775">
        <ele>56.37</ele>
        <time>2021-07-31T17:02:38Z</time>
      </trkpt>
      <trkpt lat="48.47299" lon="-2.05043">
        <ele>59.26</ele>
        <time>2021-07-31T17:02:49Z</time>
      </trkpt>
      <trkpt lat="48.47165" lon="-2.05306">
        <ele>63.1</ele>
        <time>2021-07-31T17:03:00Z</time>
      </trkpt>
      <trkpt lat="48.47033" lon="-2.05691">
        <ele>67.43</ele>
        <time>2021-07-31T17:03:13Z</time>
      </trkpt>
      <trkpt lat="48.46897" lon="-2.05999">
        <ele>73.2</ele>
        <time>2021-07-31T17:03:24Z</time>
      </trkpt>
      <trkpt lat="48.4671" lon="-2.06291">
        <ele>73.68</ele>
        <time>2021-07-31T17:03:36Z</time>
      </trkpt>
      <trkpt lat="48.46338" lon="-2.0683">
        <ele>85.69</ele>
        <time>2021-07-31T17:03:59Z</time>
      </trkpt>
      <trkpt lat="48.45922" lon="-2.07444">
        <ele>102.52</ele>
        <time>2021-07-31T17:04:25Z</time>
      </trkpt>
      <trkpt lat="48.45656" lon="-2.0791">
        <ele>111.17</ele>
        <time>2021-07-31T17:04:43Z</time>
      </trkpt>
      <trkpt lat="48.45321" lon="-2.08509">
        <ele>117.9</ele>
        <time>2021-07-31T17:05:05Z</time>
      </trkpt>
      <trkpt lat="48.45034" lon="-2.09027">
        <ele>121.74</ele>
        <time>2021-07-31T17:05:24Z</time>
      </trkpt>
      <trkpt lat="48.44953" lon="-2.09231">
        <ele>125.11</ele>
        <time>2021-07-31T17:05:32Z</time>
      </trkpt>
      <trkpt lat="48.44936" lon="-2.093">
        <ele>128.47</ele>
        <time>2021-07-31T17:05:38Z</time>
      </trkpt>
      <trkpt lat="48.44933" lon="-2.09335">
        <ele>128.47</ele>
        <time>2021-07-31T17:05:41Z</time>
      </trkpt>
      <trkpt lat="48.44933" lon="-2.09345">
        <ele>128.47</ele>
        <time>2021-07-31T17:05:42Z</time>
      </trkpt>
      <trkpt lat="48.44932" lon="-2.09351">
        <ele>128.47</ele>
        <time>2021-07-31T17:05:43Z</time>
      </trkpt>
      <trkpt lat="48.44941" lon="-2.09366">
        <ele>127.99</ele>
        <time>2021-07-31T17:05:51Z</time>
      </trkpt>
      <trkpt lat="48.44947" lon="-2.09376">
        <ele>127.51</ele>
        <time>2021-07-31T17:05:52Z</time>
      </trkpt>
      <trkpt lat="48.44947" lon="-2.09381">
        <ele>127.51</ele>
        <time>2021-07-31T17:05:53Z</time>
      </trkpt>
      <trkpt lat="48.44947" lon="-2.09388">
        <ele>127.03</ele>
        <time>2021-07-31T17:05:54Z</time>
      </trkpt>
      <trkpt lat="48.44947" lon="-2.09395">
        <ele>127.03</ele>
        <time>2021-07-31T17:05:55Z</time>
      </trkpt>
      <trkpt lat="48.44939" lon="-2.09401">
        <ele>127.51</ele>
        <time>2021-07-31T17:05:56Z</time>
      </trkpt>
      <trkpt lat="48.44934" lon="-2.09406">
        <ele>127.99</ele>
        <time>2021-07-31T17:05:57Z</time>
      </trkpt>
      <trkpt lat="48.44932" lon="-2.09408">
        <ele>127.99</ele>
        <time>2021-07-31T17:05:58Z</time>
      </trkpt>
      <trkpt lat="48.44927" lon="-2.09402">
        <ele>127.99</ele>
        <time>2021-07-31T17:05:59Z</time>
      </trkpt>
      <trkpt lat="48.44922" lon="-2.09397">
        <ele>128.47</ele>
        <time>2021-07-31T17:06:00Z</time>
      </trkpt>
      <trkpt lat="48.44919" lon="-2.09395">
        <ele>128.47</ele>
        <time>2021-07-31T17:06:01Z</time>
      </trkpt>
      <trkpt lat="48.44919" lon="-2.09389">
        <ele>128.47</ele>
        <time>2021-07-31T17:06:02Z</time>
      </trkpt>
      <trkpt lat="48.44906" lon="-2.09364">
        <ele>128.95</ele>
        <time>2021-07-31T17:06:03Z</time>
      </trkpt>
      <trkpt lat="48.44899" lon="-2.09358">
        <ele>128.95</ele>
        <time>2021-07-31T17:06:04Z</time>
      </trkpt>
      <trkpt lat="48.44899" lon="-2.09358">
        <ele>128.95</ele>
        <time>2021-07-31T17:06:05Z</time>
      </trkpt>
      <trkpt lat="48.44892" lon="-2.09351">
        <ele>128.95</ele>
        <time>2021-07-31T17:06:06Z</time>
      </trkpt>
      <trkpt lat="48.44791" lon="-2.09265">
        <ele>127.03</ele>
        <time>2021-07-31T17:06:17Z</time>
      </trkpt>
      <trkpt lat="48.44701" lon="-2.09181">
        <ele>125.11</ele>
        <time>2021-07-31T17:06:27Z</time>
      </trkpt>
      <trkpt lat="48.44695" lon="-2.09174">
        <ele>125.11</ele>
        <time>2021-07-31T17:06:28Z</time>
      </trkpt>
      <trkpt lat="48.44682" lon="-2.09166">
        <ele>124.63</ele>
        <time>2021-07-31T17:06:33Z</time>
      </trkpt>
      <trkpt lat="48.4468" lon="-2.09169">
        <ele>124.15</ele>
        <time>2021-07-31T17:06:34Z</time>
      </trkpt>
      <trkpt lat="48.44671" lon="-2.09181">
        <ele>124.15</ele>
        <time>2021-07-31T17:06:36Z</time>
      </trkpt>
      <trkpt lat="48.44665" lon="-2.09182">
        <ele>124.15</ele>
        <time>2021-07-31T17:06:37Z</time>
      </trkpt>
      <trkpt lat="48.44658" lon="-2.09185">
        <ele>124.15</ele>
        <time>2021-07-31T17:06:38Z</time>
      </trkpt>
      <trkpt lat="48.44648" lon="-2.09184">
        <ele>124.63</ele>
        <time>2021-07-31T17:06:39Z</time>
      </trkpt>
      <trkpt lat="48.44635" lon="-2.09174">
        <ele>124.63</ele>
        <time>2021-07-31T17:06:40Z</time>
      </trkpt>
      <trkpt lat="48.44629" lon="-2.09163">
        <ele>125.11</ele>
        <time>2021-07-31T17:06:41Z</time>
      </trkpt>
      <trkpt lat="48.44629" lon="-2.09163">
        <ele>125.11</ele>
        <time>2021-07-31T17:06:42Z</time>
      </trkpt>
      <trkpt lat="48.44627" lon="-2.09152">
        <ele>125.59</ele>
        <time>2021-07-31T17:06:43Z</time>
      </trkpt>
      <trkpt lat="48.44618" lon="-2.09126">
        <ele>125.11</ele>
        <time>2021-07-31T17:06:44Z</time>
      </trkpt>
      <trkpt lat="48.4461" lon="-2.09121">
        <ele>125.11</ele>
        <time>2021-07-31T17:06:45Z</time>
      </trkpt>
      <trkpt lat="48.44601" lon="-2.09114">
        <ele>125.11</ele>
        <time>2021-07-31T17:06:46Z</time>
      </trkpt>
      <trkpt lat="48.44512" lon="-2.09046">
        <ele>123.67</ele>
        <time>2021-07-31T17:06:55Z</time>
      </trkpt>
      <trkpt lat="48.44375" lon="-2.08946">
        <ele>120.78</ele>
        <time>2021-07-31T17:07:04Z</time>
      </trkpt>
      <trkpt lat="48.44166" lon="-2.08855">
        <ele>118.86</ele>
        <time>2021-07-31T17:07:15Z</time>
      </trkpt>
      <trkpt lat="48.43958" lon="-2.08837">
        <ele>116.46</ele>
        <time>2021-07-31T17:07:25Z</time>
      </trkpt>
      <trkpt lat="48.43614" lon="-2.08849">
        <ele>113.57</ele>
        <time>2021-07-31T17:07:42Z</time>
      </trkpt>
      <trkpt lat="48.43196" lon="-2.08863">
        <ele>106.84</ele>
        <time>2021-07-31T17:08:02Z</time>
      </trkpt>
      <trkpt lat="48.42953" lon="-2.08871">
        <ele>105.4</ele>
        <time>2021-07-31T17:08:14Z</time>
      </trkpt>
      <trkpt lat="48.4291" lon="-2.08878">
        <ele>102.04</ele>
        <time>2021-07-31T17:08:19Z</time>
      </trkpt>
      <trkpt lat="48.42897" lon="-2.08887">
        <ele>101.56</ele>
        <time>2021-07-31T17:08:20Z</time>
      </trkpt>
      <trkpt lat="48.42897" lon="-2.08887">
        <ele>101.56</ele>
        <time>2021-07-31T17:08:21Z</time>
      </trkpt>
      <trkpt lat="48.42891" lon="-2.08894">
        <ele>102.52</ele>
        <time>2021-07-31T17:08:22Z</time>
      </trkpt>
      <trkpt lat="48.4288" lon="-2.0891">
        <ele>102.52</ele>
        <time>2021-07-31T17:08:23Z</time>
      </trkpt>
      <trkpt lat="48.4287" lon="-2.08931">
        <ele>103.48</ele>
        <time>2021-07-31T17:08:25Z</time>
      </trkpt>
      <trkpt lat="48.4287" lon="-2.08931">
        <ele>103.96</ele>
        <time>2021-07-31T17:08:26Z</time>
      </trkpt>
      <trkpt lat="48.42855" lon="-2.08939">
        <ele>104.44</ele>
        <time>2021-07-31T17:08:27Z</time>
      </trkpt>
      <trkpt lat="48.42855" lon="-2.08939">
        <ele>103.96</ele>
        <time>2021-07-31T17:08:28Z</time>
      </trkpt>
      <trkpt lat="48.42848" lon="-2.08942">
        <ele>103.48</ele>
        <time>2021-07-31T17:08:29Z</time>
      </trkpt>
      <trkpt lat="48.42833" lon="-2.08937">
        <ele>103.48</ele>
        <time>2021-07-31T17:08:30Z</time>
      </trkpt>
      <trkpt lat="48.42833" lon="-2.08937">
        <ele>103.48</ele>
        <time>2021-07-31T17:08:31Z</time>
      </trkpt>
      <trkpt lat="48.42826" lon="-2.08928">
        <ele>103.48</ele>
        <time>2021-07-31T17:08:32Z</time>
      </trkpt>
      <trkpt lat="48.42821" lon="-2.08918">
        <ele>103.96</ele>
        <time>2021-07-31T17:08:33Z</time>
      </trkpt>
      <trkpt lat="48.42815" lon="-2.08891">
        <ele>103.48</ele>
        <time>2021-07-31T17:08:34Z</time>
      </trkpt>
      <trkpt lat="48.42793" lon="-2.08884">
        <ele>103</ele>
        <time>2021-07-31T17:08:35Z</time>
      </trkpt>
      <trkpt lat="48.42793" lon="-2.08884">
        <ele>102.52</ele>
        <time>2021-07-31T17:08:36Z</time>
      </trkpt>
      <trkpt lat="48.4277" lon="-2.08882">
        <ele>102.52</ele>
        <time>2021-07-31T17:08:37Z</time>
      </trkpt>
      <trkpt lat="48.42656" lon="-2.08884">
        <ele>100.6</ele>
        <time>2021-07-31T17:08:46Z</time>
      </trkpt>
      <trkpt lat="48.42436" lon="-2.08888">
        <ele>97.23</ele>
        <time>2021-07-31T17:08:58Z</time>
      </trkpt>
      <trkpt lat="48.42129" lon="-2.08867">
        <ele>100.11</ele>
        <time>2021-07-31T17:09:13Z</time>
      </trkpt>
      <trkpt lat="48.41602" lon="-2.08826">
        <ele>99.15</ele>
        <time>2021-07-31T17:09:38Z</time>
      </trkpt>
      <trkpt lat="48.41258" lon="-2.08799">
        <ele>97.23</ele>
        <time>2021-07-31T17:09:55Z</time>
      </trkpt>
      <trkpt lat="48.40963" lon="-2.08745">
        <ele>96.27</ele>
        <time>2021-07-31T17:10:09Z</time>
      </trkpt>
      <trkpt lat="48.40415" lon="-2.08647">
        <ele>93.87</ele>
        <time>2021-07-31T17:10:38Z</time>
      </trkpt>
      <trkpt lat="48.40062" lon="-2.08606">
        <ele>89.54</ele>
        <time>2021-07-31T17:10:56Z</time>
      </trkpt>
      <trkpt lat="48.39811" lon="-2.08583">
        <ele>77.52</ele>
        <time>2021-07-31T17:11:08Z</time>
      </trkpt>
      <trkpt lat="48.39521" lon="-2.08499">
        <ele>64.55</ele>
        <time>2021-07-31T17:11:22Z</time>
      </trkpt>
      <trkpt lat="48.39291" lon="-2.08437">
        <ele>51.09</ele>
        <time>2021-07-31T17:11:34Z</time>
      </trkpt>
      <trkpt lat="48.39076" lon="-2.08477">
        <ele>42.44</ele>
        <time>2021-07-31T17:11:46Z</time>
      </trkpt>
      <trkpt lat="48.39059" lon="-2.08486">
        <ele>44.36</ele>
        <time>2021-07-31T17:11:47Z</time>
      </trkpt>
      <trkpt lat="48.39043" lon="-2.085">
        <ele>48.68</ele>
        <time>2021-07-31T17:11:48Z</time>
      </trkpt>
      <trkpt lat="48.38889" lon="-2.08646">
        <ele>57.34</ele>
        <time>2021-07-31T17:11:58Z</time>
      </trkpt>
      <trkpt lat="48.38746" lon="-2.08761">
        <ele>67.91</ele>
        <time>2021-07-31T17:12:08Z</time>
      </trkpt>
      <trkpt lat="48.3859" lon="-2.08799">
        <ele>75.6</ele>
        <time>2021-07-31T17:12:17Z</time>
      </trkpt>
      <trkpt lat="48.38353" lon="-2.08832">
        <ele>81.85</ele>
        <time>2021-07-31T17:12:29Z</time>
      </trkpt>
      <trkpt lat="48.38146" lon="-2.08924">
        <ele>78</ele>
        <time>2021-07-31T17:12:39Z</time>
      </trkpt>
      <trkpt lat="48.37833" lon="-2.09115">
        <ele>67.91</ele>
        <time>2021-07-31T17:12:54Z</time>
      </trkpt>
      <trkpt lat="48.37595" lon="-2.09305">
        <ele>70.79</ele>
        <time>2021-07-31T17:13:07Z</time>
      </trkpt>
      <trkpt lat="48.37256" lon="-2.09563">
        <ele>75.12</ele>
        <time>2021-07-31T17:13:26Z</time>
      </trkpt>
      <trkpt lat="48.37006" lon="-2.09674">
        <ele>76.08</ele>
        <time>2021-07-31T17:13:37Z</time>
      </trkpt>
      <trkpt lat="48.36766" lon="-2.09715">
        <ele>70.79</ele>
        <time>2021-07-31T17:13:49Z</time>
      </trkpt>
      <trkpt lat="48.36329" lon="-2.09747">
        <ele>55.89</ele>
        <time>2021-07-31T17:14:09Z</time>
      </trkpt>
      <trkpt lat="48.35895" lon="-2.09784">
        <ele>41.47</ele>
        <time>2021-07-31T17:14:30Z</time>
      </trkpt>
      <trkpt lat="48.3564" lon="-2.09861">
        <ele>42.92</ele>
        <time>2021-07-31T17:14:43Z</time>
      </trkpt>
      <trkpt lat="48.35363" lon="-2.09906">
        <ele>47.24</ele>
        <time>2021-07-31T17:14:57Z</time>
      </trkpt>
      <trkpt lat="48.35075" lon="-2.09963">
        <ele>49.16</ele>
        <time>2021-07-31T17:15:12Z</time>
      </trkpt>
      <trkpt lat="48.34807" lon="-2.10097">
        <ele>51.09</ele>
        <time>2021-07-31T17:15:26Z</time>
      </trkpt>
      <trkpt lat="48.3457" lon="-2.10296">
        <ele>53.97</ele>
        <time>2021-07-31T17:15:40Z</time>
      </trkpt>
      <trkpt lat="48.34416" lon="-2.1039">
        <ele>58.3</ele>
        <time>2021-07-31T17:15:48Z</time>
      </trkpt>
      <trkpt lat="48.34172" lon="-2.10475">
        <ele>67.91</ele>
        <time>2021-07-31T17:16:01Z</time>
      </trkpt>
      <trkpt lat="48.33988" lon="-2.10605">
        <ele>70.79</ele>
        <time>2021-07-31T17:16:11Z</time>
      </trkpt>
      <trkpt lat="48.33794" lon="-2.10834">
        <ele>69.83</ele>
        <time>2021-07-31T17:16:22Z</time>
      </trkpt>
      <trkpt lat="48.33471" lon="-2.11237">
        <ele>65.51</ele>
        <time>2021-07-31T17:16:38Z</time>
      </trkpt>
      <trkpt lat="48.33171" lon="-2.11504">
        <ele>71.76</ele>
        <time>2021-07-31T17:16:53Z</time>
      </trkpt>
      <trkpt lat="48.32882" lon="-2.11723">
        <ele>78.48</ele>
        <time>2021-07-31T17:17:07Z</time>
      </trkpt>
      <trkpt lat="48.3262" lon="-2.11893">
        <ele>77.04</ele>
        <time>2021-07-31T17:17:20Z</time>
      </trkpt>
      <trkpt lat="48.32333" lon="-2.12018">
        <ele>73.68</ele>
        <time>2021-07-31T17:17:33Z</time>
      </trkpt>
      <trkpt lat="48.32055" lon="-2.12079">
        <ele>70.31</ele>
        <time>2021-07-31T17:17:44Z</time>
      </trkpt>
      <trkpt lat="48.3191" lon="-2.12171">
        <ele>66.47</ele>
        <time>2021-07-31T17:17:52Z</time>
      </trkpt>
      <trkpt lat="48.31759" lon="-2.12339">
        <ele>61.66</ele>
        <time>2021-07-31T17:18:01Z</time>
      </trkpt>
      <trkpt lat="48.3162" lon="-2.12553">
        <ele>55.89</ele>
        <time>2021-07-31T17:18:11Z</time>
      </trkpt>
      <trkpt lat="48.31398" lon="-2.12951">
        <ele>46.76</ele>
        <time>2021-07-31T17:18:27Z</time>
      </trkpt>
      <trkpt lat="48.31264" lon="-2.13095">
        <ele>48.2</ele>
        <time>2021-07-31T17:18:35Z</time>
      </trkpt>
      <trkpt lat="48.3108" lon="-2.1319">
        <ele>52.05</ele>
        <time>2021-07-31T17:18:45Z</time>
      </trkpt>
      <trkpt lat="48.30952" lon="-2.13254">
        <ele>56.86</ele>
        <time>2021-07-31T17:18:53Z</time>
      </trkpt>
      <trkpt lat="48.30839" lon="-2.13355">
        <ele>64.07</ele>
        <time>2021-07-31T17:19:01Z</time>
      </trkpt>
      <trkpt lat="48.30737" lon="-2.13521">
        <ele>65.03</ele>
        <time>2021-07-31T17:19:09Z</time>
      </trkpt>
      <trkpt lat="48.30541" lon="-2.13926">
        <ele>64.07</ele>
        <time>2021-07-31T17:19:27Z</time>
      </trkpt>
      <trkpt lat="48.30513" lon="-2.13981">
        <ele>65.51</ele>
        <time>2021-07-31T17:19:32Z</time>
      </trkpt>
      <trkpt lat="48.30508" lon="-2.13989">
        <ele>66.47</ele>
        <time>2021-07-31T17:19:39Z</time>
      </trkpt>
      <trkpt lat="48.30492" lon="-2.14014">
        <ele>67.43</ele>
        <time>2021-07-31T17:23:27Z</time>
      </trkpt>
      <trkpt lat="48.30455" lon="-2.14063">
        <ele>68.39</ele>
        <time>2021-07-31T17:23:35Z</time>
      </trkpt>
      <trkpt lat="48.3045" lon="-2.14068">
        <ele>68.39</ele>
        <time>2021-07-31T17:23:36Z</time>
      </trkpt>
      <trkpt lat="48.30435" lon="-2.14107">
        <ele>68.39</ele>
        <time>2021-07-31T17:23:37Z</time>
      </trkpt>
      <trkpt lat="48.30436" lon="-2.14116">
        <ele>68.39</ele>
        <time>2021-07-31T17:23:38Z</time>
      </trkpt>
      <trkpt lat="48.30437" lon="-2.14125">
        <ele>68.87</ele>
        <time>2021-07-31T17:23:39Z</time>
      </trkpt>
      <trkpt lat="48.30446" lon="-2.14137">
        <ele>68.87</ele>
        <time>2021-07-31T17:23:40Z</time>
      </trkpt>
      <trkpt lat="48.30448" lon="-2.14145">
        <ele>68.87</ele>
        <time>2021-07-31T17:23:41Z</time>
      </trkpt>
      <trkpt lat="48.30448" lon="-2.14146">
        <ele>69.35</ele>
        <time>2021-07-31T17:23:42Z</time>
      </trkpt>
      <trkpt lat="48.30446" lon="-2.14154">
        <ele>69.35</ele>
        <time>2021-07-31T17:23:43Z</time>
      </trkpt>
      <trkpt lat="48.30438" lon="-2.14162">
        <ele>69.35</ele>
        <time>2021-07-31T17:23:44Z</time>
      </trkpt>
      <trkpt lat="48.30438" lon="-2.14162">
        <ele>68.87</ele>
        <time>2021-07-31T17:23:45Z</time>
      </trkpt>
      <trkpt lat="48.30432" lon="-2.14159">
        <ele>68.39</ele>
        <time>2021-07-31T17:23:46Z</time>
      </trkpt>
      <trkpt lat="48.30427" lon="-2.14154">
        <ele>68.39</ele>
        <time>2021-07-31T17:23:47Z</time>
      </trkpt>
      <trkpt lat="48.30427" lon="-2.14154">
        <ele>67.91</ele>
        <time>2021-07-31T17:23:48Z</time>
      </trkpt>
      <trkpt lat="48.30427" lon="-2.14154">
        <ele>67.91</ele>
        <time>2021-07-31T17:23:49Z</time>
      </trkpt>
      <trkpt lat="48.30427" lon="-2.14154">
        <ele>67.91</ele>
        <time>2021-07-31T17:23:50Z</time>
      </trkpt>
      <trkpt lat="48.30399" lon="-2.14121">
        <ele>67.91</ele>
        <time>2021-07-31T17:23:51Z</time>
      </trkpt>
      <trkpt lat="48.30394" lon="-2.14126">
        <ele>68.87</ele>
        <time>2021-07-31T17:23:52Z</time>
      </trkpt>
      <trkpt lat="48.3038" lon="-2.14141">
        <ele>68.87</ele>
        <time>2021-07-31T17:23:53Z</time>
      </trkpt>
      <trkpt lat="48.3038" lon="-2.14141">
        <ele>68.87</ele>
        <time>2021-07-31T17:23:54Z</time>
      </trkpt>
      <trkpt lat="48.30371" lon="-2.1415">
        <ele>68.39</ele>
        <time>2021-07-31T17:23:55Z</time>
      </trkpt>
      <trkpt lat="48.30361" lon="-2.14158">
        <ele>67.91</ele>
        <time>2021-07-31T17:23:56Z</time>
      </trkpt>
      <trkpt lat="48.30239" lon="-2.14277">
        <ele>69.83</ele>
        <time>2021-07-31T17:24:07Z</time>
      </trkpt>
      <trkpt lat="48.30145" lon="-2.1442">
        <ele>72.24</ele>
        <time>2021-07-31T17:24:17Z</time>
      </trkpt>
      <trkpt lat="48.3003" lon="-2.14632">
        <ele>69.83</ele>
        <time>2021-07-31T17:24:30Z</time>
      </trkpt>
      <trkpt lat="48.29878" lon="-2.14882">
        <ele>66.47</ele>
        <time>2021-07-31T17:24:47Z</time>
      </trkpt>
      <trkpt lat="48.29715" lon="-2.15152">
        <ele>61.66</ele>
        <time>2021-07-31T17:25:05Z</time>
      </trkpt>
      <trkpt lat="48.2961" lon="-2.15263">
        <ele>62.62</ele>
        <time>2021-07-31T17:25:14Z</time>
      </trkpt>
      <trkpt lat="48.29464" lon="-2.15367">
        <ele>65.99</ele>
        <time>2021-07-31T17:25:25Z</time>
      </trkpt>
      <trkpt lat="48.29283" lon="-2.15389">
        <ele>71.27</ele>
        <time>2021-07-31T17:25:38Z</time>
      </trkpt>
      <trkpt lat="48.291" lon="-2.15401">
        <ele>76.08</ele>
        <time>2021-07-31T17:25:53Z</time>
      </trkpt>
      <trkpt lat="48.28977" lon="-2.15413">
        <ele>75.12</ele>
        <time>2021-07-31T17:26:07Z</time>
      </trkpt>
      <trkpt lat="48.28922" lon="-2.15432">
        <ele>76.08</ele>
        <time>2021-07-31T17:26:16Z</time>
      </trkpt>
      <trkpt lat="48.28885" lon="-2.15443">
        <ele>77.52</ele>
        <time>2021-07-31T17:26:24Z</time>
      </trkpt>
      <trkpt lat="48.2888" lon="-2.15445">
        <ele>77.04</ele>
        <time>2021-07-31T17:26:25Z</time>
      </trkpt>
      <trkpt lat="48.28832" lon="-2.15461">
        <ele>76.08</ele>
        <time>2021-07-31T17:26:37Z</time>
      </trkpt>
      <trkpt lat="48.2875" lon="-2.15459">
        <ele>73.68</ele>
        <time>2021-07-31T17:26:51Z</time>
      </trkpt>
      <trkpt lat="48.28663" lon="-2.1546">
        <ele>72.24</ele>
        <time>2021-07-31T17:27:05Z</time>
      </trkpt>
      <trkpt lat="48.28656" lon="-2.15482">
        <ele>71.27</ele>
        <time>2021-07-31T17:27:14Z</time>
      </trkpt>
      <trkpt lat="48.28656" lon="-2.15527">
        <ele>71.27</ele>
        <time>2021-07-31T17:27:25Z</time>
      </trkpt>
      <trkpt lat="48.2866" lon="-2.15548">
        <ele>71.27</ele>
        <time>2021-07-31T17:27:31Z</time>
      </trkpt>
      <trkpt lat="48.28667" lon="-2.15557">
        <ele>71.76</ele>
        <time>2021-07-31T17:27:34Z</time>
      </trkpt>
      <trkpt lat="48.28667" lon="-2.15557">
        <ele>71.76</ele>
        <time>2021-07-31T17:27:35Z</time>
      </trkpt>
      <trkpt lat="48.28667" lon="-2.15557">
        <ele>71.76</ele>
        <time>2021-07-31T17:27:36Z</time>
      </trkpt>
      <trkpt lat="48.28662" lon="-2.15551">
        <ele>71.76</ele>
        <time>2021-07-31T17:27:37Z</time>
      </trkpt>
      <trkpt lat="48.28661" lon="-2.1555">
        <ele>72.24</ele>
        <time>2021-07-31T17:27:57Z</time>
      </trkpt>
      <trkpt lat="48.28661" lon="-2.1555">
        <ele>72.72</ele>
        <time>2021-07-31T17:29:29Z</time>
      </trkpt>
      <trkpt lat="48.28658" lon="-2.15547">
        <ele>72.72</ele>
        <time>2021-07-31T17:29:30Z</time>
      </trkpt>
      <trkpt lat="48.28658" lon="-2.15547">
        <ele>72.72</ele>
        <time>2021-07-31T17:29:31Z</time>
      </trkpt>
      <trkpt lat="48.28654" lon="-2.15542">
        <ele>72.72</ele>
        <time>2021-07-31T17:29:41Z</time>
      </trkpt>
      <trkpt lat="48.28654" lon="-2.15542">
        <ele>72.72</ele>
        <time>2021-07-31T17:29:42Z</time>
      </trkpt>
      <trkpt lat="48.28658" lon="-2.15552">
        <ele>73.2</ele>
        <time>2021-07-31T17:29:54Z</time>
      </trkpt>
      <trkpt lat="48.28655" lon="-2.15546">
        <ele>73.2</ele>
        <time>2021-07-31T17:30:03Z</time>
      </trkpt>
      <trkpt lat="48.28652" lon="-2.15557">
        <ele>72.72</ele>
        <time>2021-07-31T17:30:08Z</time>
      </trkpt>
      <trkpt lat="48.28653" lon="-2.1556">
        <ele>72.72</ele>
        <time>2021-07-31T17:30:29Z</time>
      </trkpt>
      <trkpt lat="48.28653" lon="-2.15558">
        <ele>72.24</ele>
        <time>2021-07-31T17:34:20Z</time>
      </trkpt>
      <trkpt lat="48.28654" lon="-2.15559">
        <ele>72.72</ele>
        <time>2021-07-31T17:37:02Z</time>
      </trkpt>
      <trkpt lat="48.28654" lon="-2.15559">
        <ele>72.72</ele>
        <time>2021-07-31T17:38:56Z</time>
      </trkpt>
      <trkpt lat="48.28653" lon="-2.1556">
        <ele>72.72</ele>
        <time>2021-07-31T17:41:30Z</time>
      </trkpt>
      <trkpt lat="48.28654" lon="-2.1556">
        <ele>72.72</ele>
        <time>2021-07-31T17:41:35Z</time>
      </trkpt>
      <trkpt lat="48.28659" lon="-2.15563">
        <ele>72.24</ele>
        <time>2021-07-31T17:41:47Z</time>
      </trkpt>
      <trkpt lat="48.28663" lon="-2.1555">
        <ele>72.24</ele>
        <time>2021-07-31T17:41:57Z</time>
      </trkpt>
      <trkpt lat="48.28658" lon="-2.15539">
        <ele>72.24</ele>
        <time>2021-07-31T17:42:02Z</time>
      </trkpt>
      <trkpt lat="48.28663" lon="-2.15513">
        <ele>72.72</ele>
        <time>2021-07-31T17:42:15Z</time>
      </trkpt>
      <trkpt lat="48.28662" lon="-2.15511">
        <ele>72.72</ele>
        <time>2021-07-31T17:42:40Z</time>
      </trkpt>
      <trkpt lat="48.28662" lon="-2.1551">
        <ele>72.72</ele>
        <time>2021-07-31T17:46:02Z</time>
      </trkpt>
      <trkpt lat="48.28661" lon="-2.15509">
        <ele>72.72</ele>
        <time>2021-07-31T17:49:03Z</time>
      </trkpt>
      <trkpt lat="48.28656" lon="-2.15483">
        <ele>72.24</ele>
        <time>2021-07-31T17:49:42Z</time>
      </trkpt>
      <trkpt lat="48.28657" lon="-2.15463">
        <ele>73.68</ele>
        <time>2021-07-31T17:49:49Z</time>
      </trkpt>
      <trkpt lat="48.28653" lon="-2.15461">
        <ele>73.68</ele>
        <time>2021-07-31T17:49:50Z</time>
      </trkpt>
      <trkpt lat="48.2865" lon="-2.15461">
        <ele>73.68</ele>
        <time>2021-07-31T17:49:51Z</time>
      </trkpt>
      <trkpt lat="48.28646" lon="-2.15461">
        <ele>73.68</ele>
        <time>2021-07-31T17:49:52Z</time>
      </trkpt>
      <trkpt lat="48.28641" lon="-2.15461">
        <ele>73.68</ele>
        <time>2021-07-31T17:49:53Z</time>
      </trkpt>
      <trkpt lat="48.28578" lon="-2.15459">
        <ele>76.56</ele>
        <time>2021-07-31T17:50:02Z</time>
      </trkpt>
      <trkpt lat="48.2846" lon="-2.15456">
        <ele>82.33</ele>
        <time>2021-07-31T17:50:15Z</time>
      </trkpt>
      <trkpt lat="48.28452" lon="-2.15454">
        <ele>82.81</ele>
        <time>2021-07-31T17:50:16Z</time>
      </trkpt>
      <trkpt lat="48.28333" lon="-2.15392">
        <ele>81.37</ele>
        <time>2021-07-31T17:50:28Z</time>
      </trkpt>
      <trkpt lat="48.28161" lon="-2.15308">
        <ele>78.48</ele>
        <time>2021-07-31T17:50:42Z</time>
      </trkpt>
      <trkpt lat="48.28148" lon="-2.15304">
        <ele>78.48</ele>
        <time>2021-07-31T17:50:43Z</time>
      </trkpt>
      <trkpt lat="48.28134" lon="-2.15304">
        <ele>78</ele>
        <time>2021-07-31T17:50:44Z</time>
      </trkpt>
      <trkpt lat="48.2812" lon="-2.15304">
        <ele>77.52</ele>
        <time>2021-07-31T17:50:45Z</time>
      </trkpt>
      <trkpt lat="48.28109" lon="-2.1531">
        <ele>76.08</ele>
        <time>2021-07-31T17:50:46Z</time>
      </trkpt>
      <trkpt lat="48.28096" lon="-2.15318">
        <ele>74.16</ele>
        <time>2021-07-31T17:50:47Z</time>
      </trkpt>
      <trkpt lat="48.28083" lon="-2.15325">
        <ele>72.24</ele>
        <time>2021-07-31T17:50:48Z</time>
      </trkpt>
      <trkpt lat="48.28072" lon="-2.15336">
        <ele>72.24</ele>
        <time>2021-07-31T17:50:49Z</time>
      </trkpt>
      <trkpt lat="48.27933" lon="-2.15489">
        <ele>67.43</ele>
        <time>2021-07-31T17:51:02Z</time>
      </trkpt>
      <trkpt lat="48.2792" lon="-2.15495">
        <ele>67.43</ele>
        <time>2021-07-31T17:51:03Z</time>
      </trkpt>
      <trkpt lat="48.27907" lon="-2.15499">
        <ele>67.43</ele>
        <time>2021-07-31T17:51:04Z</time>
      </trkpt>
      <trkpt lat="48.27711" lon="-2.15532">
        <ele>63.58</ele>
        <time>2021-07-31T17:51:17Z</time>
      </trkpt>
      <trkpt lat="48.2759" lon="-2.15508">
        <ele>60.22</ele>
        <time>2021-07-31T17:51:24Z</time>
      </trkpt>
      <trkpt lat="48.27506" lon="-2.15467">
        <ele>61.18</ele>
        <time>2021-07-31T17:51:29Z</time>
      </trkpt>
      <trkpt lat="48.27488" lon="-2.15464">
        <ele>61.18</ele>
        <time>2021-07-31T17:51:30Z</time>
      </trkpt>
      <trkpt lat="48.27474" lon="-2.15462">
        <ele>60.7</ele>
        <time>2021-07-31T17:51:31Z</time>
      </trkpt>
      <trkpt lat="48.27459" lon="-2.15463">
        <ele>60.22</ele>
        <time>2021-07-31T17:51:32Z</time>
      </trkpt>
      <trkpt lat="48.27443" lon="-2.15467">
        <ele>59.74</ele>
        <time>2021-07-31T17:51:33Z</time>
      </trkpt>
      <trkpt lat="48.27427" lon="-2.15472">
        <ele>58.3</ele>
        <time>2021-07-31T17:51:34Z</time>
      </trkpt>
      <trkpt lat="48.2741" lon="-2.15476">
        <ele>58.78</ele>
        <time>2021-07-31T17:51:35Z</time>
      </trkpt>
      <trkpt lat="48.27276" lon="-2.15497">
        <ele>56.37</ele>
        <time>2021-07-31T17:51:43Z</time>
      </trkpt>
      <trkpt lat="48.27067" lon="-2.1548">
        <ele>64.55</ele>
        <time>2021-07-31T17:51:55Z</time>
      </trkpt>
      <trkpt lat="48.26903" lon="-2.15426">
        <ele>72.24</ele>
        <time>2021-07-31T17:52:07Z</time>
      </trkpt>
      <trkpt lat="48.26812" lon="-2.15383">
        <ele>78.48</ele>
        <time>2021-07-31T17:52:15Z</time>
      </trkpt>
      <trkpt lat="48.26794" lon="-2.15375">
        <ele>79.93</ele>
        <time>2021-07-31T17:52:19Z</time>
      </trkpt>
      <trkpt lat="48.26794" lon="-2.15375">
        <ele>78.48</ele>
        <time>2021-07-31T17:52:20Z</time>
      </trkpt>
      <trkpt lat="48.26793" lon="-2.15384">
        <ele>78</ele>
        <time>2021-07-31T17:52:21Z</time>
      </trkpt>
      <trkpt lat="48.26791" lon="-2.15396">
        <ele>78.48</ele>
        <time>2021-07-31T17:52:22Z</time>
      </trkpt>
      <trkpt lat="48.26791" lon="-2.15396">
        <ele>78.97</ele>
        <time>2021-07-31T17:52:23Z</time>
      </trkpt>
      <trkpt lat="48.26779" lon="-2.15485">
        <ele>81.85</ele>
        <time>2021-07-31T17:52:31Z</time>
      </trkpt>
      <trkpt lat="48.26778" lon="-2.15661">
        <ele>88.1</ele>
        <time>2021-07-31T17:52:40Z</time>
      </trkpt>
      <trkpt lat="48.26778" lon="-2.15661">
        <ele>89.06</ele>
        <time>2021-07-31T17:52:41Z</time>
      </trkpt>
      <trkpt lat="48.26779" lon="-2.15678">
        <ele>89.54</ele>
        <time>2021-07-31T17:52:42Z</time>
      </trkpt>
      <trkpt lat="48.26777" lon="-2.15695">
        <ele>90.5</ele>
        <time>2021-07-31T17:52:43Z</time>
      </trkpt>
      <trkpt lat="48.26775" lon="-2.15712">
        <ele>90.98</ele>
        <time>2021-07-31T17:52:44Z</time>
      </trkpt>
      <trkpt lat="48.26772" lon="-2.15728">
        <ele>91.94</ele>
        <time>2021-07-31T17:52:45Z</time>
      </trkpt>
      <trkpt lat="48.26728" lon="-2.15939">
        <ele>100.11</ele>
        <time>2021-07-31T17:52:59Z</time>
      </trkpt>
      <trkpt lat="48.26717" lon="-2.16002">
        <ele>101.08</ele>
        <time>2021-07-31T17:53:06Z</time>
      </trkpt>
      <trkpt lat="48.26716" lon="-2.16006">
        <ele>101.08</ele>
        <time>2021-07-31T17:53:07Z</time>
      </trkpt>
      <trkpt lat="48.26714" lon="-2.16001">
        <ele>101.08</ele>
        <time>2021-07-31T17:53:08Z</time>
      </trkpt>
      <trkpt lat="48.2671" lon="-2.16">
        <ele>100.6</ele>
        <time>2021-07-31T17:53:09Z</time>
      </trkpt>
      <trkpt lat="48.2666" lon="-2.15989">
        <ele>96.27</ele>
        <time>2021-07-31T17:53:16Z</time>
      </trkpt>
      <trkpt lat="48.2665" lon="-2.15991">
        <ele>94.83</ele>
        <time>2021-07-31T17:53:17Z</time>
      </trkpt>
      <trkpt lat="48.26639" lon="-2.15994">
        <ele>93.39</ele>
        <time>2021-07-31T17:53:18Z</time>
      </trkpt>
      <trkpt lat="48.26628" lon="-2.16">
        <ele>92.9</ele>
        <time>2021-07-31T17:53:19Z</time>
      </trkpt>
      <trkpt lat="48.26616" lon="-2.16008">
        <ele>90.98</ele>
        <time>2021-07-31T17:53:20Z</time>
      </trkpt>
      <trkpt lat="48.2648" lon="-2.161">
        <ele>87.14</ele>
        <time>2021-07-31T17:53:29Z</time>
      </trkpt>
      <trkpt lat="48.26139" lon="-2.16343">
        <ele>78.97</ele>
        <time>2021-07-31T17:53:48Z</time>
      </trkpt>
      <trkpt lat="48.25763" lon="-2.16621">
        <ele>68.87</ele>
        <time>2021-07-31T17:54:08Z</time>
      </trkpt>
      <trkpt lat="48.25598" lon="-2.16711">
        <ele>65.51</ele>
        <time>2021-07-31T17:54:17Z</time>
      </trkpt>
      <trkpt lat="48.25333" lon="-2.16725">
        <ele>67.91</ele>
        <time>2021-07-31T17:54:29Z</time>
      </trkpt>
      <trkpt lat="48.25191" lon="-2.16727">
        <ele>78.48</ele>
        <time>2021-07-31T17:54:38Z</time>
      </trkpt>
      <trkpt lat="48.24875" lon="-2.16738">
        <ele>91.46</ele>
        <time>2021-07-31T17:54:56Z</time>
      </trkpt>
      <trkpt lat="48.24612" lon="-2.16768">
        <ele>84.73</ele>
        <time>2021-07-31T17:55:09Z</time>
      </trkpt>
      <trkpt lat="48.24321" lon="-2.16813">
        <ele>78.97</ele>
        <time>2021-07-31T17:55:23Z</time>
      </trkpt>
      <trkpt lat="48.24105" lon="-2.16889">
        <ele>83.29</ele>
        <time>2021-07-31T17:55:33Z</time>
      </trkpt>
      <trkpt lat="48.23939" lon="-2.1699">
        <ele>88.1</ele>
        <time>2021-07-31T17:55:42Z</time>
      </trkpt>
      <trkpt lat="48.23649" lon="-2.17175">
        <ele>98.19</ele>
        <time>2021-07-31T17:55:58Z</time>
      </trkpt>
      <trkpt lat="48.23203" lon="-2.17454">
        <ele>102.04</ele>
        <time>2021-07-31T17:56:21Z</time>
      </trkpt>
      <trkpt lat="48.22933" lon="-2.17575">
        <ele>100.11</ele>
        <time>2021-07-31T17:56:34Z</time>
      </trkpt>
      <trkpt lat="48.22539" lon="-2.17734">
        <ele>105.4</ele>
        <time>2021-07-31T17:56:53Z</time>
      </trkpt>
      <trkpt lat="48.22349" lon="-2.17762">
        <ele>110.69</ele>
        <time>2021-07-31T17:57:02Z</time>
      </trkpt>
      <trkpt lat="48.22046" lon="-2.17733">
        <ele>110.21</ele>
        <time>2021-07-31T17:57:15Z</time>
      </trkpt>
      <trkpt lat="48.21659" lon="-2.17683">
        <ele>106.36</ele>
        <time>2021-07-31T17:57:31Z</time>
      </trkpt>
      <trkpt lat="48.21357" lon="-2.17644">
        <ele>102.04</ele>
        <time>2021-07-31T17:57:44Z</time>
      </trkpt>
      <trkpt lat="48.21116" lon="-2.17594">
        <ele>100.11</ele>
        <time>2021-07-31T17:57:55Z</time>
      </trkpt>
      <trkpt lat="48.2082" lon="-2.17528">
        <ele>91.46</ele>
        <time>2021-07-31T17:58:09Z</time>
      </trkpt>
      <trkpt lat="48.20632" lon="-2.17529">
        <ele>91.46</ele>
        <time>2021-07-31T17:58:19Z</time>
      </trkpt>
      <trkpt lat="48.20335" lon="-2.17575">
        <ele>98.19</ele>
        <time>2021-07-31T17:58:34Z</time>
      </trkpt>
      <trkpt lat="48.20198" lon="-2.17524">
        <ele>97.71</ele>
        <time>2021-07-31T17:58:41Z</time>
      </trkpt>
      <trkpt lat="48.19986" lon="-2.17377">
        <ele>100.6</ele>
        <time>2021-07-31T17:58:53Z</time>
      </trkpt>
      <trkpt lat="48.19658" lon="-2.17124">
        <ele>101.08</ele>
        <time>2021-07-31T17:59:12Z</time>
      </trkpt>
      <trkpt lat="48.1949" lon="-2.17028">
        <ele>103.48</ele>
        <time>2021-07-31T17:59:22Z</time>
      </trkpt>
      <trkpt lat="48.19349" lon="-2.1703">
        <ele>106.36</ele>
        <time>2021-07-31T17:59:30Z</time>
      </trkpt>
      <trkpt lat="48.19073" lon="-2.17089">
        <ele>110.21</ele>
        <time>2021-07-31T17:59:46Z</time>
      </trkpt>
      <trkpt lat="48.19005" lon="-2.17081">
        <ele>110.21</ele>
        <time>2021-07-31T17:59:52Z</time>
      </trkpt>
      <trkpt lat="48.18994" lon="-2.1708">
        <ele>110.21</ele>
        <time>2021-07-31T17:59:53Z</time>
      </trkpt>
      <trkpt lat="48.18989" lon="-2.17079">
        <ele>110.69</ele>
        <time>2021-07-31T17:59:54Z</time>
      </trkpt>
      <trkpt lat="48.18989" lon="-2.17079">
        <ele>110.69</ele>
        <time>2021-07-31T17:59:55Z</time>
      </trkpt>
      <trkpt lat="48.1898" lon="-2.17084">
        <ele>110.69</ele>
        <time>2021-07-31T17:59:57Z</time>
      </trkpt>
      <trkpt lat="48.18972" lon="-2.17086">
        <ele>110.69</ele>
        <time>2021-07-31T17:59:58Z</time>
      </trkpt>
      <trkpt lat="48.18965" lon="-2.17087">
        <ele>110.69</ele>
        <time>2021-07-31T17:59:59Z</time>
      </trkpt>
      <trkpt lat="48.18962" lon="-2.17087">
        <ele>110.69</ele>
        <time>2021-07-31T18:00:00Z</time>
      </trkpt>
      <trkpt lat="48.18955" lon="-2.17077">
        <ele>110.69</ele>
        <time>2021-07-31T18:00:01Z</time>
      </trkpt>
      <trkpt lat="48.18951" lon="-2.1707">
        <ele>110.69</ele>
        <time>2021-07-31T18:00:02Z</time>
      </trkpt>
      <trkpt lat="48.18945" lon="-2.17063">
        <ele>110.69</ele>
        <time>2021-07-31T18:00:03Z</time>
      </trkpt>
      <trkpt lat="48.18944" lon="-2.17057">
        <ele>111.17</ele>
        <time>2021-07-31T18:00:04Z</time>
      </trkpt>
      <trkpt lat="48.1893" lon="-2.17035">
        <ele>111.17</ele>
        <time>2021-07-31T18:00:05Z</time>
      </trkpt>
      <trkpt lat="48.18923" lon="-2.17029">
        <ele>110.69</ele>
        <time>2021-07-31T18:00:06Z</time>
      </trkpt>
      <trkpt lat="48.18923" lon="-2.17029">
        <ele>110.69</ele>
        <time>2021-07-31T18:00:07Z</time>
      </trkpt>
      <trkpt lat="48.18915" lon="-2.17021">
        <ele>110.21</ele>
        <time>2021-07-31T18:00:08Z</time>
      </trkpt>
      <trkpt lat="48.18869" lon="-2.16983">
        <ele>111.17</ele>
        <time>2021-07-31T18:00:13Z</time>
      </trkpt>
      <trkpt lat="48.18861" lon="-2.16978">
        <ele>111.65</ele>
        <time>2021-07-31T18:00:14Z</time>
      </trkpt>
      <trkpt lat="48.18855" lon="-2.16974">
        <ele>112.13</ele>
        <time>2021-07-31T18:00:15Z</time>
      </trkpt>
      <trkpt lat="48.18849" lon="-2.1697">
        <ele>112.61</ele>
        <time>2021-07-31T18:00:16Z</time>
      </trkpt>
      <trkpt lat="48.18829" lon="-2.16982">
        <ele>112.61</ele>
        <time>2021-07-31T18:00:17Z</time>
      </trkpt>
      <trkpt lat="48.18829" lon="-2.16982">
        <ele>113.09</ele>
        <time>2021-07-31T18:00:18Z</time>
      </trkpt>
      <trkpt lat="48.18822" lon="-2.16991">
        <ele>114.05</ele>
        <time>2021-07-31T18:00:19Z</time>
      </trkpt>
      <trkpt lat="48.18814" lon="-2.17001">
        <ele>113.09</ele>
        <time>2021-07-31T18:00:20Z</time>
      </trkpt>
      <trkpt lat="48.18726" lon="-2.17127">
        <ele>109.73</ele>
        <time>2021-07-31T18:00:29Z</time>
      </trkpt>
      <trkpt lat="48.18637" lon="-2.17314">
        <ele>113.57</ele>
        <time>2021-07-31T18:00:38Z</time>
      </trkpt>
      <trkpt lat="48.18478" lon="-2.17722">
        <ele>116.94</ele>
        <time>2021-07-31T18:00:54Z</time>
      </trkpt>
      <trkpt lat="48.18276" lon="-2.18198">
        <ele>113.09</ele>
        <time>2021-07-31T18:01:12Z</time>
      </trkpt>
      <trkpt lat="48.18098" lon="-2.18584">
        <ele>99.63</ele>
        <time>2021-07-31T18:01:25Z</time>
      </trkpt>
      <trkpt lat="48.17872" lon="-2.1908">
        <ele>97.23</ele>
        <time>2021-07-31T18:01:41Z</time>
      </trkpt>
      <trkpt lat="48.17801" lon="-2.19337">
        <ele>99.15</ele>
        <time>2021-07-31T18:01:49Z</time>
      </trkpt>
      <trkpt lat="48.17774" lon="-2.19606">
        <ele>100.11</ele>
        <time>2021-07-31T18:01:57Z</time>
      </trkpt>
      <trkpt lat="48.17797" lon="-2.19862">
        <ele>97.23</ele>
        <time>2021-07-31T18:02:05Z</time>
      </trkpt>
      <trkpt lat="48.17837" lon="-2.20025">
        <ele>97.23</ele>
        <time>2021-07-31T18:02:11Z</time>
      </trkpt>
      <trkpt lat="48.17851" lon="-2.20064">
        <ele>97.71</ele>
        <time>2021-07-31T18:02:13Z</time>
      </trkpt>
      <trkpt lat="48.1786" lon="-2.20077">
        <ele>96.27</ele>
        <time>2021-07-31T18:02:14Z</time>
      </trkpt>
      <trkpt lat="48.17869" lon="-2.20091">
        <ele>95.79</ele>
        <time>2021-07-31T18:02:15Z</time>
      </trkpt>
      <trkpt lat="48.17878" lon="-2.20101">
        <ele>97.23</ele>
        <time>2021-07-31T18:02:16Z</time>
      </trkpt>
      <trkpt lat="48.17887" lon="-2.20111">
        <ele>98.19</ele>
        <time>2021-07-31T18:02:17Z</time>
      </trkpt>
      <trkpt lat="48.17899" lon="-2.20116">
        <ele>99.63</ele>
        <time>2021-07-31T18:02:18Z</time>
      </trkpt>
      <trkpt lat="48.17908" lon="-2.20119">
        <ele>100.6</ele>
        <time>2021-07-31T18:02:19Z</time>
      </trkpt>
      <trkpt lat="48.17922" lon="-2.20115">
        <ele>100.6</ele>
        <time>2021-07-31T18:02:20Z</time>
      </trkpt>
      <trkpt lat="48.17931" lon="-2.20107">
        <ele>100.6</ele>
        <time>2021-07-31T18:02:21Z</time>
      </trkpt>
      <trkpt lat="48.17938" lon="-2.20094">
        <ele>101.56</ele>
        <time>2021-07-31T18:02:22Z</time>
      </trkpt>
      <trkpt lat="48.17944" lon="-2.20081">
        <ele>102.52</ele>
        <time>2021-07-31T18:02:23Z</time>
      </trkpt>
      <trkpt lat="48.17945" lon="-2.20071">
        <ele>102.04</ele>
        <time>2021-07-31T18:02:24Z</time>
      </trkpt>
      <trkpt lat="48.17945" lon="-2.20055">
        <ele>101.56</ele>
        <time>2021-07-31T18:02:25Z</time>
      </trkpt>
      <trkpt lat="48.17941" lon="-2.20043">
        <ele>100.6</ele>
        <time>2021-07-31T18:02:26Z</time>
      </trkpt>
      <trkpt lat="48.17933" lon="-2.20027">
        <ele>98.67</ele>
        <time>2021-07-31T18:02:27Z</time>
      </trkpt>
      <trkpt lat="48.17927" lon="-2.20014">
        <ele>96.75</ele>
        <time>2021-07-31T18:02:28Z</time>
      </trkpt>
      <trkpt lat="48.17921" lon="-2.20001">
        <ele>95.31</ele>
        <time>2021-07-31T18:02:29Z</time>
      </trkpt>
      <trkpt lat="48.17907" lon="-2.19982">
        <ele>96.75</ele>
        <time>2021-07-31T18:02:34Z</time>
      </trkpt>
      <trkpt lat="48.17907" lon="-2.19982">
        <ele>97.23</ele>
        <time>2021-07-31T18:02:37Z</time>
      </trkpt>
      <trkpt lat="48.17904" lon="-2.19978">
        <ele>97.23</ele>
        <time>2021-07-31T18:02:38Z</time>
      </trkpt>
      <trkpt lat="48.17902" lon="-2.19976">
        <ele>97.71</ele>
        <time>2021-07-31T18:02:39Z</time>
      </trkpt>
      <trkpt lat="48.17899" lon="-2.19977">
        <ele>97.71</ele>
        <time>2021-07-31T18:02:40Z</time>
      </trkpt>
      <trkpt lat="48.17893" lon="-2.19981">
        <ele>97.71</ele>
        <time>2021-07-31T18:02:41Z</time>
      </trkpt>
      <trkpt lat="48.17887" lon="-2.19984">
        <ele>97.23</ele>
        <time>2021-07-31T18:02:42Z</time>
      </trkpt>
      <trkpt lat="48.17811" lon="-2.20035">
        <ele>95.31</ele>
        <time>2021-07-31T18:02:50Z</time>
      </trkpt>
      <trkpt lat="48.17702" lon="-2.20123">
        <ele>95.79</ele>
        <time>2021-07-31T18:02:59Z</time>
      </trkpt>
      <trkpt lat="48.17692" lon="-2.20136">
        <ele>96.27</ele>
        <time>2021-07-31T18:03:00Z</time>
      </trkpt>
      <trkpt lat="48.17682" lon="-2.20149">
        <ele>96.27</ele>
        <time>2021-07-31T18:03:01Z</time>
      </trkpt>
      <trkpt lat="48.17578" lon="-2.20327">
        <ele>98.67</ele>
        <time>2021-07-31T18:03:11Z</time>
      </trkpt>
      <trkpt lat="48.17441" lon="-2.20484">
        <ele>98.67</ele>
        <time>2021-07-31T18:03:21Z</time>
      </trkpt>
      <trkpt lat="48.17262" lon="-2.20643">
        <ele>92.9</ele>
        <time>2021-07-31T18:03:32Z</time>
      </trkpt>
      <trkpt lat="48.1702" lon="-2.20802">
        <ele>95.79</ele>
        <time>2021-07-31T18:03:45Z</time>
      </trkpt>
      <trkpt lat="48.16715" lon="-2.20936">
        <ele>93.87</ele>
        <time>2021-07-31T18:04:01Z</time>
      </trkpt>
      <trkpt lat="48.16505" lon="-2.21028">
        <ele>96.27</ele>
        <time>2021-07-31T18:04:14Z</time>
      </trkpt>
      <trkpt lat="48.16308" lon="-2.21112">
        <ele>93.87</ele>
        <time>2021-07-31T18:04:26Z</time>
      </trkpt>
      <trkpt lat="48.16112" lon="-2.21165">
        <ele>89.54</ele>
        <time>2021-07-31T18:04:37Z</time>
      </trkpt>
      <trkpt lat="48.15802" lon="-2.21185">
        <ele>84.73</ele>
        <time>2021-07-31T18:04:52Z</time>
      </trkpt>
      <trkpt lat="48.15508" lon="-2.21224">
        <ele>80.41</ele>
        <time>2021-07-31T18:05:07Z</time>
      </trkpt>
      <trkpt lat="48.15308" lon="-2.21326">
        <ele>80.41</ele>
        <time>2021-07-31T18:05:16Z</time>
      </trkpt>
      <trkpt lat="48.15068" lon="-2.21486">
        <ele>80.41</ele>
        <time>2021-07-31T18:05:29Z</time>
      </trkpt>
      <trkpt lat="48.14796" lon="-2.2163">
        <ele>82.33</ele>
        <time>2021-07-31T18:05:44Z</time>
      </trkpt>
      <trkpt lat="48.14486" lon="-2.21789">
        <ele>89.06</ele>
        <time>2021-07-31T18:06:01Z</time>
      </trkpt>
      <trkpt lat="48.14225" lon="-2.21945">
        <ele>94.35</ele>
        <time>2021-07-31T18:06:16Z</time>
      </trkpt>
      <trkpt lat="48.14148" lon="-2.22008">
        <ele>94.35</ele>
        <time>2021-07-31T18:06:23Z</time>
      </trkpt>
      <trkpt lat="48.14032" lon="-2.22132">
        <ele>95.79</ele>
        <time>2021-07-31T18:06:33Z</time>
      </trkpt>
      <trkpt lat="48.13883" lon="-2.22342">
        <ele>89.06</ele>
        <time>2021-07-31T18:06:45Z</time>
      </trkpt>
      <trkpt lat="48.13725" lon="-2.22635">
        <ele>79.93</ele>
        <time>2021-07-31T18:06:59Z</time>
      </trkpt>
      <trkpt lat="48.13689" lon="-2.22701">
        <ele>78.97</ele>
        <time>2021-07-31T18:07:04Z</time>
      </trkpt>
      <trkpt lat="48.13685" lon="-2.22709">
        <ele>78.48</ele>
        <time>2021-07-31T18:07:05Z</time>
      </trkpt>
      <trkpt lat="48.13682" lon="-2.22715">
        <ele>78.48</ele>
        <time>2021-07-31T18:07:06Z</time>
      </trkpt>
      <trkpt lat="48.13683" lon="-2.22728">
        <ele>78.48</ele>
        <time>2021-07-31T18:07:07Z</time>
      </trkpt>
      <trkpt lat="48.13686" lon="-2.22733">
        <ele>78</ele>
        <time>2021-07-31T18:07:08Z</time>
      </trkpt>
      <trkpt lat="48.13688" lon="-2.22737">
        <ele>78</ele>
        <time>2021-07-31T18:07:09Z</time>
      </trkpt>
      <trkpt lat="48.1369" lon="-2.22742">
        <ele>78.48</ele>
        <time>2021-07-31T18:07:11Z</time>
      </trkpt>
      <trkpt lat="48.13691" lon="-2.22744">
        <ele>78.48</ele>
        <time>2021-07-31T18:07:12Z</time>
      </trkpt>
      <trkpt lat="48.13673" lon="-2.22732">
        <ele>78.48</ele>
        <time>2021-07-31T18:07:13Z</time>
      </trkpt>
      <trkpt lat="48.13673" lon="-2.22732">
        <ele>78</ele>
        <time>2021-07-31T18:07:14Z</time>
      </trkpt>
      <trkpt lat="48.13671" lon="-2.22734">
        <ele>78</ele>
        <time>2021-07-31T18:07:15Z</time>
      </trkpt>
      <trkpt lat="48.13668" lon="-2.22739">
        <ele>77.52</ele>
        <time>2021-07-31T18:07:16Z</time>
      </trkpt>
      <trkpt lat="48.13668" lon="-2.22739">
        <ele>77.52</ele>
        <time>2021-07-31T18:07:17Z</time>
      </trkpt>
      <trkpt lat="48.13668" lon="-2.22739">
        <ele>76.56</ele>
        <time>2021-07-31T18:07:21Z</time>
      </trkpt>
      <trkpt lat="48.13668" lon="-2.22739">
        <ele>76.56</ele>
        <time>2021-07-31T18:07:22Z</time>
      </trkpt>
      <trkpt lat="48.13668" lon="-2.22737">
        <ele>76.08</ele>
        <time>2021-07-31T18:07:23Z</time>
      </trkpt>
      <trkpt lat="48.13674" lon="-2.22729">
        <ele>76.08</ele>
        <time>2021-07-31T18:07:24Z</time>
      </trkpt>
      <trkpt lat="48.13677" lon="-2.22725">
        <ele>76.08</ele>
        <time>2021-07-31T18:07:25Z</time>
      </trkpt>
      <trkpt lat="48.13683" lon="-2.22712">
        <ele>76.56</ele>
        <time>2021-07-31T18:07:26Z</time>
      </trkpt>
      <trkpt lat="48.13716" lon="-2.22652">
        <ele>76.08</ele>
        <time>2021-07-31T18:07:32Z</time>
      </trkpt>
      <trkpt lat="48.13787" lon="-2.22519">
        <ele>80.89</ele>
        <time>2021-07-31T18:07:40Z</time>
      </trkpt>
      <trkpt lat="48.13954" lon="-2.22233">
        <ele>91.46</ele>
        <time>2021-07-31T18:07:54Z</time>
      </trkpt>
      <trkpt lat="48.14113" lon="-2.2204">
        <ele>98.19</ele>
        <time>2021-07-31T18:08:06Z</time>
      </trkpt>
      <trkpt lat="48.14192" lon="-2.2197">
        <ele>98.67</ele>
        <time>2021-07-31T18:08:13Z</time>
      </trkpt>
      <trkpt lat="48.14198" lon="-2.21965">
        <ele>98.67</ele>
        <time>2021-07-31T18:08:14Z</time>
      </trkpt>
      <trkpt lat="48.14203" lon="-2.21961">
        <ele>98.19</ele>
        <time>2021-07-31T18:08:15Z</time>
      </trkpt>
      <trkpt lat="48.14207" lon="-2.21958">
        <ele>97.71</ele>
        <time>2021-07-31T18:08:16Z</time>
      </trkpt>
      <trkpt lat="48.14205" lon="-2.21943">
        <ele>97.71</ele>
        <time>2021-07-31T18:08:17Z</time>
      </trkpt>
      <trkpt lat="48.14201" lon="-2.21937">
        <ele>97.23</ele>
        <time>2021-07-31T18:08:18Z</time>
      </trkpt>
      <trkpt lat="48.14198" lon="-2.21931">
        <ele>97.23</ele>
        <time>2021-07-31T18:08:19Z</time>
      </trkpt>
      <trkpt lat="48.14194" lon="-2.21927">
        <ele>97.23</ele>
        <time>2021-07-31T18:08:20Z</time>
      </trkpt>
      <trkpt lat="48.14187" lon="-2.2192">
        <ele>97.23</ele>
        <time>2021-07-31T18:08:22Z</time>
      </trkpt>
      <trkpt lat="48.14183" lon="-2.21916">
        <ele>97.23</ele>
        <time>2021-07-31T18:08:23Z</time>
      </trkpt>
      <trkpt lat="48.14175" lon="-2.21913">
        <ele>96.75</ele>
        <time>2021-07-31T18:08:24Z</time>
      </trkpt>
      <trkpt lat="48.14168" lon="-2.21914">
        <ele>96.75</ele>
        <time>2021-07-31T18:08:25Z</time>
      </trkpt>
      <trkpt lat="48.1416" lon="-2.21914">
        <ele>96.75</ele>
        <time>2021-07-31T18:08:26Z</time>
      </trkpt>
      <trkpt lat="48.14035" lon="-2.2193">
        <ele>93.39</ele>
        <time>2021-07-31T18:08:37Z</time>
      </trkpt>
      <trkpt lat="48.13843" lon="-2.21984">
        <ele>90.98</ele>
        <time>2021-07-31T18:08:52Z</time>
      </trkpt>
      <trkpt lat="48.13779" lon="-2.22007">
        <ele>89.06</ele>
        <time>2021-07-31T18:09:00Z</time>
      </trkpt>
      <trkpt lat="48.13666" lon="-2.22049">
        <ele>83.77</ele>
        <time>2021-07-31T18:09:11Z</time>
      </trkpt>
      <trkpt lat="48.13526" lon="-2.221">
        <ele>80.41</ele>
        <time>2021-07-31T18:09:24Z</time>
      </trkpt>
      <trkpt lat="48.13444" lon="-2.22129">
        <ele>78.97</ele>
        <time>2021-07-31T18:09:35Z</time>
      </trkpt>
      <trkpt lat="48.1332" lon="-2.22171">
        <ele>74.64</ele>
        <time>2021-07-31T18:09:47Z</time>
      </trkpt>
      <trkpt lat="48.13311" lon="-2.22173">
        <ele>74.64</ele>
        <time>2021-07-31T18:09:48Z</time>
      </trkpt>
      <trkpt lat="48.13302" lon="-2.22175">
        <ele>75.6</ele>
        <time>2021-07-31T18:09:49Z</time>
      </trkpt>
      <trkpt lat="48.13183" lon="-2.22185">
        <ele>76.56</ele>
        <time>2021-07-31T18:10:02Z</time>
      </trkpt>
      <trkpt lat="48.1316" lon="-2.22193">
        <ele>73.2</ele>
        <time>2021-07-31T18:10:10Z</time>
      </trkpt>
      <trkpt lat="48.13158" lon="-2.22194">
        <ele>72.72</ele>
        <time>2021-07-31T18:10:11Z</time>
      </trkpt>
      <trkpt lat="48.13156" lon="-2.22187">
        <ele>72.72</ele>
        <time>2021-07-31T18:10:12Z</time>
      </trkpt>
      <trkpt lat="48.13155" lon="-2.22183">
        <ele>72.72</ele>
        <time>2021-07-31T18:10:13Z</time>
      </trkpt>
      <trkpt lat="48.13154" lon="-2.22179">
        <ele>73.2</ele>
        <time>2021-07-31T18:10:14Z</time>
      </trkpt>
      <trkpt lat="48.13153" lon="-2.22175">
        <ele>73.68</ele>
        <time>2021-07-31T18:10:15Z</time>
      </trkpt>
      <trkpt lat="48.13142" lon="-2.22082">
        <ele>80.89</ele>
        <time>2021-07-31T18:10:25Z</time>
      </trkpt>
      <trkpt lat="48.13125" lon="-2.21911">
        <ele>76.56</ele>
        <time>2021-07-31T18:10:37Z</time>
      </trkpt>
      <trkpt lat="48.13105" lon="-2.2171">
        <ele>71.27</ele>
        <time>2021-07-31T18:10:50Z</time>
      </trkpt>
      <trkpt lat="48.13104" lon="-2.21701">
        <ele>71.76</ele>
        <time>2021-07-31T18:10:51Z</time>
      </trkpt>
      <trkpt lat="48.13101" lon="-2.2169">
        <ele>71.27</ele>
        <time>2021-07-31T18:10:52Z</time>
      </trkpt>
      <trkpt lat="48.13098" lon="-2.21682">
        <ele>70.79</ele>
        <time>2021-07-31T18:10:53Z</time>
      </trkpt>
      <trkpt lat="48.13087" lon="-2.21657">
        <ele>70.79</ele>
        <time>2021-07-31T18:10:57Z</time>
      </trkpt>
      <trkpt lat="48.13083" lon="-2.21653">
        <ele>70.79</ele>
        <time>2021-07-31T18:10:58Z</time>
      </trkpt>
      <trkpt lat="48.1308" lon="-2.21649">
        <ele>70.79</ele>
        <time>2021-07-31T18:10:59Z</time>
      </trkpt>
      <trkpt lat="48.1307" lon="-2.21654">
        <ele>70.79</ele>
        <time>2021-07-31T18:11:00Z</time>
      </trkpt>
      <trkpt lat="48.1307" lon="-2.21654">
        <ele>70.79</ele>
        <time>2021-07-31T18:11:01Z</time>
      </trkpt>
      <trkpt lat="48.13063" lon="-2.21657">
        <ele>70.79</ele>
        <time>2021-07-31T18:11:02Z</time>
      </trkpt>
      <trkpt lat="48.13057" lon="-2.21662">
        <ele>71.27</ele>
        <time>2021-07-31T18:11:03Z</time>
      </trkpt>
      <trkpt lat="48.12969" lon="-2.21771">
        <ele>72.24</ele>
        <time>2021-07-31T18:11:14Z</time>
      </trkpt>
      <trkpt lat="48.12872" lon="-2.21881">
        <ele>67.43</ele>
        <time>2021-07-31T18:11:24Z</time>
      </trkpt>
      <trkpt lat="48.12872" lon="-2.21881">
        <ele>66.47</ele>
        <time>2021-07-31T18:11:25Z</time>
      </trkpt>
      <trkpt lat="48.12863" lon="-2.21886">
        <ele>65.51</ele>
        <time>2021-07-31T18:11:26Z</time>
      </trkpt>
      <trkpt lat="48.12855" lon="-2.21891">
        <ele>65.03</ele>
        <time>2021-07-31T18:11:27Z</time>
      </trkpt>
      <trkpt lat="48.12843" lon="-2.21889">
        <ele>64.07</ele>
        <time>2021-07-31T18:11:28Z</time>
      </trkpt>
      <trkpt lat="48.12833" lon="-2.21887">
        <ele>63.1</ele>
        <time>2021-07-31T18:11:29Z</time>
      </trkpt>
      <trkpt lat="48.12822" lon="-2.21882">
        <ele>63.1</ele>
        <time>2021-07-31T18:11:30Z</time>
      </trkpt>
      <trkpt lat="48.12778" lon="-2.21848">
        <ele>60.7</ele>
        <time>2021-07-31T18:11:34Z</time>
      </trkpt>
      <trkpt lat="48.12766" lon="-2.21834">
        <ele>60.22</ele>
        <time>2021-07-31T18:11:35Z</time>
      </trkpt>
      <trkpt lat="48.12755" lon="-2.21821">
        <ele>60.7</ele>
        <time>2021-07-31T18:11:36Z</time>
      </trkpt>
      <trkpt lat="48.12744" lon="-2.21806">
        <ele>61.18</ele>
        <time>2021-07-31T18:11:37Z</time>
      </trkpt>
      <trkpt lat="48.12735" lon="-2.21786">
        <ele>61.18</ele>
        <time>2021-07-31T18:11:38Z</time>
      </trkpt>
      <trkpt lat="48.12725" lon="-2.21766">
        <ele>60.7</ele>
        <time>2021-07-31T18:11:39Z</time>
      </trkpt>
      <trkpt lat="48.12666" lon="-2.21645">
        <ele>58.3</ele>
        <time>2021-07-31T18:11:45Z</time>
      </trkpt>
      <trkpt lat="48.12655" lon="-2.21629">
        <ele>57.82</ele>
        <time>2021-07-31T18:11:46Z</time>
      </trkpt>
      <trkpt lat="48.12644" lon="-2.21616">
        <ele>57.82</ele>
        <time>2021-07-31T18:11:47Z</time>
      </trkpt>
      <trkpt lat="48.1263" lon="-2.21606">
        <ele>57.34</ele>
        <time>2021-07-31T18:11:48Z</time>
      </trkpt>
      <trkpt lat="48.12614" lon="-2.21596">
        <ele>57.34</ele>
        <time>2021-07-31T18:11:49Z</time>
      </trkpt>
      <trkpt lat="48.12599" lon="-2.21588">
        <ele>57.82</ele>
        <time>2021-07-31T18:11:50Z</time>
      </trkpt>
      <trkpt lat="48.12356" lon="-2.2153">
        <ele>64.55</ele>
        <time>2021-07-31T18:12:03Z</time>
      </trkpt>
      <trkpt lat="48.12165" lon="-2.21515">
        <ele>66.47</ele>
        <time>2021-07-31T18:12:14Z</time>
      </trkpt>
      <trkpt lat="48.11984" lon="-2.2153">
        <ele>68.87</ele>
        <time>2021-07-31T18:12:23Z</time>
      </trkpt>
      <trkpt lat="48.11762" lon="-2.21518">
        <ele>74.16</ele>
        <time>2021-07-31T18:12:35Z</time>
      </trkpt>
      <trkpt lat="48.11708" lon="-2.21505">
        <ele>73.68</ele>
        <time>2021-07-31T18:12:37Z</time>
      </trkpt>
      <trkpt lat="48.11708" lon="-2.21505">
        <ele>73.68</ele>
        <time>2021-07-31T18:12:38Z</time>
      </trkpt>
      <trkpt lat="48.11546" lon="-2.21415">
        <ele>73.68</ele>
        <time>2021-07-31T18:12:47Z</time>
      </trkpt>
      <trkpt lat="48.11456" lon="-2.21386">
        <ele>78.97</ele>
        <time>2021-07-31T18:12:52Z</time>
      </trkpt>
      <trkpt lat="48.11438" lon="-2.21385">
        <ele>79.93</ele>
        <time>2021-07-31T18:12:53Z</time>
      </trkpt>
      <trkpt lat="48.1142" lon="-2.21387">
        <ele>81.37</ele>
        <time>2021-07-31T18:12:54Z</time>
      </trkpt>
      <trkpt lat="48.11192" lon="-2.21459">
        <ele>86.18</ele>
        <time>2021-07-31T18:13:06Z</time>
      </trkpt>
      <trkpt lat="48.11099" lon="-2.21481">
        <ele>90.5</ele>
        <time>2021-07-31T18:13:11Z</time>
      </trkpt>
      <trkpt lat="48.11082" lon="-2.2148">
        <ele>90.98</ele>
        <time>2021-07-31T18:13:12Z</time>
      </trkpt>
      <trkpt lat="48.11046" lon="-2.21471">
        <ele>90.5</ele>
        <time>2021-07-31T18:13:13Z</time>
      </trkpt>
      <trkpt lat="48.11031" lon="-2.21458">
        <ele>90.5</ele>
        <time>2021-07-31T18:13:14Z</time>
      </trkpt>
      <trkpt lat="48.11017" lon="-2.21444">
        <ele>91.46</ele>
        <time>2021-07-31T18:13:15Z</time>
      </trkpt>
      <trkpt lat="48.11017" lon="-2.21444">
        <ele>90.98</ele>
        <time>2021-07-31T18:13:16Z</time>
      </trkpt>
      <trkpt lat="48.11003" lon="-2.21428">
        <ele>90.98</ele>
        <time>2021-07-31T18:13:17Z</time>
      </trkpt>
      <trkpt lat="48.10876" lon="-2.213">
        <ele>90.5</ele>
        <time>2021-07-31T18:13:26Z</time>
      </trkpt>
      <trkpt lat="48.1086" lon="-2.21291">
        <ele>90.02</ele>
        <time>2021-07-31T18:13:27Z</time>
      </trkpt>
      <trkpt lat="48.10685" lon="-2.21211">
        <ele>86.18</ele>
        <time>2021-07-31T18:13:36Z</time>
      </trkpt>
      <trkpt lat="48.10499" lon="-2.21104">
        <ele>81.37</ele>
        <time>2021-07-31T18:13:46Z</time>
      </trkpt>
      <trkpt lat="48.10237" lon="-2.20964">
        <ele>78.48</ele>
        <time>2021-07-31T18:13:59Z</time>
      </trkpt>
      <trkpt lat="48.10005" lon="-2.20826">
        <ele>74.16</ele>
        <time>2021-07-31T18:14:12Z</time>
      </trkpt>
      <trkpt lat="48.09766" lon="-2.20576">
        <ele>81.37</ele>
        <time>2021-07-31T18:14:27Z</time>
      </trkpt>
      <trkpt lat="48.09504" lon="-2.20298">
        <ele>75.12</ele>
        <time>2021-07-31T18:14:42Z</time>
      </trkpt>
      <trkpt lat="48.09403" lon="-2.20192">
        <ele>81.85</ele>
        <time>2021-07-31T18:14:50Z</time>
      </trkpt>
      <trkpt lat="48.09204" lon="-2.19987">
        <ele>100.11</ele>
        <time>2021-07-31T18:15:05Z</time>
      </trkpt>
      <trkpt lat="48.09082" lon="-2.19924">
        <ele>100.6</ele>
        <time>2021-07-31T18:15:13Z</time>
      </trkpt>
      <trkpt lat="48.08841" lon="-2.19847">
        <ele>104.44</ele>
        <time>2021-07-31T18:15:27Z</time>
      </trkpt>
      <trkpt lat="48.08476" lon="-2.19731">
        <ele>108.77</ele>
        <time>2021-07-31T18:15:47Z</time>
      </trkpt>
      <trkpt lat="48.0829" lon="-2.19676">
        <ele>113.57</ele>
        <time>2021-07-31T18:15:58Z</time>
      </trkpt>
      <trkpt lat="48.08171" lon="-2.19653">
        <ele>112.13</ele>
        <time>2021-07-31T18:16:07Z</time>
      </trkpt>
      <trkpt lat="48.07963" lon="-2.19608">
        <ele>107.32</ele>
        <time>2021-07-31T18:16:20Z</time>
      </trkpt>
      <trkpt lat="48.07761" lon="-2.19619">
        <ele>100.11</ele>
        <time>2021-07-31T18:16:32Z</time>
      </trkpt>
      <trkpt lat="48.07537" lon="-2.19631">
        <ele>90.02</ele>
        <time>2021-07-31T18:16:45Z</time>
      </trkpt>
      <trkpt lat="48.07521" lon="-2.19626">
        <ele>90.98</ele>
        <time>2021-07-31T18:16:46Z</time>
      </trkpt>
      <trkpt lat="48.07506" lon="-2.19621">
        <ele>91.94</ele>
        <time>2021-07-31T18:16:47Z</time>
      </trkpt>
      <trkpt lat="48.07492" lon="-2.19611">
        <ele>93.39</ele>
        <time>2021-07-31T18:16:48Z</time>
      </trkpt>
      <trkpt lat="48.07478" lon="-2.19599">
        <ele>93.87</ele>
        <time>2021-07-31T18:16:49Z</time>
      </trkpt>
      <trkpt lat="48.07463" lon="-2.19587">
        <ele>95.31</ele>
        <time>2021-07-31T18:16:50Z</time>
      </trkpt>
      <trkpt lat="48.0745" lon="-2.19573">
        <ele>97.23</ele>
        <time>2021-07-31T18:16:51Z</time>
      </trkpt>
      <trkpt lat="48.07437" lon="-2.19558">
        <ele>98.67</ele>
        <time>2021-07-31T18:16:52Z</time>
      </trkpt>
      <trkpt lat="48.07373" lon="-2.19478">
        <ele>103.48</ele>
        <time>2021-07-31T18:16:57Z</time>
      </trkpt>
      <trkpt lat="48.07358" lon="-2.19468">
        <ele>103.48</ele>
        <time>2021-07-31T18:16:58Z</time>
      </trkpt>
      <trkpt lat="48.07343" lon="-2.19458">
        <ele>103.48</ele>
        <time>2021-07-31T18:16:59Z</time>
      </trkpt>
      <trkpt lat="48.0712" lon="-2.19368">
        <ele>106.84</ele>
        <time>2021-07-31T18:17:12Z</time>
      </trkpt>
      <trkpt lat="48.06977" lon="-2.19286">
        <ele>108.29</ele>
        <time>2021-07-31T18:17:21Z</time>
      </trkpt>
      <trkpt lat="48.06747" lon="-2.1906">
        <ele>113.57</ele>
        <time>2021-07-31T18:17:37Z</time>
      </trkpt>
      <trkpt lat="48.06629" lon="-2.18943">
        <ele>115.5</ele>
        <time>2021-07-31T18:17:48Z</time>
      </trkpt>
      <trkpt lat="48.06531" lon="-2.18825">
        <ele>115.01</ele>
        <time>2021-07-31T18:17:57Z</time>
      </trkpt>
      <trkpt lat="48.06363" lon="-2.18612">
        <ele>114.53</ele>
        <time>2021-07-31T18:18:11Z</time>
      </trkpt>
      <trkpt lat="48.06239" lon="-2.18503">
        <ele>113.57</ele>
        <time>2021-07-31T18:18:19Z</time>
      </trkpt>
      <trkpt lat="48.0617" lon="-2.18459">
        <ele>114.53</ele>
        <time>2021-07-31T18:18:23Z</time>
      </trkpt>
      <trkpt lat="48.06015" lon="-2.1843">
        <ele>116.46</ele>
        <time>2021-07-31T18:18:32Z</time>
      </trkpt>
      <trkpt lat="48.05955" lon="-2.18439">
        <ele>116.46</ele>
        <time>2021-07-31T18:18:36Z</time>
      </trkpt>
      <trkpt lat="48.0594" lon="-2.18443">
        <ele>115.5</ele>
        <time>2021-07-31T18:18:37Z</time>
      </trkpt>
      <trkpt lat="48.05927" lon="-2.18451">
        <ele>115.5</ele>
        <time>2021-07-31T18:18:38Z</time>
      </trkpt>
      <trkpt lat="48.05915" lon="-2.18462">
        <ele>116.94</ele>
        <time>2021-07-31T18:18:39Z</time>
      </trkpt>
      <trkpt lat="48.05895" lon="-2.1849">
        <ele>116.46</ele>
        <time>2021-07-31T18:18:40Z</time>
      </trkpt>
      <trkpt lat="48.05814" lon="-2.18582">
        <ele>114.05</ele>
        <time>2021-07-31T18:18:48Z</time>
      </trkpt>
      <trkpt lat="48.05802" lon="-2.18594">
        <ele>114.05</ele>
        <time>2021-07-31T18:18:49Z</time>
      </trkpt>
      <trkpt lat="48.0579" lon="-2.18601">
        <ele>114.05</ele>
        <time>2021-07-31T18:18:50Z</time>
      </trkpt>
      <trkpt lat="48.05777" lon="-2.18607">
        <ele>114.53</ele>
        <time>2021-07-31T18:18:51Z</time>
      </trkpt>
      <trkpt lat="48.05575" lon="-2.18668">
        <ele>120.3</ele>
        <time>2021-07-31T18:19:05Z</time>
      </trkpt>
      <trkpt lat="48.05436" lon="-2.18647">
        <ele>121.74</ele>
        <time>2021-07-31T18:19:14Z</time>
      </trkpt>
      <trkpt lat="48.05127" lon="-2.18557">
        <ele>134.24</ele>
        <time>2021-07-31T18:19:32Z</time>
      </trkpt>
      <trkpt lat="48.05012" lon="-2.18552">
        <ele>136.16</ele>
        <time>2021-07-31T18:19:39Z</time>
      </trkpt>
      <trkpt lat="48.04771" lon="-2.18561">
        <ele>143.37</ele>
        <time>2021-07-31T18:19:52Z</time>
      </trkpt>
      <trkpt lat="48.04644" lon="-2.18527">
        <ele>149.62</ele>
        <time>2021-07-31T18:19:59Z</time>
      </trkpt>
      <trkpt lat="48.0446" lon="-2.18435">
        <ele>156.83</ele>
        <time>2021-07-31T18:20:09Z</time>
      </trkpt>
      <trkpt lat="48.04196" lon="-2.18355">
        <ele>166.93</ele>
        <time>2021-07-31T18:20:23Z</time>
      </trkpt>
      <trkpt lat="48.03971" lon="-2.18254">
        <ele>168.85</ele>
        <time>2021-07-31T18:20:35Z</time>
      </trkpt>
      <trkpt lat="48.03818" lon="-2.18127">
        <ele>166.45</ele>
        <time>2021-07-31T18:20:44Z</time>
      </trkpt>
      <trkpt lat="48.03649" lon="-2.18008">
        <ele>162.12</ele>
        <time>2021-07-31T18:20:53Z</time>
      </trkpt>
      <trkpt lat="48.03207" lon="-2.17731">
        <ele>159.72</ele>
        <time>2021-07-31T18:21:15Z</time>
      </trkpt>
      <trkpt lat="48.02931" lon="-2.17559">
        <ele>162.6</ele>
        <time>2021-07-31T18:21:30Z</time>
      </trkpt>
      <trkpt lat="48.02555" lon="-2.17326">
        <ele>157.31</ele>
        <time>2021-07-31T18:21:50Z</time>
      </trkpt>
      <trkpt lat="48.02469" lon="-2.17288">
        <ele>158.27</ele>
        <time>2021-07-31T18:21:58Z</time>
      </trkpt>
      <trkpt lat="48.02401" lon="-2.17261">
        <ele>158.27</ele>
        <time>2021-07-31T18:22:06Z</time>
      </trkpt>
      <trkpt lat="48.02305" lon="-2.17226">
        <ele>156.83</ele>
        <time>2021-07-31T18:22:18Z</time>
      </trkpt>
      <trkpt lat="48.02165" lon="-2.17154">
        <ele>149.14</ele>
        <time>2021-07-31T18:22:34Z</time>
      </trkpt>
      <trkpt lat="48.02128" lon="-2.17118">
        <ele>147.7</ele>
        <time>2021-07-31T18:22:41Z</time>
      </trkpt>
      <trkpt lat="48.02114" lon="-2.17112">
        <ele>147.7</ele>
        <time>2021-07-31T18:22:42Z</time>
      </trkpt>
      <trkpt lat="48.02114" lon="-2.17112">
        <ele>147.7</ele>
        <time>2021-07-31T18:22:43Z</time>
      </trkpt>
      <trkpt lat="48.02107" lon="-2.17109">
        <ele>147.7</ele>
        <time>2021-07-31T18:22:44Z</time>
      </trkpt>
      <trkpt lat="48.021" lon="-2.17106">
        <ele>147.7</ele>
        <time>2021-07-31T18:22:45Z</time>
      </trkpt>
      <trkpt lat="48.02092" lon="-2.17102">
        <ele>147.22</ele>
        <time>2021-07-31T18:22:46Z</time>
      </trkpt>
      <trkpt lat="48.02085" lon="-2.171">
        <ele>147.22</ele>
        <time>2021-07-31T18:22:47Z</time>
      </trkpt>
      <trkpt lat="48.01997" lon="-2.17096">
        <ele>149.14</ele>
        <time>2021-07-31T18:22:59Z</time>
      </trkpt>
      <trkpt lat="48.01985" lon="-2.17096">
        <ele>149.62</ele>
        <time>2021-07-31T18:23:09Z</time>
      </trkpt>
      <trkpt lat="48.01934" lon="-2.17081">
        <ele>151.54</ele>
        <time>2021-07-31T18:23:21Z</time>
      </trkpt>
      <trkpt lat="48.01885" lon="-2.17057">
        <ele>154.43</ele>
        <time>2021-07-31T18:23:34Z</time>
      </trkpt>
      <trkpt lat="48.01829" lon="-2.17034">
        <ele>156.83</ele>
        <time>2021-07-31T18:23:45Z</time>
      </trkpt>
      <trkpt lat="48.017" lon="-2.16986">
        <ele>157.79</ele>
        <time>2021-07-31T18:24:03Z</time>
      </trkpt>
      <trkpt lat="48.01644" lon="-2.16967">
        <ele>157.79</ele>
        <time>2021-07-31T18:24:13Z</time>
      </trkpt>
      <trkpt lat="48.01513" lon="-2.16919">
        <ele>156.83</ele>
        <time>2021-07-31T18:24:27Z</time>
      </trkpt>
      <trkpt lat="48.01464" lon="-2.16901">
        <ele>156.83</ele>
        <time>2021-07-31T18:24:34Z</time>
      </trkpt>
      <trkpt lat="48.01432" lon="-2.16906">
        <ele>155.87</ele>
        <time>2021-07-31T18:24:47Z</time>
      </trkpt>
      <trkpt lat="48.01426" lon="-2.16891">
        <ele>156.35</ele>
        <time>2021-07-31T18:24:50Z</time>
      </trkpt>
      <trkpt lat="48.01422" lon="-2.16889">
        <ele>156.35</ele>
        <time>2021-07-31T18:24:51Z</time>
      </trkpt>
      <trkpt lat="48.01417" lon="-2.16887">
        <ele>156.35</ele>
        <time>2021-07-31T18:24:52Z</time>
      </trkpt>
      <trkpt lat="48.01351" lon="-2.16865">
        <ele>156.83</ele>
        <time>2021-07-31T18:25:00Z</time>
      </trkpt>
      <trkpt lat="48.01236" lon="-2.16811">
        <ele>155.87</ele>
        <time>2021-07-31T18:25:10Z</time>
      </trkpt>
      <trkpt lat="48.01147" lon="-2.16706">
        <ele>150.1</ele>
        <time>2021-07-31T18:25:19Z</time>
      </trkpt>
      <trkpt lat="48.01014" lon="-2.16507">
        <ele>154.91</ele>
        <time>2021-07-31T18:25:32Z</time>
      </trkpt>
      <trkpt lat="48.00849" lon="-2.16258">
        <ele>156.83</ele>
        <time>2021-07-31T18:25:46Z</time>
      </trkpt>
      <trkpt lat="48.00626" lon="-2.15917">
        <ele>154.43</ele>
        <time>2021-07-31T18:26:04Z</time>
      </trkpt>
      <trkpt lat="48.00465" lon="-2.15673">
        <ele>152.99</ele>
        <time>2021-07-31T18:26:16Z</time>
      </trkpt>
      <trkpt lat="48.00285" lon="-2.15401">
        <ele>145.3</ele>
        <time>2021-07-31T18:26:29Z</time>
      </trkpt>
      <trkpt lat="48.00112" lon="-2.15141">
        <ele>135.68</ele>
        <time>2021-07-31T18:26:41Z</time>
      </trkpt>
      <trkpt lat="47.99953" lon="-2.14899">
        <ele>125.11</ele>
        <time>2021-07-31T18:26:53Z</time>
      </trkpt>
      <trkpt lat="47.99865" lon="-2.14767">
        <ele>118.38</ele>
        <time>2021-07-31T18:27:00Z</time>
      </trkpt>
      <trkpt lat="47.99865" lon="-2.14767">
        <ele>116.94</ele>
        <time>2021-07-31T18:27:01Z</time>
      </trkpt>
      <trkpt lat="47.99856" lon="-2.14757">
        <ele>115.98</ele>
        <time>2021-07-31T18:27:02Z</time>
      </trkpt>
      <trkpt lat="47.99846" lon="-2.14749">
        <ele>115.01</ele>
        <time>2021-07-31T18:27:03Z</time>
      </trkpt>
      <trkpt lat="47.99836" lon="-2.14745">
        <ele>114.05</ele>
        <time>2021-07-31T18:27:04Z</time>
      </trkpt>
      <trkpt lat="47.99824" lon="-2.1474">
        <ele>113.09</ele>
        <time>2021-07-31T18:27:05Z</time>
      </trkpt>
      <trkpt lat="47.99813" lon="-2.14736">
        <ele>111.65</ele>
        <time>2021-07-31T18:27:06Z</time>
      </trkpt>
      <trkpt lat="47.99804" lon="-2.14732">
        <ele>110.69</ele>
        <time>2021-07-31T18:27:07Z</time>
      </trkpt>
      <trkpt lat="47.99799" lon="-2.14725">
        <ele>110.21</ele>
        <time>2021-07-31T18:27:08Z</time>
      </trkpt>
      <trkpt lat="47.99794" lon="-2.14716">
        <ele>109.73</ele>
        <time>2021-07-31T18:27:09Z</time>
      </trkpt>
      <trkpt lat="47.99792" lon="-2.14708">
        <ele>108.77</ele>
        <time>2021-07-31T18:27:10Z</time>
      </trkpt>
      <trkpt lat="47.99792" lon="-2.14696">
        <ele>108.29</ele>
        <time>2021-07-31T18:27:11Z</time>
      </trkpt>
      <trkpt lat="47.99793" lon="-2.14686">
        <ele>107.32</ele>
        <time>2021-07-31T18:27:12Z</time>
      </trkpt>
      <trkpt lat="47.99796" lon="-2.14675">
        <ele>106.84</ele>
        <time>2021-07-31T18:27:13Z</time>
      </trkpt>
      <trkpt lat="47.99798" lon="-2.14664">
        <ele>105.88</ele>
        <time>2021-07-31T18:27:14Z</time>
      </trkpt>
      <trkpt lat="47.99809" lon="-2.14619">
        <ele>103.48</ele>
        <time>2021-07-31T18:27:18Z</time>
      </trkpt>
      <trkpt lat="47.99811" lon="-2.14611">
        <ele>102.52</ele>
        <time>2021-07-31T18:27:19Z</time>
      </trkpt>
      <trkpt lat="47.99808" lon="-2.14598">
        <ele>102.04</ele>
        <time>2021-07-31T18:27:20Z</time>
      </trkpt>
      <trkpt lat="47.99807" lon="-2.14594">
        <ele>101.56</ele>
        <time>2021-07-31T18:27:21Z</time>
      </trkpt>
      <trkpt lat="47.99801" lon="-2.14587">
        <ele>101.08</ele>
        <time>2021-07-31T18:27:22Z</time>
      </trkpt>
      <trkpt lat="47.99797" lon="-2.14583">
        <ele>100.6</ele>
        <time>2021-07-31T18:27:23Z</time>
      </trkpt>
      <trkpt lat="47.99792" lon="-2.14581">
        <ele>99.63</ele>
        <time>2021-07-31T18:27:24Z</time>
      </trkpt>
      <trkpt lat="47.99786" lon="-2.14581">
        <ele>99.15</ele>
        <time>2021-07-31T18:27:25Z</time>
      </trkpt>
      <trkpt lat="47.99781" lon="-2.14584">
        <ele>98.67</ele>
        <time>2021-07-31T18:27:26Z</time>
      </trkpt>
      <trkpt lat="47.99775" lon="-2.14589">
        <ele>98.19</ele>
        <time>2021-07-31T18:27:27Z</time>
      </trkpt>
      <trkpt lat="47.99714" lon="-2.14627">
        <ele>93.39</ele>
        <time>2021-07-31T18:27:34Z</time>
      </trkpt>
      <trkpt lat="47.99714" lon="-2.14627">
        <ele>92.42</ele>
        <time>2021-07-31T18:27:35Z</time>
      </trkpt>
      <trkpt lat="47.99707" lon="-2.1463">
        <ele>91.46</ele>
        <time>2021-07-31T18:27:36Z</time>
      </trkpt>
      <trkpt lat="47.99701" lon="-2.14626">
        <ele>90.5</ele>
        <time>2021-07-31T18:27:37Z</time>
      </trkpt>
      <trkpt lat="47.99691" lon="-2.14608">
        <ele>90.02</ele>
        <time>2021-07-31T18:27:38Z</time>
      </trkpt>
      <trkpt lat="47.99691" lon="-2.14608">
        <ele>89.54</ele>
        <time>2021-07-31T18:27:39Z</time>
      </trkpt>
      <trkpt lat="47.99688" lon="-2.14595">
        <ele>89.06</ele>
        <time>2021-07-31T18:27:40Z</time>
      </trkpt>
      <trkpt lat="47.99687" lon="-2.14583">
        <ele>88.1</ele>
        <time>2021-07-31T18:27:41Z</time>
      </trkpt>
      <trkpt lat="47.9968" lon="-2.14524">
        <ele>83.29</ele>
        <time>2021-07-31T18:27:45Z</time>
      </trkpt>
      <trkpt lat="47.99676" lon="-2.14504">
        <ele>80.41</ele>
        <time>2021-07-31T18:27:46Z</time>
      </trkpt>
      <trkpt lat="47.9967" lon="-2.14487">
        <ele>78</ele>
        <time>2021-07-31T18:27:47Z</time>
      </trkpt>
      <trkpt lat="47.99664" lon="-2.1447">
        <ele>77.04</ele>
        <time>2021-07-31T18:27:48Z</time>
      </trkpt>
      <trkpt lat="47.99657" lon="-2.14453">
        <ele>77.04</ele>
        <time>2021-07-31T18:27:49Z</time>
      </trkpt>
      <trkpt lat="47.9955" lon="-2.14292">
        <ele>73.2</ele>
        <time>2021-07-31T18:27:59Z</time>
      </trkpt>
      <trkpt lat="47.99467" lon="-2.14172">
        <ele>73.68</ele>
        <time>2021-07-31T18:28:07Z</time>
      </trkpt>
      <trkpt lat="47.99467" lon="-2.14172">
        <ele>74.16</ele>
        <time>2021-07-31T18:28:08Z</time>
      </trkpt>
      <trkpt lat="47.99453" lon="-2.14158">
        <ele>74.64</ele>
        <time>2021-07-31T18:28:09Z</time>
      </trkpt>
      <trkpt lat="47.9943" lon="-2.14144">
        <ele>76.56</ele>
        <time>2021-07-31T18:28:13Z</time>
      </trkpt>
      <trkpt lat="47.99422" lon="-2.14142">
        <ele>77.04</ele>
        <time>2021-07-31T18:28:14Z</time>
      </trkpt>
      <trkpt lat="47.99406" lon="-2.14142">
        <ele>77.04</ele>
        <time>2021-07-31T18:28:15Z</time>
      </trkpt>
      <trkpt lat="47.99406" lon="-2.14142">
        <ele>77.52</ele>
        <time>2021-07-31T18:28:16Z</time>
      </trkpt>
      <trkpt lat="47.994" lon="-2.14145">
        <ele>77.52</ele>
        <time>2021-07-31T18:28:17Z</time>
      </trkpt>
      <trkpt lat="47.99393" lon="-2.14148">
        <ele>78</ele>
        <time>2021-07-31T18:28:18Z</time>
      </trkpt>
      <trkpt lat="47.99325" lon="-2.14202">
        <ele>79.93</ele>
        <time>2021-07-31T18:28:29Z</time>
      </trkpt>
      <trkpt lat="47.99246" lon="-2.14276">
        <ele>81.85</ele>
        <time>2021-07-31T18:28:39Z</time>
      </trkpt>
      <trkpt lat="47.99126" lon="-2.14384">
        <ele>79.93</ele>
        <time>2021-07-31T18:28:48Z</time>
      </trkpt>
      <trkpt lat="47.9905" lon="-2.14434">
        <ele>81.37</ele>
        <time>2021-07-31T18:28:53Z</time>
      </trkpt>
      <trkpt lat="47.99035" lon="-2.14438">
        <ele>81.37</ele>
        <time>2021-07-31T18:28:54Z</time>
      </trkpt>
      <trkpt lat="47.98875" lon="-2.14422">
        <ele>79.93</ele>
        <time>2021-07-31T18:29:03Z</time>
      </trkpt>
      <trkpt lat="47.98765" lon="-2.14359">
        <ele>76.56</ele>
        <time>2021-07-31T18:29:11Z</time>
      </trkpt>
      <trkpt lat="47.98676" lon="-2.14312">
        <ele>74.16</ele>
        <time>2021-07-31T18:29:17Z</time>
      </trkpt>
      <trkpt lat="47.98551" lon="-2.14306">
        <ele>71.76</ele>
        <time>2021-07-31T18:29:25Z</time>
      </trkpt>
      <trkpt lat="47.98523" lon="-2.14307">
        <ele>70.79</ele>
        <time>2021-07-31T18:29:27Z</time>
      </trkpt>
      <trkpt lat="47.98509" lon="-2.14304">
        <ele>71.27</ele>
        <time>2021-07-31T18:29:28Z</time>
      </trkpt>
      <trkpt lat="47.98495" lon="-2.143">
        <ele>71.27</ele>
        <time>2021-07-31T18:29:29Z</time>
      </trkpt>
      <trkpt lat="47.98334" lon="-2.14205">
        <ele>68.39</ele>
        <time>2021-07-31T18:29:42Z</time>
      </trkpt>
      <trkpt lat="47.98282" lon="-2.14174">
        <ele>68.87</ele>
        <time>2021-07-31T18:29:51Z</time>
      </trkpt>
      <trkpt lat="47.9827" lon="-2.14167">
        <ele>68.87</ele>
        <time>2021-07-31T18:29:59Z</time>
      </trkpt>
      <trkpt lat="47.9827" lon="-2.14167">
        <ele>69.35</ele>
        <time>2021-07-31T18:30:11Z</time>
      </trkpt>
      <trkpt lat="47.98268" lon="-2.14166">
        <ele>69.35</ele>
        <time>2021-07-31T18:30:12Z</time>
      </trkpt>
      <trkpt lat="47.98263" lon="-2.14172">
        <ele>69.35</ele>
        <time>2021-07-31T18:30:13Z</time>
      </trkpt>
      <trkpt lat="47.98263" lon="-2.14172">
        <ele>69.35</ele>
        <time>2021-07-31T18:30:14Z</time>
      </trkpt>
      <trkpt lat="47.9826" lon="-2.14178">
        <ele>69.35</ele>
        <time>2021-07-31T18:30:15Z</time>
      </trkpt>
      <trkpt lat="47.9822" lon="-2.14271">
        <ele>72.24</ele>
        <time>2021-07-31T18:30:24Z</time>
      </trkpt>
      <trkpt lat="47.98148" lon="-2.14448">
        <ele>79.45</ele>
        <time>2021-07-31T18:30:35Z</time>
      </trkpt>
      <trkpt lat="47.98052" lon="-2.14679">
        <ele>88.1</ele>
        <time>2021-07-31T18:30:47Z</time>
      </trkpt>
      <trkpt lat="47.97899" lon="-2.1505">
        <ele>92.42</ele>
        <time>2021-07-31T18:31:04Z</time>
      </trkpt>
      <trkpt lat="47.97757" lon="-2.15397">
        <ele>88.58</ele>
        <time>2021-07-31T18:31:18Z</time>
      </trkpt>
      <trkpt lat="47.97662" lon="-2.1563">
        <ele>96.75</ele>
        <time>2021-07-31T18:31:28Z</time>
      </trkpt>
      <trkpt lat="47.97527" lon="-2.1596">
        <ele>96.27</ele>
        <time>2021-07-31T18:31:42Z</time>
      </trkpt>
      <trkpt lat="47.97403" lon="-2.16262">
        <ele>98.19</ele>
        <time>2021-07-31T18:31:56Z</time>
      </trkpt>
      <trkpt lat="47.97328" lon="-2.16445">
        <ele>105.88</ele>
        <time>2021-07-31T18:32:07Z</time>
      </trkpt>
      <trkpt lat="47.97262" lon="-2.16604">
        <ele>110.69</ele>
        <time>2021-07-31T18:32:18Z</time>
      </trkpt>
      <trkpt lat="47.97223" lon="-2.16702">
        <ele>114.53</ele>
        <time>2021-07-31T18:32:28Z</time>
      </trkpt>
      <trkpt lat="47.97199" lon="-2.16761">
        <ele>117.42</ele>
        <time>2021-07-31T18:32:36Z</time>
      </trkpt>
      <trkpt lat="47.97156" lon="-2.16868">
        <ele>121.74</ele>
        <time>2021-07-31T18:32:46Z</time>
      </trkpt>
      <trkpt lat="47.97084" lon="-2.17066">
        <ele>125.59</ele>
        <time>2021-07-31T18:33:02Z</time>
      </trkpt>
      <trkpt lat="47.97064" lon="-2.17151">
        <ele>124.63</ele>
        <time>2021-07-31T18:33:10Z</time>
      </trkpt>
      <trkpt lat="47.9705" lon="-2.17264">
        <ele>122.22</ele>
        <time>2021-07-31T18:33:23Z</time>
      </trkpt>
      <trkpt lat="47.9704" lon="-2.17402">
        <ele>113.09</ele>
        <time>2021-07-31T18:33:33Z</time>
      </trkpt>
      <trkpt lat="47.97029" lon="-2.17651">
        <ele>105.4</ele>
        <time>2021-07-31T18:33:47Z</time>
      </trkpt>
      <trkpt lat="47.97" lon="-2.17832">
        <ele>100.11</ele>
        <time>2021-07-31T18:33:56Z</time>
      </trkpt>
      <trkpt lat="47.96937" lon="-2.18123">
        <ele>109.25</ele>
        <time>2021-07-31T18:34:08Z</time>
      </trkpt>
      <trkpt lat="47.96881" lon="-2.18395">
        <ele>103.48</ele>
        <time>2021-07-31T18:34:19Z</time>
      </trkpt>
      <trkpt lat="47.96818" lon="-2.18694">
        <ele>92.42</ele>
        <time>2021-07-31T18:34:29Z</time>
      </trkpt>
      <trkpt lat="47.96757" lon="-2.19044">
        <ele>92.9</ele>
        <time>2021-07-31T18:34:39Z</time>
      </trkpt>
      <trkpt lat="47.96721" lon="-2.19537">
        <ele>99.15</ele>
        <time>2021-07-31T18:34:54Z</time>
      </trkpt>
      <trkpt lat="47.96695" lon="-2.19908">
        <ele>101.08</ele>
        <time>2021-07-31T18:35:05Z</time>
      </trkpt>
      <trkpt lat="47.96672" lon="-2.20243">
        <ele>103.96</ele>
        <time>2021-07-31T18:35:16Z</time>
      </trkpt>
      <trkpt lat="47.96647" lon="-2.20598">
        <ele>111.65</ele>
        <time>2021-07-31T18:35:27Z</time>
      </trkpt>
      <trkpt lat="47.96608" lon="-2.20894">
        <ele>107.81</ele>
        <time>2021-07-31T18:35:38Z</time>
      </trkpt>
      <trkpt lat="47.96547" lon="-2.21254">
        <ele>100.11</ele>
        <time>2021-07-31T18:35:48Z</time>
      </trkpt>
      <trkpt lat="47.96491" lon="-2.21554">
        <ele>102.52</ele>
        <time>2021-07-31T18:35:59Z</time>
      </trkpt>
      <trkpt lat="47.96408" lon="-2.21785">
        <ele>111.17</ele>
        <time>2021-07-31T18:36:08Z</time>
      </trkpt>
      <trkpt lat="47.96337" lon="-2.2201">
        <ele>117.42</ele>
        <time>2021-07-31T18:36:17Z</time>
      </trkpt>
      <trkpt lat="47.96247" lon="-2.22325">
        <ele>127.51</ele>
        <time>2021-07-31T18:36:29Z</time>
      </trkpt>
      <trkpt lat="47.96228" lon="-2.22433">
        <ele>127.99</ele>
        <time>2021-07-31T18:36:32Z</time>
      </trkpt>
      <trkpt lat="47.96228" lon="-2.22433">
        <ele>128.47</ele>
        <time>2021-07-31T18:36:33Z</time>
      </trkpt>
      <trkpt lat="47.96207" lon="-2.22859">
        <ele>139.05</ele>
        <time>2021-07-31T18:36:48Z</time>
      </trkpt>
      <trkpt lat="47.96198" lon="-2.22913">
        <ele>140.97</ele>
        <time>2021-07-31T18:36:50Z</time>
      </trkpt>
      <trkpt lat="47.96194" lon="-2.2294">
        <ele>141.93</ele>
        <time>2021-07-31T18:36:51Z</time>
      </trkpt>
      <trkpt lat="47.96157" lon="-2.23064">
        <ele>145.3</ele>
        <time>2021-07-31T18:36:56Z</time>
      </trkpt>
      <trkpt lat="47.96148" lon="-2.23087">
        <ele>145.78</ele>
        <time>2021-07-31T18:36:57Z</time>
      </trkpt>
      <trkpt lat="47.96138" lon="-2.23107">
        <ele>146.26</ele>
        <time>2021-07-31T18:36:58Z</time>
      </trkpt>
      <trkpt lat="47.96127" lon="-2.23126">
        <ele>146.74</ele>
        <time>2021-07-31T18:36:59Z</time>
      </trkpt>
      <trkpt lat="47.96115" lon="-2.23145">
        <ele>147.7</ele>
        <time>2021-07-31T18:37:00Z</time>
      </trkpt>
      <trkpt lat="47.96007" lon="-2.23332">
        <ele>152.51</ele>
        <time>2021-07-31T18:37:09Z</time>
      </trkpt>
      <trkpt lat="47.95969" lon="-2.23505">
        <ele>151.06</ele>
        <time>2021-07-31T18:37:15Z</time>
      </trkpt>
      <trkpt lat="47.95968" lon="-2.23568">
        <ele>148.66</ele>
        <time>2021-07-31T18:37:17Z</time>
      </trkpt>
      <trkpt lat="47.9597" lon="-2.236">
        <ele>147.7</ele>
        <time>2021-07-31T18:37:18Z</time>
      </trkpt>
      <trkpt lat="47.95972" lon="-2.23635">
        <ele>146.74</ele>
        <time>2021-07-31T18:37:19Z</time>
      </trkpt>
      <trkpt lat="47.95979" lon="-2.23668">
        <ele>145.3</ele>
        <time>2021-07-31T18:37:20Z</time>
      </trkpt>
      <trkpt lat="47.95987" lon="-2.23701">
        <ele>143.37</ele>
        <time>2021-07-31T18:37:21Z</time>
      </trkpt>
      <trkpt lat="47.95995" lon="-2.23732">
        <ele>141.45</ele>
        <time>2021-07-31T18:37:22Z</time>
      </trkpt>
      <trkpt lat="47.96005" lon="-2.23763">
        <ele>140.49</ele>
        <time>2021-07-31T18:37:23Z</time>
      </trkpt>
      <trkpt lat="47.96154" lon="-2.24129">
        <ele>130.88</ele>
        <time>2021-07-31T18:37:35Z</time>
      </trkpt>
      <trkpt lat="47.96239" lon="-2.24345">
        <ele>124.15</ele>
        <time>2021-07-31T18:37:43Z</time>
      </trkpt>
      <trkpt lat="47.96246" lon="-2.24371">
        <ele>123.19</ele>
        <time>2021-07-31T18:37:44Z</time>
      </trkpt>
      <trkpt lat="47.9625" lon="-2.24398">
        <ele>121.74</ele>
        <time>2021-07-31T18:37:45Z</time>
      </trkpt>
      <trkpt lat="47.96251" lon="-2.24425">
        <ele>120.78</ele>
        <time>2021-07-31T18:37:46Z</time>
      </trkpt>
      <trkpt lat="47.96253" lon="-2.24453">
        <ele>119.82</ele>
        <time>2021-07-31T18:37:47Z</time>
      </trkpt>
      <trkpt lat="47.96248" lon="-2.24762">
        <ele>109.25</ele>
        <time>2021-07-31T18:37:57Z</time>
      </trkpt>
      <trkpt lat="47.96231" lon="-2.25315">
        <ele>107.32</ele>
        <time>2021-07-31T18:38:15Z</time>
      </trkpt>
      <trkpt lat="47.96213" lon="-2.25862">
        <ele>98.67</ele>
        <time>2021-07-31T18:38:33Z</time>
      </trkpt>
      <trkpt lat="47.96196" lon="-2.26548">
        <ele>90.02</ele>
        <time>2021-07-31T18:38:55Z</time>
      </trkpt>
      <trkpt lat="47.96206" lon="-2.26933">
        <ele>97.71</ele>
        <time>2021-07-31T18:39:10Z</time>
      </trkpt>
      <trkpt lat="47.96215" lon="-2.27314">
        <ele>84.73</ele>
        <time>2021-07-31T18:39:23Z</time>
      </trkpt>
      <trkpt lat="47.96208" lon="-2.2757">
        <ele>88.1</ele>
        <time>2021-07-31T18:39:33Z</time>
      </trkpt>
      <trkpt lat="47.96181" lon="-2.27885">
        <ele>90.02</ele>
        <time>2021-07-31T18:39:46Z</time>
      </trkpt>
      <trkpt lat="47.96143" lon="-2.28298">
        <ele>77.04</ele>
        <time>2021-07-31T18:40:00Z</time>
      </trkpt>
      <trkpt lat="47.9611" lon="-2.28419">
        <ele>83.29</ele>
        <time>2021-07-31T18:40:06Z</time>
      </trkpt>
      <trkpt lat="47.95997" lon="-2.28678">
        <ele>78.97</ele>
        <time>2021-07-31T18:40:20Z</time>
      </trkpt>
      <trkpt lat="47.95897" lon="-2.28904">
        <ele>77.52</ele>
        <time>2021-07-31T18:40:33Z</time>
      </trkpt>
      <trkpt lat="47.95773" lon="-2.29185">
        <ele>81.37</ele>
        <time>2021-07-31T18:40:48Z</time>
      </trkpt>
      <trkpt lat="47.95742" lon="-2.29271">
        <ele>83.77</ele>
        <time>2021-07-31T18:40:56Z</time>
      </trkpt>
      <trkpt lat="47.95735" lon="-2.2929">
        <ele>84.25</ele>
        <time>2021-07-31T18:40:59Z</time>
      </trkpt>
      <trkpt lat="47.95718" lon="-2.29376">
        <ele>85.21</ele>
        <time>2021-07-31T18:41:09Z</time>
      </trkpt>
      <trkpt lat="47.95715" lon="-2.29405">
        <ele>84.73</ele>
        <time>2021-07-31T18:41:17Z</time>
      </trkpt>
      <trkpt lat="47.95714" lon="-2.29418">
        <ele>84.25</ele>
        <time>2021-07-31T18:41:19Z</time>
      </trkpt>
      <trkpt lat="47.95711" lon="-2.29425">
        <ele>84.25</ele>
        <time>2021-07-31T18:41:20Z</time>
      </trkpt>
      <trkpt lat="47.95709" lon="-2.29432">
        <ele>84.25</ele>
        <time>2021-07-31T18:41:21Z</time>
      </trkpt>
      <trkpt lat="47.95706" lon="-2.29441">
        <ele>83.77</ele>
        <time>2021-07-31T18:41:22Z</time>
      </trkpt>
      <trkpt lat="47.95702" lon="-2.29449">
        <ele>83.77</ele>
        <time>2021-07-31T18:41:23Z</time>
      </trkpt>
      <trkpt lat="47.95655" lon="-2.29581">
        <ele>81.37</ele>
        <time>2021-07-31T18:41:34Z</time>
      </trkpt>
      <trkpt lat="47.95592" lon="-2.2978">
        <ele>78</ele>
        <time>2021-07-31T18:41:45Z</time>
      </trkpt>
      <trkpt lat="47.95506" lon="-2.30032">
        <ele>74.16</ele>
        <time>2021-07-31T18:41:56Z</time>
      </trkpt>
      <trkpt lat="47.95496" lon="-2.30054">
        <ele>73.2</ele>
        <time>2021-07-31T18:41:57Z</time>
      </trkpt>
      <trkpt lat="47.95316" lon="-2.30329">
        <ele>75.12</ele>
        <time>2021-07-31T18:42:10Z</time>
      </trkpt>
      <trkpt lat="47.95069" lon="-2.30714">
        <ele>71.27</ele>
        <time>2021-07-31T18:42:27Z</time>
      </trkpt>
      <trkpt lat="47.95056" lon="-2.30739">
        <ele>71.27</ele>
        <time>2021-07-31T18:42:28Z</time>
      </trkpt>
      <trkpt lat="47.94957" lon="-2.31054">
        <ele>77.04</ele>
        <time>2021-07-31T18:42:39Z</time>
      </trkpt>
      <trkpt lat="47.94837" lon="-2.31448">
        <ele>99.63</ele>
        <time>2021-07-31T18:42:53Z</time>
      </trkpt>
      <trkpt lat="47.94802" lon="-2.31656">
        <ele>102.04</ele>
        <time>2021-07-31T18:43:01Z</time>
      </trkpt>
      <trkpt lat="47.94796" lon="-2.32032">
        <ele>101.08</ele>
        <time>2021-07-31T18:43:14Z</time>
      </trkpt>
      <trkpt lat="47.94738" lon="-2.32218">
        <ele>105.88</ele>
        <time>2021-07-31T18:43:21Z</time>
      </trkpt>
      <trkpt lat="47.94574" lon="-2.32686">
        <ele>102.04</ele>
        <time>2021-07-31T18:43:37Z</time>
      </trkpt>
      <trkpt lat="47.94451" lon="-2.33067">
        <ele>95.31</ele>
        <time>2021-07-31T18:43:51Z</time>
      </trkpt>
      <trkpt lat="47.94348" lon="-2.3355">
        <ele>93.39</ele>
        <time>2021-07-31T18:44:08Z</time>
      </trkpt>
      <trkpt lat="47.94242" lon="-2.34052">
        <ele>87.14</ele>
        <time>2021-07-31T18:44:26Z</time>
      </trkpt>
      <trkpt lat="47.94126" lon="-2.34525">
        <ele>87.14</ele>
        <time>2021-07-31T18:44:43Z</time>
      </trkpt>
      <trkpt lat="47.93986" lon="-2.35051">
        <ele>94.83</ele>
        <time>2021-07-31T18:45:03Z</time>
      </trkpt>
      <trkpt lat="47.93874" lon="-2.35475">
        <ele>85.21</ele>
        <time>2021-07-31T18:45:18Z</time>
      </trkpt>
      <trkpt lat="47.93805" lon="-2.35735">
        <ele>90.02</ele>
        <time>2021-07-31T18:45:28Z</time>
      </trkpt>
      <trkpt lat="47.93755" lon="-2.35929">
        <ele>94.35</ele>
        <time>2021-07-31T18:45:39Z</time>
      </trkpt>
      <trkpt lat="47.93701" lon="-2.36157">
        <ele>96.27</ele>
        <time>2021-07-31T18:45:54Z</time>
      </trkpt>
      <trkpt lat="47.93655" lon="-2.36382">
        <ele>96.75</ele>
        <time>2021-07-31T18:46:09Z</time>
      </trkpt>
      <trkpt lat="47.93608" lon="-2.36614">
        <ele>89.54</ele>
        <time>2021-07-31T18:46:20Z</time>
      </trkpt>
      <trkpt lat="47.93549" lon="-2.36907">
        <ele>97.23</ele>
        <time>2021-07-31T18:46:32Z</time>
      </trkpt>
      <trkpt lat="47.93473" lon="-2.37276">
        <ele>102.52</ele>
        <time>2021-07-31T18:46:47Z</time>
      </trkpt>
      <trkpt lat="47.9342" lon="-2.37537">
        <ele>103.96</ele>
        <time>2021-07-31T18:47:01Z</time>
      </trkpt>
      <trkpt lat="47.93337" lon="-2.37948">
        <ele>101.56</ele>
        <time>2021-07-31T18:47:21Z</time>
      </trkpt>
      <trkpt lat="47.93325" lon="-2.38022">
        <ele>101.56</ele>
        <time>2021-07-31T18:47:27Z</time>
      </trkpt>
      <trkpt lat="47.93323" lon="-2.38049">
        <ele>100.6</ele>
        <time>2021-07-31T18:47:35Z</time>
      </trkpt>
      <trkpt lat="47.93334" lon="-2.38072">
        <ele>100.6</ele>
        <time>2021-07-31T18:47:39Z</time>
      </trkpt>
      <trkpt lat="47.93336" lon="-2.38093">
        <ele>100.11</ele>
        <time>2021-07-31T18:47:40Z</time>
      </trkpt>
      <trkpt lat="47.93334" lon="-2.38104">
        <ele>100.11</ele>
        <time>2021-07-31T18:47:41Z</time>
      </trkpt>
      <trkpt lat="47.93334" lon="-2.38104">
        <ele>99.63</ele>
        <time>2021-07-31T18:47:42Z</time>
      </trkpt>
      <trkpt lat="47.93331" lon="-2.38115">
        <ele>99.15</ele>
        <time>2021-07-31T18:47:43Z</time>
      </trkpt>
      <trkpt lat="47.93325" lon="-2.3812">
        <ele>99.15</ele>
        <time>2021-07-31T18:47:44Z</time>
      </trkpt>
      <trkpt lat="47.93317" lon="-2.38125">
        <ele>99.15</ele>
        <time>2021-07-31T18:47:45Z</time>
      </trkpt>
      <trkpt lat="47.9331" lon="-2.3813">
        <ele>99.15</ele>
        <time>2021-07-31T18:47:46Z</time>
      </trkpt>
      <trkpt lat="47.93304" lon="-2.38132">
        <ele>98.67</ele>
        <time>2021-07-31T18:47:47Z</time>
      </trkpt>
      <trkpt lat="47.93296" lon="-2.38127">
        <ele>98.67</ele>
        <time>2021-07-31T18:47:48Z</time>
      </trkpt>
      <trkpt lat="47.9329" lon="-2.38122">
        <ele>98.67</ele>
        <time>2021-07-31T18:47:49Z</time>
      </trkpt>
      <trkpt lat="47.93286" lon="-2.38113">
        <ele>98.19</ele>
        <time>2021-07-31T18:47:50Z</time>
      </trkpt>
      <trkpt lat="47.93282" lon="-2.38102">
        <ele>98.19</ele>
        <time>2021-07-31T18:47:51Z</time>
      </trkpt>
      <trkpt lat="47.93269" lon="-2.38088">
        <ele>97.71</ele>
        <time>2021-07-31T18:47:52Z</time>
      </trkpt>
      <trkpt lat="47.93261" lon="-2.38088">
        <ele>97.23</ele>
        <time>2021-07-31T18:47:53Z</time>
      </trkpt>
      <trkpt lat="47.9325" lon="-2.38088">
        <ele>95.79</ele>
        <time>2021-07-31T18:47:54Z</time>
      </trkpt>
      <trkpt lat="47.93238" lon="-2.3809">
        <ele>94.35</ele>
        <time>2021-07-31T18:47:55Z</time>
      </trkpt>
      <trkpt lat="47.9312" lon="-2.38113">
        <ele>90.02</ele>
        <time>2021-07-31T18:48:04Z</time>
      </trkpt>
      <trkpt lat="47.92951" lon="-2.38204">
        <ele>82.81</ele>
        <time>2021-07-31T18:48:15Z</time>
      </trkpt>
      <trkpt lat="47.92889" lon="-2.38254">
        <ele>79.45</ele>
        <time>2021-07-31T18:48:20Z</time>
      </trkpt>
      <trkpt lat="47.92881" lon="-2.38263">
        <ele>79.93</ele>
        <time>2021-07-31T18:48:21Z</time>
      </trkpt>
      <trkpt lat="47.92876" lon="-2.38275">
        <ele>79.45</ele>
        <time>2021-07-31T18:48:22Z</time>
      </trkpt>
      <trkpt lat="47.92872" lon="-2.38288">
        <ele>79.45</ele>
        <time>2021-07-31T18:48:23Z</time>
      </trkpt>
      <trkpt lat="47.92867" lon="-2.38309">
        <ele>79.45</ele>
        <time>2021-07-31T18:48:24Z</time>
      </trkpt>
      <trkpt lat="47.92867" lon="-2.38309">
        <ele>79.45</ele>
        <time>2021-07-31T18:48:25Z</time>
      </trkpt>
      <trkpt lat="47.92863" lon="-2.38326">
        <ele>78.97</ele>
        <time>2021-07-31T18:48:26Z</time>
      </trkpt>
      <trkpt lat="47.92861" lon="-2.3833">
        <ele>78.97</ele>
        <time>2021-07-31T18:48:27Z</time>
      </trkpt>
      <trkpt lat="47.92861" lon="-2.3833">
        <ele>78.48</ele>
        <time>2021-07-31T18:48:28Z</time>
      </trkpt>
      <trkpt lat="47.92853" lon="-2.38334">
        <ele>78</ele>
        <time>2021-07-31T18:48:29Z</time>
      </trkpt>
      <trkpt lat="47.92848" lon="-2.38337">
        <ele>78</ele>
        <time>2021-07-31T18:48:30Z</time>
      </trkpt>
      <trkpt lat="47.92842" lon="-2.38332">
        <ele>77.52</ele>
        <time>2021-07-31T18:48:31Z</time>
      </trkpt>
      <trkpt lat="47.92835" lon="-2.38326">
        <ele>77.52</ele>
        <time>2021-07-31T18:48:32Z</time>
      </trkpt>
      <trkpt lat="47.92835" lon="-2.38326">
        <ele>76.56</ele>
        <time>2021-07-31T18:48:33Z</time>
      </trkpt>
      <trkpt lat="47.92815" lon="-2.38315">
        <ele>76.08</ele>
        <time>2021-07-31T18:48:34Z</time>
      </trkpt>
      <trkpt lat="47.92807" lon="-2.38319">
        <ele>75.6</ele>
        <time>2021-07-31T18:48:35Z</time>
      </trkpt>
      <trkpt lat="47.92798" lon="-2.38325">
        <ele>76.56</ele>
        <time>2021-07-31T18:48:36Z</time>
      </trkpt>
      <trkpt lat="47.9279" lon="-2.38331">
        <ele>76.56</ele>
        <time>2021-07-31T18:48:37Z</time>
      </trkpt>
      <trkpt lat="47.92681" lon="-2.38418">
        <ele>73.2</ele>
        <time>2021-07-31T18:48:46Z</time>
      </trkpt>
      <trkpt lat="47.92475" lon="-2.38561">
        <ele>66.95</ele>
        <time>2021-07-31T18:48:58Z</time>
      </trkpt>
      <trkpt lat="47.9232" lon="-2.38604">
        <ele>63.58</ele>
        <time>2021-07-31T18:49:07Z</time>
      </trkpt>
      <trkpt lat="47.92075" lon="-2.38647">
        <ele>58.3</ele>
        <time>2021-07-31T18:49:18Z</time>
      </trkpt>
      <trkpt lat="47.91968" lon="-2.38698">
        <ele>56.86</ele>
        <time>2021-07-31T18:49:26Z</time>
      </trkpt>
      <trkpt lat="47.91916" lon="-2.38719">
        <ele>59.26</ele>
        <time>2021-07-31T18:49:32Z</time>
      </trkpt>
      <trkpt lat="47.91905" lon="-2.38731">
        <ele>59.74</ele>
        <time>2021-07-31T18:49:40Z</time>
      </trkpt>
      <trkpt lat="47.9189" lon="-2.38746">
        <ele>60.22</ele>
        <time>2021-07-31T18:49:43Z</time>
      </trkpt>
      <trkpt lat="47.91885" lon="-2.38756">
        <ele>60.22</ele>
        <time>2021-07-31T18:49:44Z</time>
      </trkpt>
      <trkpt lat="47.9188" lon="-2.38768">
        <ele>60.7</ele>
        <time>2021-07-31T18:49:45Z</time>
      </trkpt>
      <trkpt lat="47.91873" lon="-2.38783">
        <ele>60.7</ele>
        <time>2021-07-31T18:49:46Z</time>
      </trkpt>
      <trkpt lat="47.91869" lon="-2.388">
        <ele>59.74</ele>
        <time>2021-07-31T18:49:47Z</time>
      </trkpt>
      <trkpt lat="47.91829" lon="-2.38987">
        <ele>53.97</ele>
        <time>2021-07-31T18:49:57Z</time>
      </trkpt>
      <trkpt lat="47.91813" lon="-2.3925">
        <ele>51.09</ele>
        <time>2021-07-31T18:50:09Z</time>
      </trkpt>
      <trkpt lat="47.91807" lon="-2.39589">
        <ele>49.16</ele>
        <time>2021-07-31T18:50:24Z</time>
      </trkpt>
      <trkpt lat="47.91816" lon="-2.39964">
        <ele>47.24</ele>
        <time>2021-07-31T18:50:40Z</time>
      </trkpt>
      <trkpt lat="47.91855" lon="-2.40243">
        <ele>46.28</ele>
        <time>2021-07-31T18:50:53Z</time>
      </trkpt>
      <trkpt lat="47.91919" lon="-2.40471">
        <ele>49.16</ele>
        <time>2021-07-31T18:51:06Z</time>
      </trkpt>
      <trkpt lat="47.91934" lon="-2.40507">
        <ele>51.09</ele>
        <time>2021-07-31T18:51:11Z</time>
      </trkpt>
      <trkpt lat="47.91938" lon="-2.40517">
        <ele>51.57</ele>
        <time>2021-07-31T18:51:12Z</time>
      </trkpt>
      <trkpt lat="47.91944" lon="-2.40523">
        <ele>52.05</ele>
        <time>2021-07-31T18:51:13Z</time>
      </trkpt>
      <trkpt lat="47.91951" lon="-2.4053">
        <ele>53.01</ele>
        <time>2021-07-31T18:51:14Z</time>
      </trkpt>
      <trkpt lat="47.9196" lon="-2.40531">
        <ele>53.49</ele>
        <time>2021-07-31T18:51:15Z</time>
      </trkpt>
      <trkpt lat="47.91968" lon="-2.40532">
        <ele>55.41</ele>
        <time>2021-07-31T18:51:16Z</time>
      </trkpt>
      <trkpt lat="47.91978" lon="-2.40525">
        <ele>55.41</ele>
        <time>2021-07-31T18:51:17Z</time>
      </trkpt>
      <trkpt lat="47.91985" lon="-2.40517">
        <ele>55.89</ele>
        <time>2021-07-31T18:51:18Z</time>
      </trkpt>
      <trkpt lat="47.91992" lon="-2.40506">
        <ele>56.37</ele>
        <time>2021-07-31T18:51:19Z</time>
      </trkpt>
      <trkpt lat="47.91994" lon="-2.40495">
        <ele>55.89</ele>
        <time>2021-07-31T18:51:20Z</time>
      </trkpt>
      <trkpt lat="47.91996" lon="-2.40483">
        <ele>55.41</ele>
        <time>2021-07-31T18:51:21Z</time>
      </trkpt>
      <trkpt lat="47.91994" lon="-2.40471">
        <ele>54.93</ele>
        <time>2021-07-31T18:51:22Z</time>
      </trkpt>
      <trkpt lat="47.91992" lon="-2.40459">
        <ele>55.41</ele>
        <time>2021-07-31T18:51:23Z</time>
      </trkpt>
      <trkpt lat="47.91988" lon="-2.40446">
        <ele>55.41</ele>
        <time>2021-07-31T18:51:24Z</time>
      </trkpt>
      <trkpt lat="47.91984" lon="-2.40433">
        <ele>54.93</ele>
        <time>2021-07-31T18:51:25Z</time>
      </trkpt>
      <trkpt lat="47.91977" lon="-2.40424">
        <ele>54.45</ele>
        <time>2021-07-31T18:51:26Z</time>
      </trkpt>
      <trkpt lat="47.91969" lon="-2.40415">
        <ele>54.45</ele>
        <time>2021-07-31T18:51:27Z</time>
      </trkpt>
      <trkpt lat="47.91961" lon="-2.4041">
        <ele>54.45</ele>
        <time>2021-07-31T18:51:28Z</time>
      </trkpt>
      <trkpt lat="47.91953" lon="-2.40408">
        <ele>53.97</ele>
        <time>2021-07-31T18:51:29Z</time>
      </trkpt>
      <trkpt lat="47.91944" lon="-2.40405">
        <ele>53.97</ele>
        <time>2021-07-31T18:51:30Z</time>
      </trkpt>
      <trkpt lat="47.91932" lon="-2.40401">
        <ele>53.97</ele>
        <time>2021-07-31T18:51:31Z</time>
      </trkpt>
      <trkpt lat="47.91824" lon="-2.40456">
        <ele>53.97</ele>
        <time>2021-07-31T18:51:40Z</time>
      </trkpt>
      <trkpt lat="47.91667" lon="-2.4053">
        <ele>49.16</ele>
        <time>2021-07-31T18:51:52Z</time>
      </trkpt>
      <trkpt lat="47.91527" lon="-2.406">
        <ele>46.76</ele>
        <time>2021-07-31T18:52:00Z</time>
      </trkpt>
      <trkpt lat="47.91165" lon="-2.40784">
        <ele>66.47</ele>
        <time>2021-07-31T18:52:18Z</time>
      </trkpt>
      <trkpt lat="47.90853" lon="-2.40911">
        <ele>76.56</ele>
        <time>2021-07-31T18:52:33Z</time>
      </trkpt>
      <trkpt lat="47.90414" lon="-2.41076">
        <ele>76.08</ele>
        <time>2021-07-31T18:52:52Z</time>
      </trkpt>
      <trkpt lat="47.89941" lon="-2.41248">
        <ele>59.74</ele>
        <time>2021-07-31T18:53:11Z</time>
      </trkpt>
      <trkpt lat="47.89614" lon="-2.41314">
        <ele>49.16</ele>
        <time>2021-07-31T18:53:24Z</time>
      </trkpt>
      <trkpt lat="47.89159" lon="-2.41397">
        <ele>36.67</ele>
        <time>2021-07-31T18:53:41Z</time>
      </trkpt>
      <trkpt lat="47.88772" lon="-2.41503">
        <ele>47.72</ele>
        <time>2021-07-31T18:53:58Z</time>
      </trkpt>
      <trkpt lat="47.8833" lon="-2.41605">
        <ele>48.68</ele>
        <time>2021-07-31T18:54:16Z</time>
      </trkpt>
      <trkpt lat="47.87854" lon="-2.41716">
        <ele>42.92</ele>
        <time>2021-07-31T18:54:35Z</time>
      </trkpt>
      <trkpt lat="47.87356" lon="-2.41844">
        <ele>53.01</ele>
        <time>2021-07-31T18:54:55Z</time>
      </trkpt>
      <trkpt lat="47.8711" lon="-2.41855">
        <ele>64.55</ele>
        <time>2021-07-31T18:55:07Z</time>
      </trkpt>
      <trkpt lat="47.86864" lon="-2.41797">
        <ele>71.76</ele>
        <time>2021-07-31T18:55:18Z</time>
      </trkpt>
      <trkpt lat="47.86557" lon="-2.41719">
        <ele>73.2</ele>
        <time>2021-07-31T18:55:31Z</time>
      </trkpt>
      <trkpt lat="47.86247" lon="-2.41708">
        <ele>72.72</ele>
        <time>2021-07-31T18:55:44Z</time>
      </trkpt>
      <trkpt lat="47.85797" lon="-2.41752">
        <ele>69.83</ele>
        <time>2021-07-31T18:56:02Z</time>
      </trkpt>
      <trkpt lat="47.85467" lon="-2.41831">
        <ele>67.43</ele>
        <time>2021-07-31T18:56:14Z</time>
      </trkpt>
      <trkpt lat="47.85193" lon="-2.41967">
        <ele>62.14</ele>
        <time>2021-07-31T18:56:26Z</time>
      </trkpt>
      <trkpt lat="47.84415" lon="-2.42397">
        <ele>33.78</ele>
        <time>2021-07-31T18:56:58Z</time>
      </trkpt>
      <trkpt lat="47.8385" lon="-2.42711">
        <ele>29.46</ele>
        <time>2021-07-31T18:57:22Z</time>
      </trkpt>
      <trkpt lat="47.83083" lon="-2.43134">
        <ele>29.94</ele>
        <time>2021-07-31T18:57:55Z</time>
      </trkpt>
      <trkpt lat="47.82656" lon="-2.43345">
        <ele>45.32</ele>
        <time>2021-07-31T18:58:14Z</time>
      </trkpt>
      <trkpt lat="47.82428" lon="-2.43374">
        <ele>57.82</ele>
        <time>2021-07-31T18:58:24Z</time>
      </trkpt>
      <trkpt lat="47.82115" lon="-2.43424">
        <ele>73.2</ele>
        <time>2021-07-31T18:58:38Z</time>
      </trkpt>
      <trkpt lat="47.8193" lon="-2.43531">
        <ele>83.29</ele>
        <time>2021-07-31T18:58:47Z</time>
      </trkpt>
      <trkpt lat="47.81532" lon="-2.4389">
        <ele>103.96</ele>
        <time>2021-07-31T18:59:07Z</time>
      </trkpt>
      <trkpt lat="47.81282" lon="-2.44116">
        <ele>104.44</ele>
        <time>2021-07-31T18:59:20Z</time>
      </trkpt>
      <trkpt lat="47.8107" lon="-2.4427">
        <ele>94.83</ele>
        <time>2021-07-31T18:59:29Z</time>
      </trkpt>
      <trkpt lat="47.80834" lon="-2.44341">
        <ele>83.29</ele>
        <time>2021-07-31T18:59:37Z</time>
      </trkpt>
      <trkpt lat="47.80412" lon="-2.4442">
        <ele>67.91</ele>
        <time>2021-07-31T18:59:54Z</time>
      </trkpt>
      <trkpt lat="47.80221" lon="-2.44535">
        <ele>64.55</ele>
        <time>2021-07-31T19:00:02Z</time>
      </trkpt>
      <trkpt lat="47.79862" lon="-2.44842">
        <ele>58.78</ele>
        <time>2021-07-31T19:00:19Z</time>
      </trkpt>
      <trkpt lat="47.79495" lon="-2.45152">
        <ele>40.03</ele>
        <time>2021-07-31T19:00:36Z</time>
      </trkpt>
      <trkpt lat="47.79226" lon="-2.45324">
        <ele>30.42</ele>
        <time>2021-07-31T19:00:48Z</time>
      </trkpt>
      <trkpt lat="47.78866" lon="-2.45474">
        <ele>34.26</ele>
        <time>2021-07-31T19:01:04Z</time>
      </trkpt>
      <trkpt lat="47.78444" lon="-2.45646">
        <ele>57.34</ele>
        <time>2021-07-31T19:01:24Z</time>
      </trkpt>
      <trkpt lat="47.78162" lon="-2.45826">
        <ele>66.95</ele>
        <time>2021-07-31T19:01:38Z</time>
      </trkpt>
      <trkpt lat="47.77941" lon="-2.46034">
        <ele>74.64</ele>
        <time>2021-07-31T19:01:49Z</time>
      </trkpt>
      <trkpt lat="47.77737" lon="-2.46302">
        <ele>82.81</ele>
        <time>2021-07-31T19:02:00Z</time>
      </trkpt>
      <trkpt lat="47.77553" lon="-2.46621">
        <ele>88.58</ele>
        <time>2021-07-31T19:02:12Z</time>
      </trkpt>
      <trkpt lat="47.77408" lon="-2.46984">
        <ele>89.54</ele>
        <time>2021-07-31T19:02:24Z</time>
      </trkpt>
      <trkpt lat="47.77241" lon="-2.47546">
        <ele>88.58</ele>
        <time>2021-07-31T19:02:41Z</time>
      </trkpt>
      <trkpt lat="47.77064" lon="-2.48132">
        <ele>91.46</ele>
        <time>2021-07-31T19:02:59Z</time>
      </trkpt>
      <trkpt lat="47.76897" lon="-2.48571">
        <ele>90.5</ele>
        <time>2021-07-31T19:03:13Z</time>
      </trkpt>
      <trkpt lat="47.7675" lon="-2.49055">
        <ele>88.1</ele>
        <time>2021-07-31T19:03:28Z</time>
      </trkpt>
      <trkpt lat="47.76707" lon="-2.49429">
        <ele>88.1</ele>
        <time>2021-07-31T19:03:39Z</time>
      </trkpt>
      <trkpt lat="47.76644" lon="-2.49888">
        <ele>87.62</ele>
        <time>2021-07-31T19:03:52Z</time>
      </trkpt>
      <trkpt lat="47.76481" lon="-2.50737">
        <ele>90.02</ele>
        <time>2021-07-31T19:04:15Z</time>
      </trkpt>
      <trkpt lat="47.76348" lon="-2.51424">
        <ele>96.27</ele>
        <time>2021-07-31T19:04:36Z</time>
      </trkpt>
      <trkpt lat="47.76248" lon="-2.51976">
        <ele>100.6</ele>
        <time>2021-07-31T19:04:52Z</time>
      </trkpt>
      <trkpt lat="47.76172" lon="-2.52575">
        <ele>101.08</ele>
        <time>2021-07-31T19:05:09Z</time>
      </trkpt>
      <trkpt lat="47.76064" lon="-2.53538">
        <ele>96.27</ele>
        <time>2021-07-31T19:05:36Z</time>
      </trkpt>
      <trkpt lat="47.75976" lon="-2.5393">
        <ele>92.9</ele>
        <time>2021-07-31T19:05:46Z</time>
      </trkpt>
      <trkpt lat="47.75865" lon="-2.54228">
        <ele>91.94</ele>
        <time>2021-07-31T19:05:56Z</time>
      </trkpt>
      <trkpt lat="47.75701" lon="-2.54525">
        <ele>91.94</ele>
        <time>2021-07-31T19:06:06Z</time>
      </trkpt>
      <trkpt lat="47.75381" lon="-2.54973">
        <ele>87.14</ele>
        <time>2021-07-31T19:06:23Z</time>
      </trkpt>
      <trkpt lat="47.75207" lon="-2.55257">
        <ele>84.25</ele>
        <time>2021-07-31T19:06:33Z</time>
      </trkpt>
      <trkpt lat="47.75061" lon="-2.55621">
        <ele>73.68</ele>
        <time>2021-07-31T19:06:43Z</time>
      </trkpt>
      <trkpt lat="47.74901" lon="-2.56143">
        <ele>55.41</ele>
        <time>2021-07-31T19:06:59Z</time>
      </trkpt>
      <trkpt lat="47.74764" lon="-2.56646">
        <ele>42.92</ele>
        <time>2021-07-31T19:07:15Z</time>
      </trkpt>
      <trkpt lat="47.74657" lon="-2.56939">
        <ele>41.47</ele>
        <time>2021-07-31T19:07:24Z</time>
      </trkpt>
      <trkpt lat="47.74504" lon="-2.57227">
        <ele>48.2</ele>
        <time>2021-07-31T19:07:34Z</time>
      </trkpt>
      <trkpt lat="47.74324" lon="-2.57456">
        <ele>53.97</ele>
        <time>2021-07-31T19:07:44Z</time>
      </trkpt>
      <trkpt lat="47.74126" lon="-2.57621">
        <ele>56.37</ele>
        <time>2021-07-31T19:07:54Z</time>
      </trkpt>
      <trkpt lat="47.73884" lon="-2.57767">
        <ele>61.18</ele>
        <time>2021-07-31T19:08:06Z</time>
      </trkpt>
      <trkpt lat="47.73529" lon="-2.57976">
        <ele>69.35</ele>
        <time>2021-07-31T19:08:22Z</time>
      </trkpt>
      <trkpt lat="47.73043" lon="-2.58266">
        <ele>85.21</ele>
        <time>2021-07-31T19:08:45Z</time>
      </trkpt>
      <trkpt lat="47.72819" lon="-2.58443">
        <ele>93.87</ele>
        <time>2021-07-31T19:08:56Z</time>
      </trkpt>
      <trkpt lat="47.7264" lon="-2.58666">
        <ele>102.04</ele>
        <time>2021-07-31T19:09:06Z</time>
      </trkpt>
      <trkpt lat="47.72478" lon="-2.58971">
        <ele>108.77</ele>
        <time>2021-07-31T19:09:17Z</time>
      </trkpt>
      <trkpt lat="47.72179" lon="-2.59615">
        <ele>122.71</ele>
        <time>2021-07-31T19:09:39Z</time>
      </trkpt>
      <trkpt lat="47.71861" lon="-2.603">
        <ele>130.4</ele>
        <time>2021-07-31T19:10:02Z</time>
      </trkpt>
      <trkpt lat="47.71651" lon="-2.60707">
        <ele>132.8</ele>
        <time>2021-07-31T19:10:16Z</time>
      </trkpt>
      <trkpt lat="47.71438" lon="-2.60985">
        <ele>132.32</ele>
        <time>2021-07-31T19:10:27Z</time>
      </trkpt>
      <trkpt lat="47.70951" lon="-2.61544">
        <ele>126.55</ele>
        <time>2021-07-31T19:10:51Z</time>
      </trkpt>
      <trkpt lat="47.7072" lon="-2.61738">
        <ele>120.3</ele>
        <time>2021-07-31T19:11:00Z</time>
      </trkpt>
      <trkpt lat="47.70518" lon="-2.61838">
        <ele>115.5</ele>
        <time>2021-07-31T19:11:09Z</time>
      </trkpt>
      <trkpt lat="47.702" lon="-2.61977">
        <ele>98.67</ele>
        <time>2021-07-31T19:11:21Z</time>
      </trkpt>
      <trkpt lat="47.70042" lon="-2.62123">
        <ele>95.79</ele>
        <time>2021-07-31T19:11:28Z</time>
      </trkpt>
      <trkpt lat="47.69902" lon="-2.62331">
        <ele>99.15</ele>
        <time>2021-07-31T19:11:36Z</time>
      </trkpt>
      <trkpt lat="47.69802" lon="-2.62578">
        <ele>104.92</ele>
        <time>2021-07-31T19:11:44Z</time>
      </trkpt>
      <trkpt lat="47.69654" lon="-2.63018">
        <ele>119.82</ele>
        <time>2021-07-31T19:11:59Z</time>
      </trkpt>
      <trkpt lat="47.69514" lon="-2.63309">
        <ele>124.63</ele>
        <time>2021-07-31T19:12:11Z</time>
      </trkpt>
      <trkpt lat="47.69263" lon="-2.63766">
        <ele>123.19</ele>
        <time>2021-07-31T19:12:30Z</time>
      </trkpt>
      <trkpt lat="47.69084" lon="-2.6406">
        <ele>118.86</ele>
        <time>2021-07-31T19:12:41Z</time>
      </trkpt>
      <trkpt lat="47.68821" lon="-2.6439">
        <ele>121.26</ele>
        <time>2021-07-31T19:12:54Z</time>
      </trkpt>
      <trkpt lat="47.68478" lon="-2.64737">
        <ele>111.17</ele>
        <time>2021-07-31T19:13:10Z</time>
      </trkpt>
      <trkpt lat="47.68062" lon="-2.65169">
        <ele>97.23</ele>
        <time>2021-07-31T19:13:29Z</time>
      </trkpt>
      <trkpt lat="47.67915" lon="-2.65393">
        <ele>86.66</ele>
        <time>2021-07-31T19:13:38Z</time>
      </trkpt>
      <trkpt lat="47.67785" lon="-2.65693">
        <ele>74.16</ele>
        <time>2021-07-31T19:13:47Z</time>
      </trkpt>
      <trkpt lat="47.67702" lon="-2.66016">
        <ele>65.51</ele>
        <time>2021-07-31T19:13:56Z</time>
      </trkpt>
      <trkpt lat="47.67657" lon="-2.664">
        <ele>55.89</ele>
        <time>2021-07-31T19:14:06Z</time>
      </trkpt>
      <trkpt lat="47.67586" lon="-2.67013">
        <ele>43.4</ele>
        <time>2021-07-31T19:14:22Z</time>
      </trkpt>
      <trkpt lat="47.67442" lon="-2.6758">
        <ele>32.34</ele>
        <time>2021-07-31T19:14:38Z</time>
      </trkpt>
      <trkpt lat="47.67314" lon="-2.68124">
        <ele>29.46</ele>
        <time>2021-07-31T19:14:54Z</time>
      </trkpt>
      <trkpt lat="47.67261" lon="-2.68545">
        <ele>30.42</ele>
        <time>2021-07-31T19:15:06Z</time>
      </trkpt>
      <trkpt lat="47.6722" lon="-2.69216">
        <ele>38.11</ele>
        <time>2021-07-31T19:15:25Z</time>
      </trkpt>
      <trkpt lat="47.67189" lon="-2.69957">
        <ele>44.84</ele>
        <time>2021-07-31T19:15:46Z</time>
      </trkpt>
      <trkpt lat="47.67218" lon="-2.70401">
        <ele>41.47</ele>
        <time>2021-07-31T19:15:58Z</time>
      </trkpt>
      <trkpt lat="47.67307" lon="-2.71052">
        <ele>32.82</ele>
        <time>2021-07-31T19:16:16Z</time>
      </trkpt>
      <trkpt lat="47.67341" lon="-2.71389">
        <ele>27.53</ele>
        <time>2021-07-31T19:16:26Z</time>
      </trkpt>
      <trkpt lat="47.67334" lon="-2.71673">
        <ele>27.05</ele>
        <time>2021-07-31T19:16:37Z</time>
      </trkpt>
      <trkpt lat="47.67325" lon="-2.71847">
        <ele>22.25</ele>
        <time>2021-07-31T19:16:45Z</time>
      </trkpt>
      <trkpt lat="47.67321" lon="-2.71863">
        <ele>22.25</ele>
        <time>2021-07-31T19:16:46Z</time>
      </trkpt>
      <trkpt lat="47.67317" lon="-2.71878">
        <ele>21.29</ele>
        <time>2021-07-31T19:16:47Z</time>
      </trkpt>
      <trkpt lat="47.67307" lon="-2.7191">
        <ele>20.32</ele>
        <time>2021-07-31T19:16:48Z</time>
      </trkpt>
      <trkpt lat="47.67307" lon="-2.7191">
        <ele>19.84</ele>
        <time>2021-07-31T19:16:49Z</time>
      </trkpt>
      <trkpt lat="47.67299" lon="-2.71926">
        <ele>20.32</ele>
        <time>2021-07-31T19:16:50Z</time>
      </trkpt>
      <trkpt lat="47.67282" lon="-2.71955">
        <ele>21.29</ele>
        <time>2021-07-31T19:16:51Z</time>
      </trkpt>
      <trkpt lat="47.67169" lon="-2.72161">
        <ele>18.88</ele>
        <time>2021-07-31T19:17:05Z</time>
      </trkpt>
      <trkpt lat="47.67115" lon="-2.72262">
        <ele>18.4</ele>
        <time>2021-07-31T19:17:14Z</time>
      </trkpt>
      <trkpt lat="47.67093" lon="-2.72302">
        <ele>17.44</ele>
        <time>2021-07-31T19:17:22Z</time>
      </trkpt>
      <trkpt lat="47.67079" lon="-2.72328">
        <ele>16.96</ele>
        <time>2021-07-31T19:17:30Z</time>
      </trkpt>
      <trkpt lat="47.67078" lon="-2.72336">
        <ele>16.96</ele>
        <time>2021-07-31T19:17:31Z</time>
      </trkpt>
      <trkpt lat="47.67077" lon="-2.72344">
        <ele>16.96</ele>
        <time>2021-07-31T19:17:32Z</time>
      </trkpt>
      <trkpt lat="47.67075" lon="-2.72353">
        <ele>16.48</ele>
        <time>2021-07-31T19:17:33Z</time>
      </trkpt>
      <trkpt lat="47.67075" lon="-2.72375">
        <ele>16.48</ele>
        <time>2021-07-31T19:17:34Z</time>
      </trkpt>
      <trkpt lat="47.67076" lon="-2.72398">
        <ele>16.48</ele>
        <time>2021-07-31T19:17:36Z</time>
      </trkpt>
      <trkpt lat="47.67076" lon="-2.7241">
        <ele>16.96</ele>
        <time>2021-07-31T19:17:38Z</time>
      </trkpt>
      <trkpt lat="47.67078" lon="-2.7242">
        <ele>16.96</ele>
        <time>2021-07-31T19:17:39Z</time>
      </trkpt>
      <trkpt lat="47.67081" lon="-2.72429">
        <ele>16.96</ele>
        <time>2021-07-31T19:17:40Z</time>
      </trkpt>
      <trkpt lat="47.67086" lon="-2.72439">
        <ele>16.48</ele>
        <time>2021-07-31T19:17:41Z</time>
      </trkpt>
      <trkpt lat="47.67092" lon="-2.72451">
        <ele>16.48</ele>
        <time>2021-07-31T19:17:42Z</time>
      </trkpt>
      <trkpt lat="47.67155" lon="-2.72585">
        <ele>14.08</ele>
        <time>2021-07-31T19:17:50Z</time>
      </trkpt>
      <trkpt lat="47.67229" lon="-2.72823">
        <ele>15.52</ele>
        <time>2021-07-31T19:18:00Z</time>
      </trkpt>
      <trkpt lat="47.67321" lon="-2.73036">
        <ele>23.21</ele>
        <time>2021-07-31T19:18:09Z</time>
      </trkpt>
      <trkpt lat="47.67453" lon="-2.7321">
        <ele>24.17</ele>
        <time>2021-07-31T19:18:18Z</time>
      </trkpt>
      <trkpt lat="47.67682" lon="-2.73449">
        <ele>20.81</ele>
        <time>2021-07-31T19:18:32Z</time>
      </trkpt>
      <trkpt lat="47.67779" lon="-2.73617">
        <ele>18.4</ele>
        <time>2021-07-31T19:18:40Z</time>
      </trkpt>
      <trkpt lat="47.67825" lon="-2.73777">
        <ele>16.96</ele>
        <time>2021-07-31T19:18:47Z</time>
      </trkpt>
      <trkpt lat="47.67857" lon="-2.73906">
        <ele>16</ele>
        <time>2021-07-31T19:18:57Z</time>
      </trkpt>
      <trkpt lat="47.67882" lon="-2.7398">
        <ele>14.56</ele>
        <time>2021-07-31T19:19:07Z</time>
      </trkpt>
      <trkpt lat="47.67884" lon="-2.73982">
        <ele>14.56</ele>
        <time>2021-07-31T19:19:10Z</time>
      </trkpt>
      <trkpt lat="47.67887" lon="-2.73985">
        <ele>14.56</ele>
        <time>2021-07-31T19:19:11Z</time>
      </trkpt>
      <trkpt lat="47.67903" lon="-2.73995">
        <ele>15.04</ele>
        <time>2021-07-31T19:19:14Z</time>
      </trkpt>
      <trkpt lat="47.67909" lon="-2.73998">
        <ele>15.04</ele>
        <time>2021-07-31T19:19:15Z</time>
      </trkpt>
      <trkpt lat="47.67915" lon="-2.74004">
        <ele>15.52</ele>
        <time>2021-07-31T19:19:16Z</time>
      </trkpt>
      <trkpt lat="47.67918" lon="-2.74014">
        <ele>15.52</ele>
        <time>2021-07-31T19:19:17Z</time>
      </trkpt>
      <trkpt lat="47.67921" lon="-2.74023">
        <ele>15.52</ele>
        <time>2021-07-31T19:19:18Z</time>
      </trkpt>
      <trkpt lat="47.67923" lon="-2.74033">
        <ele>15.52</ele>
        <time>2021-07-31T19:19:19Z</time>
      </trkpt>
      <trkpt lat="47.67923" lon="-2.74045">
        <ele>16</ele>
        <time>2021-07-31T19:19:20Z</time>
      </trkpt>
      <trkpt lat="47.67923" lon="-2.74058">
        <ele>15.52</ele>
        <time>2021-07-31T19:19:21Z</time>
      </trkpt>
      <trkpt lat="47.67917" lon="-2.74068">
        <ele>15.52</ele>
        <time>2021-07-31T19:19:22Z</time>
      </trkpt>
      <trkpt lat="47.67909" lon="-2.74092">
        <ele>15.52</ele>
        <time>2021-07-31T19:19:23Z</time>
      </trkpt>
      <trkpt lat="47.67907" lon="-2.74106">
        <ele>15.52</ele>
        <time>2021-07-31T19:19:24Z</time>
      </trkpt>
      <trkpt lat="47.67907" lon="-2.74106">
        <ele>16</ele>
        <time>2021-07-31T19:19:25Z</time>
      </trkpt>
      <trkpt lat="47.67906" lon="-2.74121">
        <ele>16.96</ele>
        <time>2021-07-31T19:19:26Z</time>
      </trkpt>
      <trkpt lat="47.67904" lon="-2.74136">
        <ele>17.44</ele>
        <time>2021-07-31T19:19:27Z</time>
      </trkpt>
      <trkpt lat="47.6791" lon="-2.74171">
        <ele>17.92</ele>
        <time>2021-07-31T19:19:28Z</time>
      </trkpt>
      <trkpt lat="47.67955" lon="-2.74296">
        <ele>19.36</ele>
        <time>2021-07-31T19:19:36Z</time>
      </trkpt>
      <trkpt lat="47.68036" lon="-2.74387">
        <ele>22.73</ele>
        <time>2021-07-31T19:19:42Z</time>
      </trkpt>
      <trkpt lat="47.68263" lon="-2.74563">
        <ele>27.53</ele>
        <time>2021-07-31T19:19:55Z</time>
      </trkpt>
      <trkpt lat="47.68439" lon="-2.74736">
        <ele>30.9</ele>
        <time>2021-07-31T19:20:05Z</time>
      </trkpt>
      <trkpt lat="47.68735" lon="-2.75045">
        <ele>32.34</ele>
        <time>2021-07-31T19:20:22Z</time>
      </trkpt>
      <trkpt lat="47.68752" lon="-2.75057">
        <ele>30.9</ele>
        <time>2021-07-31T19:20:24Z</time>
      </trkpt>
      <trkpt lat="47.68766" lon="-2.75068">
        <ele>31.38</ele>
        <time>2021-07-31T19:20:25Z</time>
      </trkpt>
      <trkpt lat="47.68779" lon="-2.75073">
        <ele>32.34</ele>
        <time>2021-07-31T19:20:26Z</time>
      </trkpt>
      <trkpt lat="47.68825" lon="-2.75083">
        <ele>32.82</ele>
        <time>2021-07-31T19:20:30Z</time>
      </trkpt>
      <trkpt lat="47.68832" lon="-2.75079">
        <ele>32.82</ele>
        <time>2021-07-31T19:20:31Z</time>
      </trkpt>
      <trkpt lat="47.68837" lon="-2.75076">
        <ele>32.82</ele>
        <time>2021-07-31T19:20:32Z</time>
      </trkpt>
      <trkpt lat="47.68841" lon="-2.75074">
        <ele>32.82</ele>
        <time>2021-07-31T19:20:33Z</time>
      </trkpt>
      <trkpt lat="47.68843" lon="-2.75072">
        <ele>32.82</ele>
        <time>2021-07-31T19:20:34Z</time>
      </trkpt>
      <trkpt lat="47.68846" lon="-2.75071">
        <ele>32.82</ele>
        <time>2021-07-31T19:20:35Z</time>
      </trkpt>
      <trkpt lat="47.68849" lon="-2.75069">
        <ele>32.34</ele>
        <time>2021-07-31T19:20:36Z</time>
      </trkpt>
      <trkpt lat="47.68856" lon="-2.75057">
        <ele>32.34</ele>
        <time>2021-07-31T19:20:37Z</time>
      </trkpt>
      <trkpt lat="47.68856" lon="-2.75057">
        <ele>32.34</ele>
        <time>2021-07-31T19:20:38Z</time>
      </trkpt>
      <trkpt lat="47.68861" lon="-2.75051">
        <ele>32.34</ele>
        <time>2021-07-31T19:20:39Z</time>
      </trkpt>
      <trkpt lat="47.68876" lon="-2.75042">
        <ele>32.34</ele>
        <time>2021-07-31T19:20:40Z</time>
      </trkpt>
      <trkpt lat="47.68885" lon="-2.75041">
        <ele>32.34</ele>
        <time>2021-07-31T19:20:41Z</time>
      </trkpt>
      <trkpt lat="47.68893" lon="-2.75042">
        <ele>32.34</ele>
        <time>2021-07-31T19:20:42Z</time>
      </trkpt>
      <trkpt lat="47.68902" lon="-2.75048">
        <ele>32.34</ele>
        <time>2021-07-31T19:20:43Z</time>
      </trkpt>
      <trkpt lat="47.6891" lon="-2.75056">
        <ele>33.78</ele>
        <time>2021-07-31T19:20:44Z</time>
      </trkpt>
      <trkpt lat="47.68915" lon="-2.75065">
        <ele>33.78</ele>
        <time>2021-07-31T19:20:45Z</time>
      </trkpt>
      <trkpt lat="47.68915" lon="-2.75065">
        <ele>32.82</ele>
        <time>2021-07-31T19:20:46Z</time>
      </trkpt>
      <trkpt lat="47.68922" lon="-2.75095">
        <ele>33.3</ele>
        <time>2021-07-31T19:20:47Z</time>
      </trkpt>
      <trkpt lat="47.68921" lon="-2.7511">
        <ele>33.78</ele>
        <time>2021-07-31T19:20:48Z</time>
      </trkpt>
      <trkpt lat="47.68921" lon="-2.7511">
        <ele>33.78</ele>
        <time>2021-07-31T19:20:49Z</time>
      </trkpt>
      <trkpt lat="47.68918" lon="-2.75124">
        <ele>33.78</ele>
        <time>2021-07-31T19:20:50Z</time>
      </trkpt>
      <trkpt lat="47.68913" lon="-2.75137">
        <ele>34.26</ele>
        <time>2021-07-31T19:20:51Z</time>
      </trkpt>
      <trkpt lat="47.68909" lon="-2.7515">
        <ele>33.78</ele>
        <time>2021-07-31T19:20:52Z</time>
      </trkpt>
      <trkpt lat="47.68905" lon="-2.75164">
        <ele>32.82</ele>
        <time>2021-07-31T19:20:53Z</time>
      </trkpt>
      <trkpt lat="47.68902" lon="-2.75176">
        <ele>33.3</ele>
        <time>2021-07-31T19:20:54Z</time>
      </trkpt>
      <trkpt lat="47.68902" lon="-2.75187">
        <ele>33.78</ele>
        <time>2021-07-31T19:20:55Z</time>
      </trkpt>
      <trkpt lat="47.68903" lon="-2.75202">
        <ele>34.74</ele>
        <time>2021-07-31T19:20:56Z</time>
      </trkpt>
      <trkpt lat="47.68928" lon="-2.75359">
        <ele>36.67</ele>
        <time>2021-07-31T19:21:04Z</time>
      </trkpt>
      <trkpt lat="47.68944" lon="-2.75569">
        <ele>38.59</ele>
        <time>2021-07-31T19:21:12Z</time>
      </trkpt>
      <trkpt lat="47.6891" lon="-2.75775">
        <ele>40.99</ele>
        <time>2021-07-31T19:21:19Z</time>
      </trkpt>
      <trkpt lat="47.68826" lon="-2.75957">
        <ele>39.55</ele>
        <time>2021-07-31T19:21:26Z</time>
      </trkpt>
      <trkpt lat="47.68692" lon="-2.76106">
        <ele>37.15</ele>
        <time>2021-07-31T19:21:34Z</time>
      </trkpt>
      <trkpt lat="47.68601" lon="-2.76205">
        <ele>37.63</ele>
        <time>2021-07-31T19:21:42Z</time>
      </trkpt>
      <trkpt lat="47.6847" lon="-2.7634">
        <ele>40.51</ele>
        <time>2021-07-31T19:21:54Z</time>
      </trkpt>
      <trkpt lat="47.68424" lon="-2.76453">
        <ele>39.07</ele>
        <time>2021-07-31T19:22:03Z</time>
      </trkpt>
      <trkpt lat="47.68411" lon="-2.76533">
        <ele>39.55</ele>
        <time>2021-07-31T19:22:10Z</time>
      </trkpt>
      <trkpt lat="47.68414" lon="-2.76598">
        <ele>40.03</ele>
        <time>2021-07-31T19:22:21Z</time>
      </trkpt>
      <trkpt lat="47.68416" lon="-2.76609">
        <ele>40.03</ele>
        <time>2021-07-31T19:22:22Z</time>
      </trkpt>
      <trkpt lat="47.68425" lon="-2.76626">
        <ele>39.55</ele>
        <time>2021-07-31T19:22:24Z</time>
      </trkpt>
      <trkpt lat="47.68429" lon="-2.76641">
        <ele>39.07</ele>
        <time>2021-07-31T19:22:25Z</time>
      </trkpt>
      <trkpt lat="47.68429" lon="-2.76665">
        <ele>39.07</ele>
        <time>2021-07-31T19:22:26Z</time>
      </trkpt>
      <trkpt lat="47.68429" lon="-2.76665">
        <ele>38.59</ele>
        <time>2021-07-31T19:22:27Z</time>
      </trkpt>
      <trkpt lat="47.68425" lon="-2.76677">
        <ele>38.59</ele>
        <time>2021-07-31T19:22:28Z</time>
      </trkpt>
      <trkpt lat="47.68417" lon="-2.76683">
        <ele>38.59</ele>
        <time>2021-07-31T19:22:29Z</time>
      </trkpt>
      <trkpt lat="47.68409" lon="-2.76689">
        <ele>37.63</ele>
        <time>2021-07-31T19:22:30Z</time>
      </trkpt>
      <trkpt lat="47.68401" lon="-2.76695">
        <ele>38.11</ele>
        <time>2021-07-31T19:22:31Z</time>
      </trkpt>
      <trkpt lat="47.68394" lon="-2.76693">
        <ele>37.63</ele>
        <time>2021-07-31T19:22:32Z</time>
      </trkpt>
      <trkpt lat="47.68385" lon="-2.7669">
        <ele>38.11</ele>
        <time>2021-07-31T19:22:33Z</time>
      </trkpt>
      <trkpt lat="47.68375" lon="-2.76693">
        <ele>38.11</ele>
        <time>2021-07-31T19:22:34Z</time>
      </trkpt>
      <trkpt lat="47.68365" lon="-2.76697">
        <ele>37.15</ele>
        <time>2021-07-31T19:22:35Z</time>
      </trkpt>
      <trkpt lat="47.68266" lon="-2.76752">
        <ele>34.26</ele>
        <time>2021-07-31T19:22:42Z</time>
      </trkpt>
      <trkpt lat="47.68153" lon="-2.76891">
        <ele>32.34</ele>
        <time>2021-07-31T19:22:50Z</time>
      </trkpt>
      <trkpt lat="47.67922" lon="-2.77204">
        <ele>28.02</ele>
        <time>2021-07-31T19:23:07Z</time>
      </trkpt>
      <trkpt lat="47.67783" lon="-2.7736">
        <ele>25.13</ele>
        <time>2021-07-31T19:23:18Z</time>
      </trkpt>
      <trkpt lat="47.67729" lon="-2.77404">
        <ele>25.13</ele>
        <time>2021-07-31T19:23:25Z</time>
      </trkpt>
      <trkpt lat="47.67702" lon="-2.77425">
        <ele>25.13</ele>
        <time>2021-07-31T19:23:30Z</time>
      </trkpt>
      <trkpt lat="47.67697" lon="-2.7743">
        <ele>25.13</ele>
        <time>2021-07-31T19:23:31Z</time>
      </trkpt>
      <trkpt lat="47.67692" lon="-2.77436">
        <ele>25.13</ele>
        <time>2021-07-31T19:23:32Z</time>
      </trkpt>
      <trkpt lat="47.67691" lon="-2.77441">
        <ele>24.65</ele>
        <time>2021-07-31T19:23:33Z</time>
      </trkpt>
      <trkpt lat="47.67689" lon="-2.77445">
        <ele>25.13</ele>
        <time>2021-07-31T19:23:34Z</time>
      </trkpt>
      <trkpt lat="47.67688" lon="-2.77449">
        <ele>25.13</ele>
        <time>2021-07-31T19:23:35Z</time>
      </trkpt>
      <trkpt lat="47.6769" lon="-2.77456">
        <ele>25.13</ele>
        <time>2021-07-31T19:23:36Z</time>
      </trkpt>
      <trkpt lat="47.67693" lon="-2.77459">
        <ele>25.13</ele>
        <time>2021-07-31T19:23:37Z</time>
      </trkpt>
      <trkpt lat="47.67695" lon="-2.77461">
        <ele>25.13</ele>
        <time>2021-07-31T19:23:38Z</time>
      </trkpt>
      <trkpt lat="47.67697" lon="-2.77463">
        <ele>25.13</ele>
        <time>2021-07-31T19:23:39Z</time>
      </trkpt>
      <trkpt lat="47.67698" lon="-2.77465">
        <ele>25.13</ele>
        <time>2021-07-31T19:23:40Z</time>
      </trkpt>
      <trkpt lat="47.67721" lon="-2.7748">
        <ele>26.57</ele>
        <time>2021-07-31T19:23:48Z</time>
      </trkpt>
      <trkpt lat="47.67731" lon="-2.77483">
        <ele>27.05</ele>
        <time>2021-07-31T19:23:50Z</time>
      </trkpt>
      <trkpt lat="47.67736" lon="-2.77484">
        <ele>27.53</ele>
        <time>2021-07-31T19:23:51Z</time>
      </trkpt>
      <trkpt lat="47.67741" lon="-2.77483">
        <ele>27.53</ele>
        <time>2021-07-31T19:23:52Z</time>
      </trkpt>
      <trkpt lat="47.67818" lon="-2.77458">
        <ele>27.53</ele>
        <time>2021-07-31T19:24:04Z</time>
      </trkpt>
      <trkpt lat="47.67931" lon="-2.7742">
        <ele>30.42</ele>
        <time>2021-07-31T19:24:15Z</time>
      </trkpt>
      <trkpt lat="47.68089" lon="-2.77437">
        <ele>32.34</ele>
        <time>2021-07-31T19:24:30Z</time>
      </trkpt>
      <trkpt lat="47.68106" lon="-2.77449">
        <ele>32.34</ele>
        <time>2021-07-31T19:24:31Z</time>
      </trkpt>
      <trkpt lat="47.68126" lon="-2.77465">
        <ele>32.34</ele>
        <time>2021-07-31T19:24:35Z</time>
      </trkpt>
      <trkpt lat="47.68132" lon="-2.77472">
        <ele>32.82</ele>
        <time>2021-07-31T19:24:36Z</time>
      </trkpt>
      <trkpt lat="47.68133" lon="-2.77474">
        <ele>32.82</ele>
        <time>2021-07-31T19:24:37Z</time>
      </trkpt>
      <trkpt lat="47.68133" lon="-2.77474">
        <ele>32.82</ele>
        <time>2021-07-31T19:24:38Z</time>
      </trkpt>
      <trkpt lat="47.68133" lon="-2.77474">
        <ele>32.82</ele>
        <time>2021-07-31T19:24:39Z</time>
      </trkpt>
      <trkpt lat="47.68133" lon="-2.77474">
        <ele>31.86</ele>
        <time>2021-07-31T19:24:52Z</time>
      </trkpt>
      <trkpt lat="47.68133" lon="-2.77474">
        <ele>31.86</ele>
        <time>2021-07-31T19:24:54Z</time>
      </trkpt>
      <trkpt lat="47.68133" lon="-2.77474">
        <ele>31.86</ele>
        <time>2021-07-31T19:24:55Z</time>
      </trkpt>
      <trkpt lat="47.68159" lon="-2.77449">
        <ele>31.86</ele>
        <time>2021-07-31T19:25:03Z</time>
      </trkpt>
      <trkpt lat="47.6816" lon="-2.7745">
        <ele>31.86</ele>
        <time>2021-07-31T19:25:05Z</time>
      </trkpt>
      <trkpt lat="47.68164" lon="-2.77458">
        <ele>32.34</ele>
        <time>2021-07-31T19:25:14Z</time>
      </trkpt>
      <trkpt lat="47.68157" lon="-2.77465">
        <ele>31.86</ele>
        <time>2021-07-31T19:25:20Z</time>
      </trkpt>
      <trkpt lat="47.68121" lon="-2.77459">
        <ele>31.38</ele>
        <time>2021-07-31T19:25:27Z</time>
      </trkpt>
      <trkpt lat="47.68121" lon="-2.77459">
        <ele>31.38</ele>
        <time>2021-07-31T19:25:28Z</time>
      </trkpt>
      <trkpt lat="47.68044" lon="-2.77423">
        <ele>29.46</ele>
        <time>2021-07-31T19:25:38Z</time>
      </trkpt>
      <trkpt lat="47.67902" lon="-2.77423">
        <ele>25.13</ele>
        <time>2021-07-31T19:25:51Z</time>
      </trkpt>
      <trkpt lat="47.67766" lon="-2.7748">
        <ele>26.57</ele>
        <time>2021-07-31T19:26:03Z</time>
      </trkpt>
      <trkpt lat="47.67766" lon="-2.7748">
        <ele>26.09</ele>
        <time>2021-07-31T19:26:04Z</time>
      </trkpt>
      <trkpt lat="47.67755" lon="-2.77482">
        <ele>25.13</ele>
        <time>2021-07-31T19:26:05Z</time>
      </trkpt>
      <trkpt lat="47.67745" lon="-2.77483">
        <ele>24.17</ele>
        <time>2021-07-31T19:26:06Z</time>
      </trkpt>
      <trkpt lat="47.67735" lon="-2.77484">
        <ele>23.21</ele>
        <time>2021-07-31T19:26:07Z</time>
      </trkpt>
      <trkpt lat="47.67726" lon="-2.77482">
        <ele>22.73</ele>
        <time>2021-07-31T19:26:08Z</time>
      </trkpt>
      <trkpt lat="47.67718" lon="-2.77479">
        <ele>22.25</ele>
        <time>2021-07-31T19:26:09Z</time>
      </trkpt>
      <trkpt lat="47.67711" lon="-2.77477">
        <ele>22.25</ele>
        <time>2021-07-31T19:26:10Z</time>
      </trkpt>
      <trkpt lat="47.67693" lon="-2.77459">
        <ele>22.73</ele>
        <time>2021-07-31T19:26:18Z</time>
      </trkpt>
      <trkpt lat="47.67683" lon="-2.77456">
        <ele>22.73</ele>
        <time>2021-07-31T19:26:22Z</time>
      </trkpt>
      <trkpt lat="47.67676" lon="-2.77463">
        <ele>22.73</ele>
        <time>2021-07-31T19:26:23Z</time>
      </trkpt>
      <trkpt lat="47.67676" lon="-2.77463">
        <ele>22.25</ele>
        <time>2021-07-31T19:26:24Z</time>
      </trkpt>
      <trkpt lat="47.67676" lon="-2.77463">
        <ele>22.25</ele>
        <time>2021-07-31T19:26:25Z</time>
      </trkpt>
      <trkpt lat="47.67668" lon="-2.77484">
        <ele>22.25</ele>
        <time>2021-07-31T19:26:26Z</time>
      </trkpt>
      <trkpt lat="47.67671" lon="-2.77492">
        <ele>22.73</ele>
        <time>2021-07-31T19:26:27Z</time>
      </trkpt>
      <trkpt lat="47.67674" lon="-2.77502">
        <ele>22.73</ele>
        <time>2021-07-31T19:26:28Z</time>
      </trkpt>
      <trkpt lat="47.67676" lon="-2.7751">
        <ele>23.21</ele>
        <time>2021-07-31T19:26:29Z</time>
      </trkpt>
      <trkpt lat="47.67675" lon="-2.77518">
        <ele>23.21</ele>
        <time>2021-07-31T19:26:30Z</time>
      </trkpt>
      <trkpt lat="47.67671" lon="-2.77545">
        <ele>24.65</ele>
        <time>2021-07-31T19:26:37Z</time>
      </trkpt>
      <trkpt lat="47.67676" lon="-2.77556">
        <ele>24.65</ele>
        <time>2021-07-31T19:26:38Z</time>
      </trkpt>
      <trkpt lat="47.6768" lon="-2.77558">
        <ele>24.65</ele>
        <time>2021-07-31T19:26:39Z</time>
      </trkpt>
      <trkpt lat="47.67689" lon="-2.77563">
        <ele>24.65</ele>
        <time>2021-07-31T19:26:40Z</time>
      </trkpt>
      <trkpt lat="47.67736" lon="-2.77595">
        <ele>26.09</ele>
        <time>2021-07-31T19:26:55Z</time>
      </trkpt>
      <trkpt lat="47.67795" lon="-2.77639">
        <ele>27.53</ele>
        <time>2021-07-31T19:27:07Z</time>
      </trkpt>
      <trkpt lat="47.67835" lon="-2.77669">
        <ele>27.53</ele>
        <time>2021-07-31T19:27:14Z</time>
      </trkpt>
      <trkpt lat="47.67843" lon="-2.77671">
        <ele>27.53</ele>
        <time>2021-07-31T19:27:15Z</time>
      </trkpt>
      <trkpt lat="47.6785" lon="-2.7767">
        <ele>27.53</ele>
        <time>2021-07-31T19:27:16Z</time>
      </trkpt>
      <trkpt lat="47.67856" lon="-2.7767">
        <ele>27.53</ele>
        <time>2021-07-31T19:27:17Z</time>
      </trkpt>
      <trkpt lat="47.67864" lon="-2.7767">
        <ele>27.53</ele>
        <time>2021-07-31T19:27:18Z</time>
      </trkpt>
      <trkpt lat="47.67992" lon="-2.77666">
        <ele>28.98</ele>
        <time>2021-07-31T19:27:34Z</time>
      </trkpt>
      <trkpt lat="47.68098" lon="-2.77666">
        <ele>31.38</ele>
        <time>2021-07-31T19:27:47Z</time>
      </trkpt>
      <trkpt lat="47.68137" lon="-2.77679">
        <ele>32.82</ele>
        <time>2021-07-31T19:27:57Z</time>
      </trkpt>
      <trkpt lat="47.68186" lon="-2.77677">
        <ele>33.3</ele>
        <time>2021-07-31T19:28:07Z</time>
      </trkpt>
      <trkpt lat="47.68184" lon="-2.77699">
        <ele>34.74</ele>
        <time>2021-07-31T19:28:19Z</time>
      </trkpt>
      <trkpt lat="47.68177" lon="-2.77715">
        <ele>35.23</ele>
        <time>2021-07-31T19:29:16Z</time>
      </trkpt>
    </trkseg>
  </trk>
</gpx>